Provisional Data: South Branch Tunkhannock Creek near La Plume, PA


Please select a monitoring station.
Please select start date.
Please select start date.

Toggle Unit: C/F Toggle Unit: C/F
Sample Time Temperature (C) Temperature (F) Specific Conductivity (mS/cm) pH   Turbidity (NTU+) DO (mg/L)
8/1/2022 12:00:00 AM 20.9 69.62 0.327 7.26 0.72 6.93
8/1/2022 12:15:00 AM 20.86 69.548 0.327 7.25 0.83 6.92
8/1/2022 12:30:00 AM 20.82 69.476 0.328 7.24 1.24 6.93
8/1/2022 12:45:00 AM 20.79 69.422 0.328 7.24 1.81 6.94
8/1/2022 1:00:00 AM 20.75 69.35 0.328 7.23 1.09 6.94
8/1/2022 1:15:00 AM 20.71 69.278 0.328 7.23 1.51 6.93
8/1/2022 1:30:00 AM 20.68 69.224 0.329 7.24 1.02 6.99
8/1/2022 1:45:00 AM 20.66 69.188 0.329 7.24 1.1 7.02
8/1/2022 2:00:00 AM 20.61 69.098 0.329 7.23 0.86 6.96
8/1/2022 2:15:00 AM 20.59 69.062 0.33 7.22 0.87 7
8/1/2022 2:30:00 AM 20.57 69.026 0.33 7.23 0.84 7.03
8/1/2022 2:45:00 AM 20.55 68.99 0.33 7.22 0.93 6.99
8/1/2022 3:00:00 AM 20.53 68.954 0.331 7.24 0.9 7.08
8/1/2022 3:15:00 AM 20.48 68.864 0.33 7.22 0.99 6.99
8/1/2022 3:30:00 AM 20.46 68.828 0.331 7.23 1.07 7.04
8/1/2022 3:45:00 AM 20.43 68.774 0.331 7.22 1.39 7.02
8/1/2022 4:00:00 AM 20.4 68.72 0.332 7.22 0.88 7.05
8/1/2022 4:15:00 AM 20.37 68.666 0.332 7.22 1.94 7.07
8/1/2022 4:30:00 AM 20.34 68.612 0.332 7.22 0.93 7.04
8/1/2022 4:45:00 AM 20.32 68.576 0.332 7.22 0.8 7.07
8/1/2022 5:00:00 AM 20.3 68.54 0.332 7.23 0.79 7.09
8/1/2022 5:15:00 AM 20.28 68.504 0.333 7.24 1.06 7.14
8/1/2022 5:30:00 AM 20.24 68.432 0.332 7.21 1.02 7.07
8/1/2022 5:45:00 AM 20.23 68.414 0.332 7.23 0.94 7.11
8/1/2022 6:00:00 AM 20.2 68.36 0.332 7.23 0.9 7.16
8/1/2022 6:15:00 AM 20.19 68.342 0.332 7.22 0.91 7.12
8/1/2022 6:30:00 AM 20.16 68.288 0.332 7.24 0.95 7.22
8/1/2022 6:45:00 AM 20.13 68.234 0.332 7.24 1.48 7.25
8/1/2022 7:00:00 AM 20.15 68.27 0.332 7.26 1.9 7.42
8/1/2022 7:15:00 AM 20.14 68.252 0.331 7.27 1.73 7.57
8/1/2022 7:30:00 AM 20.13 68.234 0.331 7.28 1.92 7.6
8/1/2022 7:45:00 AM 20.13 68.234 0.331 7.3 1.05 7.67
8/1/2022 8:00:00 AM 20.14 68.252 0.331 7.33 0.83 7.86
8/1/2022 8:15:00 AM 20.15 68.27 0.331 7.36 0.69 7.96
8/1/2022 8:30:00 AM 20.18 68.324 0.331 7.41 0.68 8.3
8/1/2022 8:45:00 AM 20.21 68.378 0.33 7.42 1.11 8.48
8/1/2022 9:00:00 AM 20.27 68.486 0.33 7.48 1.66 8.78
8/1/2022 9:15:00 AM 20.39 68.702 0.33 7.62 0.76 9.26
8/1/2022 9:30:00 AM 20.43 68.774 0.33 7.65 0.74 9.41
8/1/2022 9:45:00 AM 20.5 68.9 0.33 7.75 0.65 9.7
8/1/2022 10:00:00 AM 20.58 69.044 0.33 7.76 0.78 9.94
8/1/2022 10:15:00 AM 20.69 69.242 0.33 7.99 0.84 10.32
8/1/2022 10:30:00 AM 20.77 69.386 0.33 8.05 1.13 10.46
8/1/2022 10:45:00 AM 20.83 69.494 0.33 8.12 0.76 10.53
8/1/2022 11:00:00 AM 20.88 69.584 0.331 8.13 0.62 10.43
8/1/2022 11:15:00 AM 21 69.8 0.33 8.24 0.62 10.72
8/1/2022 11:30:00 AM 21.12 70.016 0.33 8.35 0.67 10.87
8/1/2022 11:45:00 AM 21.22 70.196 0.329 8.43 0.75 11.13
8/1/2022 12:00:00 PM 21.43 70.574 0.328 8.53 0.7 11.43
8/1/2022 12:15:00 PM 21.52 70.736 0.329 8.56 0.71 11.39
8/1/2022 12:30:00 PM 21.6 70.88 0.328 8.59 0.65 11.41
8/1/2022 12:45:00 PM 21.77 71.186 0.327 8.64 1.2 11.65
8/1/2022 1:00:00 PM 21.92 71.456 0.327 8.71 3.41 11.66
8/1/2022 1:15:00 PM 22.06 71.708 0.328 8.72 1.78 11.73
8/1/2022 1:30:00 PM 22.09 71.762 0.328 8.72 0.68 11.58
8/1/2022 1:45:00 PM 22.3 72.14 0.328 8.78 0.66 11.8
8/1/2022 2:00:00 PM 22.41 72.338 0.328 8.78 0.69 11.76
8/1/2022 2:15:00 PM 22.44 72.392 0.328 8.79 0.67 11.67
8/1/2022 2:30:00 PM 22.64 72.752 0.326 8.87 0.56 11.9
8/1/2022 2:45:00 PM 23.19 73.742 0.327 8.9 0.6 11.91
8/1/2022 3:00:00 PM 23.35 74.03 0.327 8.86 0.59 11.61
8/1/2022 3:15:00 PM 23.48 74.264 0.331 8.83 0.66 11.33
8/1/2022 3:30:00 PM 23.61 74.498 0.333 8.84 0.58 11.27
8/1/2022 3:45:00 PM 23.76 74.768 0.334 8.83 2.31 11.17
8/1/2022 4:00:00 PM 23.76 74.768 0.335 8.81 0.99 10.97
8/1/2022 4:15:00 PM 23.99 75.182 0.336 8.86 0.69 11.12
8/1/2022 4:30:00 PM 24.07 75.326 0.337 8.85 0.62 10.94
8/1/2022 4:45:00 PM 23.99 75.182 0.337 8.82 0.75 10.82
8/1/2022 5:00:00 PM 24 75.2 0.338 8.81 0.69 10.76
8/1/2022 5:15:00 PM 23.94 75.092 0.338 8.75 0.55 10.41
8/1/2022 5:30:00 PM 23.94 75.092 0.339 8.75 0.8 10.45
8/1/2022 5:45:00 PM 23.85 74.93 0.338 8.71 0.56 10.25
8/1/2022 6:00:00 PM 23.87 74.966 0.296 8.68 0.73 10.12
8/1/2022 6:15:00 PM 23.81 74.858 0.338 8.62 0.59 9.84
8/1/2022 6:30:00 PM 23.73 74.714 0.338 8.54 0.6 9.58
8/1/2022 6:45:00 PM 23.59 74.462 0.338 8.44 0.64 9.28
8/1/2022 7:00:00 PM 23.44 74.192 0.338 8.32 0.66 8.92
8/1/2022 7:15:00 PM 23.24 73.832 0.339 8.16 0.63 8.52
8/1/2022 7:30:00 PM 23.09 73.562 0.339 7.99 0.63 8.15
8/1/2022 7:45:00 PM 22.94 73.292 0.149 7.83 0.74 7.85
8/1/2022 8:00:00 PM 22.8 73.04 0.337 7.71 0.67 7.6
8/1/2022 8:15:00 PM 22.66 72.788 0.335 7.63 0.71 7.41
8/1/2022 8:30:00 PM 22.55 72.59 0.331 7.54 1.25 7.19
8/1/2022 8:45:00 PM 22.43 72.374 0.333 7.47 0.79 7
8/1/2022 9:00:00 PM 22.31 72.158 0.334 7.43 0.93 6.89
8/1/2022 9:15:00 PM 22.2 71.96 0.334 7.4 1.22 6.82
8/1/2022 9:30:00 PM 22.12 71.816 0.335 7.37 0.92 6.81
8/1/2022 9:45:00 PM 22.03 71.654 0.335 7.35 1.03 6.75
8/1/2022 10:00:00 PM 21.94 71.492 0.293 7.33 1.32 6.72
8/1/2022 10:15:00 PM 21.86 71.348 0.335 7.32 1.17 6.7
8/1/2022 10:30:00 PM 21.79 71.222 0.335 7.3 0.97 6.7
8/1/2022 10:45:00 PM 21.72 71.096 0.336 7.29 2.34 6.68
8/1/2022 11:00:00 PM 21.64 70.952 0.336 7.28 1.88 6.67
8/1/2022 11:15:00 PM 21.58 70.844 0.337 7.28 1.5 6.73
8/1/2022 11:30:00 PM 21.53 70.754 0.337 7.27 1.25 6.73
8/1/2022 11:45:00 PM 21.48 70.664 0.296 7.27 1.5 6.76
8/2/2022 12:00:00 AM 21.41 70.538 0.338 7.26 1.4 6.72
8/2/2022 12:15:00 AM 21.36 70.448 0.339 7.26 1.29 6.8
8/2/2022 12:30:00 AM 21.29 70.32201 0.339 7.26 1.04 6.77
8/2/2022 12:45:00 AM 21.22 70.196 0.345 7.25 1.38 6.76
8/2/2022 1:00:00 AM 21.19 70.142 0.339 7.25 0.76 6.82
8/2/2022 1:15:00 AM 21.11 69.998 0.339 7.25 0.79 6.83
8/2/2022 1:30:00 AM 21.05 69.89 0.339 7.25 0.79 6.81
8/2/2022 1:45:00 AM 21 69.8 0.34 7.25 1.03 6.82
8/2/2022 2:00:00 AM 20.94 69.692 0.34 7.24 0.77 6.85
8/2/2022 2:15:00 AM 20.88 69.584 0.34 7.24 0.82 6.87
8/2/2022 2:30:00 AM 20.82 69.476 0.34 7.24 0.84 6.89
8/2/2022 2:45:00 AM 20.75 69.35 0.341 7.23 1.02 6.84
8/2/2022 3:00:00 AM 20.7 69.26 0.341 7.23 0.77 6.89
8/2/2022 3:15:00 AM 20.64 69.152 0.341 7.22 0.67 6.9
8/2/2022 3:30:00 AM 20.59 69.062 0.342 7.22 0.76 6.89
8/2/2022 3:45:00 AM 20.53 68.954 0.342 7.22 1.17 6.92
8/2/2022 4:00:00 AM 20.47 68.846 0.343 7.23 2.04 6.95
8/2/2022 4:15:00 AM 20.43 68.774 0.344 7.24 0.73 6.99
8/2/2022 4:30:00 AM 20.36 68.648 0.343 7.22 1.08 6.97
8/2/2022 4:45:00 AM 20.3 68.54 0.212 7.22 0.74 6.97
8/2/2022 5:00:00 AM 20.26 68.468 0.344 7.22 1.18 6.99
8/2/2022 5:15:00 AM 20.22 68.396 0.344 7.22 1.47 7
8/2/2022 5:30:00 AM 20.16 68.288 0.344 7.22 1.44 7.03
8/2/2022 5:45:00 AM 20.11 68.198 0.344 7.22 1.01 7
8/2/2022 6:00:00 AM 20.06 68.108 0.344 7.21 0.96 7.03
8/2/2022 6:15:00 AM 20.02 68.036 0.344 7.21 1.02 7.08
8/2/2022 6:30:00 AM 19.99 67.982 0.344 7.22 -0.11 7.2
8/2/2022 6:45:00 AM 19.96 67.92799 0.344 7.24 32.31 7.27
8/2/2022 7:00:00 AM 19.94 67.892 0.344 7.26 0.07 7.44
8/2/2022 7:15:00 AM 19.92 67.856 0.344 7.27 3.1 7.48
8/2/2022 7:30:00 AM 19.93 67.874 0.344 7.3 0.81 7.7
8/2/2022 7:45:00 AM 20 68 0.344 7.35 0.66 8.16
8/2/2022 8:00:00 AM 20.12 68.216 0.343 7.41 0.87 8.55
8/2/2022 8:15:00 AM 20.25 68.45 0.343 7.48 1.19 8.99
8/2/2022 8:30:00 AM 20.32 68.576 0.342 7.53 1.39 9.18
8/2/2022 8:45:00 AM 20.41 68.738 0.342 7.63 1.99 9.46
8/2/2022 9:00:00 AM 20.5 68.9 0.342 7.69 1.34 9.63
8/2/2022 9:15:00 AM 20.58 69.044 0.341 7.76 0.92 9.76
8/2/2022 9:30:00 AM 20.65 69.17 0.341 7.8 0.94 9.82
8/2/2022 9:45:00 AM 20.71 69.278 0.34 7.8 0.89 9.8
8/2/2022 10:00:00 AM 20.85 69.53 0.341 7.91 0.62 10.11
8/2/2022 10:15:00 AM 21.05 69.89 0.34 8.09 0.82 10.55
8/2/2022 10:30:00 AM 21.21 70.17799 0.34 8.24 0.66 10.69
8/2/2022 10:45:00 AM 21.54 70.772 0.339 8.35 0.97 10.99
8/2/2022 11:00:00 AM 21.8 71.24 0.339 8.44 0.94 11.15
8/2/2022 11:15:00 AM 21.76 71.168 0.34 8.36 0.74 10.65
8/2/2022 11:30:00 AM 22 71.6 0.34 8.42 0.82 10.78
8/2/2022 11:45:00 AM 22.22 71.996 0.34 8.48 0.88 10.98
8/2/2022 12:00:00 PM 22.27 72.086 0.339 8.48 0.84 10.89
8/2/2022 12:15:00 PM 22.3 72.14 0.34 8.47 0.91 10.71
8/2/2022 12:30:00 PM 22.32 72.176 0.34 8.44 1.38 10.61
8/2/2022 12:45:00 PM 22.51 72.518 0.34 8.53 0.74 10.83
8/2/2022 1:00:00 PM 22.75 72.95 0.339 8.6 0.79 11.03
8/2/2022 1:15:00 PM 23 73.4 0.339 8.65 0.65 11.11
8/2/2022 1:30:00 PM 23.14 73.652 0.339 8.64 0.68 10.89
8/2/2022 1:45:00 PM 23.45 74.21 0.339 8.7 0.79 11.16
8/2/2022 2:00:00 PM 23.49 74.282 0.339 8.64 0.9 10.83
8/2/2022 2:15:00 PM 23.5 74.3 0.339 8.66 0.67 10.81
8/2/2022 2:30:00 PM 23.47 74.246 0.34 8.64 0.9 10.69
8/2/2022 2:45:00 PM 23.64 74.552 0.342 8.72 1.02 10.92
8/2/2022 3:00:00 PM 23.95 75.11 0.344 8.76 0.61 10.99
8/2/2022 3:15:00 PM 24.39 75.902 0.344 8.8 0.61 11.15
8/2/2022 3:30:00 PM 24.56 76.208 0.345 8.81 0.64 11.07
8/2/2022 3:45:00 PM 24.47 76.046 0.345 8.76 0.7 10.68
8/2/2022 4:00:00 PM 24.47 76.046 0.344 8.72 0.64 10.54
8/2/2022 4:15:00 PM 24.62 76.316 0.344 8.73 0.76 10.48
8/2/2022 4:30:00 PM 24.69 76.442 0.344 8.7 1.87 10.27
8/2/2022 4:45:00 PM 24.7 76.46 0.346 8.68 0.91 10.04
8/2/2022 5:00:00 PM 24.63 76.334 0.346 8.63 0.89 9.92
8/2/2022 5:15:00 PM 24.54 76.172 0.347 8.6 0.88 9.76
8/2/2022 5:30:00 PM 24.6 76.28 0.348 8.62 0.75 9.85
8/2/2022 5:45:00 PM 24.61 76.298 0.348 8.61 0.98 9.77
8/2/2022 6:00:00 PM 24.47 76.046 0.348 8.51 0.7 9.39
8/2/2022 6:15:00 PM 24.39 75.902 0.348 8.48 0.7 9.35
8/2/2022 6:30:00 PM 24.31 75.758 0.348 8.44 0.8 9.23
8/2/2022 6:45:00 PM 24.23 75.614 0.348 8.37 0.99 8.98
8/2/2022 7:00:00 PM 24.1 75.38 0.348 8.24 0.88 8.67
8/2/2022 7:15:00 PM 23.92 75.056 0.348 8.09 0.77 8.28
8/2/2022 7:30:00 PM 23.76 74.768 0.348 7.91 0.72 7.88
8/2/2022 7:45:00 PM 23.61 74.498 0.348 7.77 0.73 7.62
8/2/2022 8:00:00 PM 23.45 74.21 0.348 7.67 0.76 7.38
8/2/2022 8:15:00 PM 23.3 73.94 0.347 7.59 0.88 7.16
8/2/2022 8:30:00 PM 23.17 73.706 0.345 7.51 0.81 6.96
8/2/2022 8:45:00 PM 23.02 73.436 0.353 7.45 15.6 6.7
8/2/2022 9:00:00 PM 22.91 73.238 0.346 7.39 1.26 6.66
8/2/2022 9:15:00 PM 22.81 73.058 0.346 7.38 1.14 6.64
8/2/2022 9:30:00 PM 22.71 72.878 0.345 7.37 0.91 6.64
8/2/2022 9:45:00 PM 22.61 72.698 0.345 7.33 0.74 6.58
8/2/2022 10:00:00 PM 22.51 72.518 0.344 7.32 0.78 6.54
8/2/2022 10:15:00 PM 22.39 72.302 0.341 7.31 0.71 6.55
8/2/2022 10:30:00 PM 22.29 72.122 0.34 7.29 0.75 6.5
8/2/2022 10:45:00 PM 22.2 71.96 0.339 7.23 13.99 6.5
8/2/2022 11:00:00 PM 22.11 71.798 0.338 7.27 0.74 6.51
8/2/2022 11:15:00 PM 22.02 71.636 0.338 7.27 0.8 6.56
8/2/2022 11:30:00 PM 21.93 71.474 0.338 7.26 1.22 6.54
8/2/2022 11:45:00 PM 21.82 71.276 0.338 7.24 1.63 6.52
8/3/2022 12:00:00 AM 21.72 71.096 0.339 7.25 0.99 6.56
8/3/2022 12:15:00 AM 21.65 70.97 0.339 7.24 0.97 6.57
8/3/2022 12:30:00 AM 21.55 70.79 0.34 7.24 0.98 6.59
8/3/2022 12:45:00 AM 21.45 70.61 0.341 7.24 1.5 6.64
8/3/2022 1:00:00 AM 21.35 70.43 0.341 7.24 1.25 6.66
8/3/2022 1:15:00 AM 21.25 70.25 0.342 7.23 1.47 6.7
8/3/2022 1:30:00 AM 21.16 70.088 0.342 7.24 1.78 6.74
8/3/2022 1:45:00 AM 21.07 69.926 0.342 7.23 1.18 6.78
8/3/2022 2:00:00 AM 20.97 69.746 0.342 7.23 1.1 6.78
8/3/2022 2:15:00 AM 20.89 69.602 0.342 7.23 1.28 6.75
8/3/2022 2:30:00 AM 20.8 69.44 0.342 7.22 0.85 6.79
8/3/2022 2:45:00 AM 20.7 69.26 0.342 7.23 0.93 6.83
8/3/2022 3:00:00 AM 20.58 69.044 0.341 7.22 1.4 6.84
8/3/2022 3:15:00 AM 20.5 68.9 0.34 7.21 2.14 6.82
8/3/2022 3:30:00 AM 20.42 68.756 0.339 7.21 2.66 6.89
8/3/2022 3:45:00 AM 20.34 68.612 0.331 7.22 1.3 6.95
8/3/2022 4:00:00 AM 20.25 68.45 0.336 7.21 0.95 6.96
8/3/2022 4:15:00 AM 20.15 68.27 0.335 7.21 0.81 7.02
8/3/2022 4:30:00 AM 20.06 68.108 0.334 7.21 0.88 7.02
8/3/2022 4:45:00 AM 19.98 67.964 0.334 7.22 0.83 7.07
8/3/2022 5:00:00 AM 19.9 67.82 0.334 7.22 0.84 7.06
8/3/2022 5:15:00 AM 19.81 67.658 0.335 7.21 1.09 7.08
8/3/2022 5:30:00 AM 19.72 67.496 0.336 7.21 0.73 7.11
8/3/2022 5:45:00 AM 19.64 67.352 0.337 7.21 0.89 7.13
8/3/2022 6:00:00 AM 19.55 67.19 0.338 7.2 0.94 7.14
8/3/2022 6:15:00 AM 19.48 67.064 0.339 7.2 1.1 7.18
8/3/2022 6:30:00 AM 19.39 66.902 0.34 7.21 0.78 7.3
8/3/2022 6:45:00 AM 19.32 66.776 0.339 7.21 0.88 7.31
8/3/2022 7:00:00 AM 19.26 66.668 0.34 7.23 0.89 7.47
8/3/2022 7:15:00 AM 19.23 66.614 0.342 7.26 0.68 7.71
8/3/2022 7:30:00 AM 19.19 66.542 0.342 7.29 1.01 7.86
8/3/2022 7:45:00 AM 19.24 66.632 0.342 7.31 0.74 8.21
8/3/2022 8:00:00 AM 19.35 66.83 0.342 7.39 1.65 8.58
8/3/2022 8:15:00 AM 19.45 67.01 0.342 7.45 0.86 8.91
8/3/2022 8:30:00 AM 19.57 67.226 0.342 7.53 0.96 9.23
8/3/2022 8:45:00 AM 19.66 67.388 0.317 7.57 0.69 9.35
8/3/2022 9:00:00 AM 19.82 67.676 0.342 7.66 0.84 9.65
8/3/2022 9:15:00 AM 19.97 67.946 0.342 7.73 0.98 9.83
8/3/2022 9:30:00 AM 20.13 68.234 0.343 7.81 0.72 9.96
8/3/2022 9:45:00 AM 20.25 68.45 0.343 7.86 0.84 10.01
8/3/2022 10:00:00 AM 20.45 68.81 0.343 7.98 0.96 10.18
8/3/2022 10:15:00 AM 20.63 69.134 0.343 8.02 0.79 10.32
8/3/2022 10:30:00 AM 20.79 69.422 0.343 8.08 0.72 10.4
8/3/2022 10:45:00 AM 20.96 69.728 0.342 8.13 0.77 10.48
8/3/2022 11:00:00 AM 21.12 70.016 0.343 8.2 0.87 10.56
8/3/2022 11:15:00 AM 21.35 70.43 0.342 8.29 0.77 10.77
8/3/2022 11:30:00 AM 21.54 70.772 0.343 8.32 1.25 10.75
8/3/2022 11:45:00 AM 21.78 71.204 0.342 8.4 0.87 10.92
8/3/2022 12:00:00 PM 22.03 71.654 0.342 8.46 0.9 11.01
8/3/2022 12:15:00 PM 22.33 72.194 0.342 8.52 1.26 11.13
8/3/2022 12:30:00 PM 22.5 72.5 0.342 8.52 0.84 11.1
8/3/2022 12:45:00 PM 22.91 73.238 0.342 8.6 1.01 11.26
8/3/2022 1:00:00 PM 23.06 73.508 0.343 8.61 1.76 11.22
8/3/2022 1:15:00 PM 23.34 74.012 0.341 8.66 1.35 11.3
8/3/2022 1:30:00 PM 23.49 74.282 0.343 8.66 0.86 11.26
8/3/2022 1:45:00 PM 23.73 74.714 0.343 8.69 0.92 11.3
8/3/2022 2:00:00 PM 24.01 75.218 0.343 8.73 0.95 11.32
8/3/2022 2:15:00 PM 24.15 75.47 0.343 8.73 0.69 11.26
8/3/2022 2:30:00 PM 24.36 75.848 0.345 8.75 0.84 11.25
8/3/2022 2:45:00 PM 24.58 76.244 0.345 8.76 1.49 11.21
8/3/2022 3:00:00 PM 24.77 76.586 0.351 8.76 0.85 11.13
8/3/2022 3:15:00 PM 24.99 76.982 0.354 8.77 0.76 11.07
8/3/2022 3:30:00 PM 25.17 77.306 0.355 8.79 0.86 11.05
8/3/2022 3:45:00 PM 25.29 77.522 0.357 8.79 0.77 10.97
8/3/2022 4:00:00 PM 25.36 77.648 0.357 8.77 0.66 10.79
8/3/2022 4:15:00 PM 25.46 77.828 0.358 8.76 0.88 10.68
8/3/2022 4:30:00 PM 25.52 77.936 0.358 8.77 0.68 10.55
8/3/2022 4:45:00 PM 25.62 78.116 0.358 8.75 0.13 10.36
8/3/2022 5:00:00 PM 25.58 78.044 0.358 8.71 0.73 10.3
8/3/2022 5:15:00 PM 25.52 77.936 0.357 8.68 0.64 10.03
8/3/2022 5:30:00 PM 25.47 77.846 0.357 8.64 0.56 9.87
8/3/2022 5:45:00 PM 25.37 77.666 0.357 8.57 0.56 9.6
8/3/2022 6:00:00 PM 25.24 77.432 0.357 8.5 0.72 9.37
8/3/2022 6:15:00 PM 25.11 77.198 0.356 8.43 0.78 9.15
8/3/2022 6:30:00 PM 24.99 76.982 0.357 8.37 0.71 8.96
8/3/2022 6:45:00 PM 24.87 76.766 0.357 8.28 0.83 8.72
8/3/2022 7:00:00 PM 24.7 76.46 0.357 8.15 0.94 8.41
8/3/2022 7:15:00 PM 24.5 76.1 0.357 7.99 0.68 8.05
8/3/2022 7:30:00 PM 24.28 75.704 0.357 7.83 1.29 7.66
8/3/2022 7:45:00 PM 24.07 75.326 0.357 7.71 0.7 7.4
8/3/2022 8:00:00 PM 23.86 74.948 0.356 7.61 0.67 7.17
8/3/2022 8:15:00 PM 23.65 74.57 0.354 7.53 0.69 6.94
8/3/2022 8:30:00 PM 23.46 74.228 0.354 7.47 1.09 6.78
8/3/2022 8:45:00 PM 23.29 73.922 0.352 7.42 0.9 6.63
8/3/2022 9:00:00 PM 23.13 73.634 0.351 7.39 0.67 6.59
8/3/2022 9:15:00 PM 22.97 73.346 0.35 7.37 0.74 6.54
8/3/2022 9:30:00 PM 22.82 73.076 0.349 7.33 0.72 6.44
8/3/2022 9:45:00 PM 22.69 72.842 0.348 7.31 3.85 6.39
8/3/2022 10:00:00 PM 22.55 72.59 0.348 7.29 0.76 6.4
8/3/2022 10:15:00 PM 22.43 72.374 0.348 7.29 0.99 6.44
8/3/2022 10:30:00 PM 22.31 72.158 0.347 7.28 0.76 6.47
8/3/2022 10:45:00 PM 22.19 71.942 0.347 7.27 1.18 6.45
8/3/2022 11:00:00 PM 22.07 71.726 0.347 7.27 2.02 6.51
8/3/2022 11:15:00 PM 21.96 71.528 0.347 7.26 0.72 6.45
8/3/2022 11:30:00 PM 21.87 71.366 0.347 7.25 0.8 6.49
8/3/2022 11:45:00 PM 21.77 71.186 0.346 7.23 1.92 6.41
8/4/2022 12:00:00 AM 21.67 71.006 0.346 7.24 1.89 6.5
8/4/2022 12:15:00 AM 21.59 70.862 0.344 7.24 1 6.55
8/4/2022 12:30:00 AM 21.5 70.7 0.346 7.24 1.16 6.6
8/4/2022 12:45:00 AM 21.41 70.538 0.344 7.23 0.74 6.57
8/4/2022 1:00:00 AM 21.32 70.376 0.343 7.22 0.67 6.52
8/4/2022 1:15:00 AM 21.23 70.214 0.342 7.22 0.73 6.58
8/4/2022 1:30:00 AM 21.14 70.052 0.341 7.21 0.84 6.58
8/4/2022 1:45:00 AM 21.07 69.926 0.34 7.22 1.19 6.64
8/4/2022 2:00:00 AM 20.99 69.782 0.182 7.22 0.87 6.7
8/4/2022 2:15:00 AM 20.91 69.638 0.34 7.21 1.43 6.68
8/4/2022 2:30:00 AM 20.83 69.494 0.34 7.21 0.69 6.69
8/4/2022 2:45:00 AM 20.75 69.35 0.341 7.2 0.77 6.69
8/4/2022 3:00:00 AM 20.68 69.224 0.343 7.2 0.8 6.73
8/4/2022 3:15:00 AM 20.6 69.08 0.344 7.2 1.14 6.73
8/4/2022 3:30:00 AM 20.53 68.954 0.346 7.2 1.04 6.78
8/4/2022 3:45:00 AM 20.46 68.828 0.346 7.2 2.46 6.76
8/4/2022 4:00:00 AM 20.39 68.702 0.347 7.19 1.71 6.75
8/4/2022 4:15:00 AM 20.31 68.558 0.35 7.2 2.04 6.85
8/4/2022 4:30:00 AM 20.25 68.45 0.349 7.19 1.38 6.81
8/4/2022 4:45:00 AM 20.18 68.324 0.349 7.19 1.03 6.84
8/4/2022 5:00:00 AM 20.14 68.252 0.351 7.2 2.1 6.91
8/4/2022 5:15:00 AM 20.07 68.126 0.351 7.2 1.11 6.95
8/4/2022 5:30:00 AM 20.01 68.018 0.351 7.2 2.2 6.92
8/4/2022 5:45:00 AM 19.96 67.92799 0.352 7.2 1.3 6.96
8/4/2022 6:00:00 AM 19.91 67.838 0.352 7.19 1.47 6.91
8/4/2022 6:15:00 AM 19.86 67.748 0.352 7.19 1.16 6.97
8/4/2022 6:30:00 AM 19.82 67.676 0.352 7.2 0.95 7.15
8/4/2022 6:45:00 AM 19.78 67.604 0.351 7.21 0.79 7.2
8/4/2022 7:00:00 AM 19.76 67.568 0.351 7.23 0.6 7.38
8/4/2022 7:15:00 AM 19.75 67.55 0.351 7.25 0.49 7.51
8/4/2022 7:30:00 AM 19.75 67.55 0.351 7.29 5.69 7.76
8/4/2022 7:45:00 AM 19.82 67.676 0.351 7.33 0.67 8.07
8/4/2022 8:00:00 AM 19.89 67.802 0.349 7.35 0.62 8.23
8/4/2022 8:15:00 AM 20.06 68.108 0.35 7.46 0.62 8.85
8/4/2022 8:30:00 AM 20.17 68.306 0.349 7.52 0.62 9.06
8/4/2022 8:45:00 AM 20.28 68.504 0.348 7.59 0.52 9.31
8/4/2022 9:00:00 AM 20.42 68.756 0.349 7.66 0.59 9.51
8/4/2022 9:15:00 AM 20.43 68.774 0.349 7.66 0.51 9.4
8/4/2022 9:30:00 AM 20.55 68.99 0.349 7.73 0.83 9.62
8/4/2022 9:45:00 AM 20.86 69.548 0.348 7.94 0.52 10.22
8/4/2022 10:00:00 AM 21.1 69.98 0.348 8.02 0.72 10.32
8/4/2022 10:15:00 AM 21.39 70.502 0.348 8.15 0.58 10.55
8/4/2022 10:30:00 AM 21.64 70.952 0.348 8.19 0.76 10.67
8/4/2022 10:45:00 AM 21.85 71.33 0.348 8.26 0.83 10.73
8/4/2022 11:00:00 AM 22.11 71.798 0.347 8.33 0.65 10.73
8/4/2022 11:15:00 AM 22.41 72.338 0.349 8.38 0.85 10.83
8/4/2022 11:30:00 AM 22.78 73.004 0.348 8.44 0.72 10.92
8/4/2022 11:45:00 AM 23.02 73.436 0.348 8.5 0.58 11.1
8/4/2022 12:00:00 PM 23.38 74.084 0.347 8.6 0.51 11.28
8/4/2022 12:15:00 PM 23.67 74.606 0.347 8.62 0.66 11.28
8/4/2022 12:30:00 PM 23.91 75.038 0.347 8.65 0.47 11.29
8/4/2022 12:45:00 PM 24.18 75.524 0.347 8.7 0.48 11.42
8/4/2022 1:00:00 PM 24.46 76.028 0.348 8.72 0.63 11.57
8/4/2022 1:15:00 PM 24.71 76.478 0.349 8.77 0.38 11.55
8/4/2022 1:30:00 PM 25.04 77.07201 0.349 8.82 0.62 11.73
8/4/2022 1:45:00 PM 25.25 77.45 0.349 8.85 0.54 11.89
8/4/2022 2:00:00 PM 25.61 78.098 0.355 8.9 0.55 12.05
8/4/2022 2:15:00 PM 25.8 78.44 0.357 8.89 -0.07 11.95
8/4/2022 2:30:00 PM 25.84 78.512 0.357 8.86 2.48 11.54
8/4/2022 2:45:00 PM 26.14 79.052 0.357 8.91 0.61 11.66
8/4/2022 3:00:00 PM 26.38 79.484 0.357 8.91 0.47 11.68
8/4/2022 3:15:00 PM 26.57 79.826 0.356 8.91 1.06 11.5
8/4/2022 3:30:00 PM 26.74 80.132 0.355 8.9 0.67 11.43
8/4/2022 3:45:00 PM 26.84 80.312 0.354 8.92 0.55 11.39
8/4/2022 4:00:00 PM 26.7 80.06 0.355 8.85 0.87 10.6
8/4/2022 4:15:00 PM 26.27 79.286 0.355 8.66 0.53 9.45
8/4/2022 4:30:00 PM 25.95 78.71 0.356 8.51 0.56 8.84
8/4/2022 4:45:00 PM 25.74 78.332 0.355 8.39 0.6 8.62
8/4/2022 5:00:00 PM 25.69 78.242 0.353 8.43 0.57 8.97
8/4/2022 5:15:00 PM 25.74 78.332 0.353 8.53 0.42 9.42
8/4/2022 5:30:00 PM 25.73 78.314 0.352 8.57 0.63 9.68
8/4/2022 5:45:00 PM 25.78 78.404 0.352 8.63 0.74 9.82
8/4/2022 6:00:00 PM 25.69 78.242 0.352 8.61 1.06 9.78
8/4/2022 6:15:00 PM 25.56 78.008 0.241 8.54 1.13 9.48
8/4/2022 6:30:00 PM 25.39 77.702 0.352 8.41 1.05 9.02
8/4/2022 6:45:00 PM 25.26 77.468 0.352 8.3 0.87 8.71
8/4/2022 7:00:00 PM 25.12 77.216 0.352 8.17 0.95 8.39
8/4/2022 7:15:00 PM 25 77 0.346 8.05 0.95 8.16
8/4/2022 7:30:00 PM 24.85 76.73 0.352 7.91 1.56 7.85
8/4/2022 7:45:00 PM 24.7 76.46 0.353 7.78 1.24 7.52
8/4/2022 8:00:00 PM 24.54 76.172 0.354 7.64 1.13 7.18
8/4/2022 8:15:00 PM 24.39 75.902 0.356 7.55 1.32 6.91
8/4/2022 8:30:00 PM 24.23 75.614 0.353 7.47 1.24 6.68
8/4/2022 8:45:00 PM 24.07 75.326 0.35 7.42 1.09 6.52
8/4/2022 9:00:00 PM 23.94 75.092 0.357 7.37 2.1 6.37
8/4/2022 9:15:00 PM 23.82 74.876 0.358 7.35 1.9 6.34
8/4/2022 9:30:00 PM 23.71 74.67799 0.356 7.33 1.26 6.28
8/4/2022 9:45:00 PM 23.6 74.48 0.356 7.31 0.94 6.22
8/4/2022 10:00:00 PM 23.48 74.264 0.357 7.27 0.85 6.09
8/4/2022 10:15:00 PM 23.4 74.12 0.357 7.27 0.64 6.19
8/4/2022 10:30:00 PM 23.32 73.976 0.357 7.26 0.59 6.19
8/4/2022 10:45:00 PM 23.23 73.814 0.357 7.25 1.65 6.12
8/4/2022 11:00:00 PM 23.16 73.688 0.357 7.25 0.55 6.18
8/4/2022 11:15:00 PM 23.08 73.544 0.356 7.23 0.53 6.16
8/4/2022 11:30:00 PM 22.99 73.382 0.356 7.22 0.7 6.16
8/4/2022 11:45:00 PM 22.9 73.22 0.355 7.21 0.61 6.11
8/5/2022 12:00:00 AM 22.82 73.076 0.355 7.21 0.64 6.15
8/5/2022 12:15:00 AM 22.74 72.932 0.354 7.2 0.54 6.17
8/5/2022 12:30:00 AM 22.66 72.788 0.353 7.2 0.76 6.14
8/5/2022 12:45:00 AM 22.59 72.662 0.352 7.19 0.69 6.18
8/5/2022 1:00:00 AM 22.54 72.57201 0.352 7.19 0.7 6.23
8/5/2022 1:15:00 AM 22.49 72.482 0.351 7.19 0.69 6.22
8/5/2022 1:30:00 AM 22.41 72.338 0.35 7.18 0.6 6.21
8/5/2022 1:45:00 AM 22.35 72.23 0.35 7.17 0.59 6.22
8/5/2022 2:00:00 AM 22.3 72.14 0.35 7.17 0.63 6.22
8/5/2022 2:15:00 AM 22.26 72.068 0.351 7.18 0.59 6.3
8/5/2022 2:30:00 AM 22.2 71.96 0.351 7.18 1.04 6.35
8/5/2022 2:45:00 AM 22.13 71.834 0.352 7.17 0.61 6.29
8/5/2022 3:00:00 AM 22.09 71.762 0.352 7.18 0.64 6.38
8/5/2022 3:15:00 AM 22.06 71.708 0.354 7.18 0.92 6.37
8/5/2022 3:30:00 AM 21.99 71.582 0.354 7.17 0.9 6.38
8/5/2022 3:45:00 AM 21.96 71.528 0.346 7.19 1.43 6.43
8/5/2022 4:00:00 AM 21.91 71.438 0.354 7.18 1.39 6.44
8/5/2022 4:15:00 AM 21.86 71.348 0.354 7.18 0.52 6.46
8/5/2022 4:30:00 AM 21.82 71.276 0.353 7.17 1.62 6.43
8/5/2022 4:45:00 AM 21.79 71.222 0.355 7.18 1.65 6.49
8/5/2022 5:00:00 AM 21.73 71.114 0.353 7.17 0.89 6.49
8/5/2022 5:15:00 AM 21.69 71.042 0.354 7.17 0.91 6.5
8/5/2022 5:30:00 AM 21.62 70.916 0.354 7.18 0.86 6.52
8/5/2022 5:45:00 AM 21.56 70.808 0.353 7.16 1.8 6.44
8/5/2022 6:00:00 AM 21.52 70.736 0.354 7.18 4.28 6.53
8/5/2022 6:15:00 AM 21.47 70.646 0.13 7.17 1.49 6.54
8/5/2022 6:30:00 AM 21.42 70.556 0.353 7.18 1.28 6.63
8/5/2022 6:45:00 AM 21.39 70.502 0.354 7.2 1.12 6.78
8/5/2022 7:00:00 AM 21.4 70.52 0.354 7.24 1 7.09
8/5/2022 7:15:00 AM 21.39 70.502 0.292 7.25 1.16 7.25
8/5/2022 7:30:00 AM 21.38 70.484 0.353 7.26 0.97 7.42
8/5/2022 7:45:00 AM 21.38 70.484 0.353 7.3 1.3 7.58
8/5/2022 8:00:00 AM 21.42 70.556 0.262 7.34 1.08 7.91
8/5/2022 8:15:00 AM 21.49 70.682 0.352 7.42 0.87 8.31
8/5/2022 8:30:00 AM 21.48 70.664 0.352 7.42 0.75 8.3
8/5/2022 8:45:00 AM 21.61 70.898 0.351 7.51 0.66 8.76
8/5/2022 9:00:00 AM 21.71 71.078 0.351 7.59 0.64 9.03
8/5/2022 9:15:00 AM 21.76 71.168 0.35 7.61 0.75 9.18
8/5/2022 9:30:00 AM 21.85 71.33 0.35 7.7 0.58 9.45
8/5/2022 9:45:00 AM 21.99 71.582 0.35 7.82 0.89 9.83
8/5/2022 10:00:00 AM 22.16 71.888 0.35 7.95 0.51 10.08
8/5/2022 10:15:00 AM 22.32 72.176 0.35 8.04 1.73 10.29
8/5/2022 10:30:00 AM 22.58 72.644 0.35 8.23 0.61 10.71
8/5/2022 10:45:00 AM 22.89 73.202 0.35 8.37 0.77 11.12
8/5/2022 11:00:00 AM 23.25 73.85 0.35 8.46 0.58 11.28
8/5/2022 11:15:00 AM 23.52 74.336 0.351 8.53 0.46 11.37
8/5/2022 11:30:00 AM 23.65 74.57 0.351 8.54 1.71 11.37
8/5/2022 11:45:00 AM 23.88 74.984 0.352 8.6 0.88 11.48
8/5/2022 12:00:00 PM 24.14 75.452 0.352 8.65 0.49 11.53
8/5/2022 12:15:00 PM 24.43 75.974 0.354 8.67 0.47 11.63
8/5/2022 12:30:00 PM 24.69 76.442 0.353 8.71 0.87 11.64
8/5/2022 12:45:00 PM 24.98 76.964 0.356 8.75 0.68 11.74
8/5/2022 1:00:00 PM 25.34 77.612 0.313 8.79 0.79 11.83
8/5/2022 1:15:00 PM 25.51 77.918 0.196 8.81 0.61 11.84
8/5/2022 1:30:00 PM 25.45 77.81 0.357 8.81 0.84 11.79
8/5/2022 1:45:00 PM 25.66 78.188 0.357 8.84 0.89 11.85
8/5/2022 2:00:00 PM 25.45 77.81 0.359 8.73 0.6 10.94
8/5/2022 2:15:00 PM 25.3 77.54 0.359 8.62 1.78 10.32
8/5/2022 2:30:00 PM 25.22 77.396 0.36 8.57 0.69 10.16
8/5/2022 2:45:00 PM 25.17 77.306 0.361 8.54 0.71 10.02
8/5/2022 3:00:00 PM 25.11 77.198 0.361 8.47 0.91 9.74
8/5/2022 3:15:00 PM 25.11 77.198 0.362 8.46 0.87 9.75
8/5/2022 3:30:00 PM 25.12 77.216 0.361 8.5 1.59 9.96
8/5/2022 3:45:00 PM 25.2 77.36 0.361 8.58 1.48 10.42
8/5/2022 4:00:00 PM 25.31 77.558 0.24 8.69 0.9 10.67
8/5/2022 4:15:00 PM 25.26 77.468 0.36 8.68 0.96 10.63
8/5/2022 4:30:00 PM 25.21 77.378 0.23 8.67 1.15 10.61
8/5/2022 4:45:00 PM 25.14 77.252 0.36 8.65 1.12 10.38
8/5/2022 5:00:00 PM 25.05 77.09 0.361 8.57 0.95 9.97
8/5/2022 5:15:00 PM 24.97 76.946 0.361 8.49 0.94 9.63
8/5/2022 5:30:00 PM 24.89 76.802 0.361 8.4 0.81 9.34
8/5/2022 5:45:00 PM 24.82 76.676 0.362 8.29 0.97 8.97
8/5/2022 6:00:00 PM 24.72 76.496 0.362 8.1 0.73 8.45
8/5/2022 6:15:00 PM 24.65 76.37 0.363 7.97 1.91 8.1
8/5/2022 6:30:00 PM 24.56 76.208 0.38 7.83 1.18 7.8
8/5/2022 6:45:00 PM 24.47 76.046 0.363 7.74 0.63 7.61
8/5/2022 7:00:00 PM 24.43 75.974 0.366 7.7 0.6 7.52
8/5/2022 7:15:00 PM 24.36 75.848 0.365 7.67 0.5 7.46
8/5/2022 7:30:00 PM 24.3 75.74 0.366 7.62 0.49 7.34
8/5/2022 7:45:00 PM 24.23 75.614 0.366 7.57 0.57 7.2
8/5/2022 8:00:00 PM 24.11 75.398 0.365 7.5 0.37 6.97
8/5/2022 8:15:00 PM 24.04 75.272 0.365 7.45 0.54 6.81
8/5/2022 8:30:00 PM 23.94 75.092 0.365 7.4 0.54 6.66
8/5/2022 8:45:00 PM 23.85 74.93 0.365 7.38 0.42 6.55
8/5/2022 9:00:00 PM 23.77 74.786 0.365 7.34 0.59 6.44
8/5/2022 9:15:00 PM 23.68 74.624 0.366 7.32 0.78 6.36
8/5/2022 9:30:00 PM 23.58 74.444 0.367 7.3 0.52 6.29
8/5/2022 9:45:00 PM 23.49 74.282 0.366 7.27 0.59 6.22
8/5/2022 10:00:00 PM 23.4 74.12 0.367 7.25 0.68 6.23
8/5/2022 10:15:00 PM 23.32 73.976 0.369 7.26 0.79 6.24
8/5/2022 10:30:00 PM 23.26 73.868 0.369 7.26 0.71 6.26
8/5/2022 10:45:00 PM 23.19 73.742 0.371 7.26 0.61 6.26
8/5/2022 11:00:00 PM 23.1 73.58 0.37 7.23 0.58 6.19
8/5/2022 11:15:00 PM 23.01 73.418 0.371 7.23 0.66 6.22
8/5/2022 11:30:00 PM 22.95 73.31 0.372 7.24 0.86 6.22
8/5/2022 11:45:00 PM 22.88 73.184 0.371 7.22 0.52 6.23
8/6/2022 12:00:00 AM 22.81 73.058 0.373 7.22 0.6 6.26
8/6/2022 12:15:00 AM 22.73 72.914 0.372 7.21 0.7 6.22
8/6/2022 12:30:00 AM 22.65 72.77 0.372 7.21 0.81 6.21
8/6/2022 12:45:00 AM 22.59 72.662 0.373 7.21 0.64 6.28
8/6/2022 1:00:00 AM 22.52 72.536 0.372 7.19 0.66 6.25
8/6/2022 1:15:00 AM 22.47 72.446 0.374 7.21 0.81 6.33
8/6/2022 1:30:00 AM 22.41 72.338 0.099 7.21 0.83 6.34
8/6/2022 1:45:00 AM 22.35 72.23 0.255 7.21 0.83 6.39
8/6/2022 2:00:00 AM 22.27 72.086 0.373 7.2 1.45 6.34
8/6/2022 2:15:00 AM 22.22 71.996 0.375 7.2 0.91 6.39
8/6/2022 2:30:00 AM 22.17 71.906 0.373 7.21 0.73 6.45
8/6/2022 2:45:00 AM 22.1 71.78 0.373 7.21 0.63 6.46
8/6/2022 3:00:00 AM 22.02 71.636 0.372 7.19 1.59 6.43
8/6/2022 3:15:00 AM 21.98 71.564 0.375 7.19 1.49 6.42
8/6/2022 3:30:00 AM 21.92 71.456 0.217 7.19 1.26 6.46
8/6/2022 3:45:00 AM 21.88 71.384 0.373 7.2 1.75 6.52
8/6/2022 4:00:00 AM 21.81 71.258 0.372 7.2 1.39 6.45
8/6/2022 4:15:00 AM 21.78 71.204 0.374 7.21 2.74 6.62
8/6/2022 4:30:00 AM 21.72 71.096 0.373 7.21 0.7 6.6
8/6/2022 4:45:00 AM 21.63 70.934 0.373 7.2 0.65 6.48
8/6/2022 5:00:00 AM 21.6 70.88 0.374 7.19 0.98 6.56
8/6/2022 5:15:00 AM 21.55 70.79 0.373 7.21 1.01 6.62
8/6/2022 5:30:00 AM 21.49 70.682 0.373 7.21 0.8 6.56
8/6/2022 5:45:00 AM 21.43 70.574 0.373 7.2 0.87 6.64
8/6/2022 6:00:00 AM 21.37 70.466 0.372 7.2 1.86 6.64
8/6/2022 6:15:00 AM 21.33 70.394 0.374 7.21 1.04 6.69
8/6/2022 6:30:00 AM 21.26 70.268 0.372 7.2 1.13 6.74
8/6/2022 6:45:00 AM 21.23 70.214 0.374 7.23 0.8 6.88
8/6/2022 7:00:00 AM 21.19 70.142 0.373 7.24 0.89 7.04
8/6/2022 7:15:00 AM 21.18 70.124 0.373 7.26 0.64 7.13
8/6/2022 7:30:00 AM 21.15 70.07 0.373 7.29 0.93 7.33
8/6/2022 7:45:00 AM 21.19 70.142 0.371 7.32 0.76 7.56
8/6/2022 8:00:00 AM 21.32 70.376 0.372 7.38 0.72 8.08
8/6/2022 8:15:00 AM 21.43 70.574 0.368 7.46 0.71 8.46
8/6/2022 8:30:00 AM 21.54 70.772 0.371 7.52 0.64 8.81
8/6/2022 8:45:00 AM 21.68 71.024 0.371 7.6 0.79 8.99
8/6/2022 9:00:00 AM 21.87 71.366 0.371 7.69 0.61 9.39
8/6/2022 9:15:00 AM 22.03 71.654 0.371 7.77 0.62 9.61
8/6/2022 9:30:00 AM 22.29 72.122 0.371 7.91 0.77 9.97
8/6/2022 9:45:00 AM 22.45 72.41 0.371 7.97 0.6 10.04
8/6/2022 10:00:00 AM 22.58 72.644 0.37 8.03 0.65 10.12
8/6/2022 10:15:00 AM 22.78 73.004 0.37 8.16 0.67 10.29
8/6/2022 10:30:00 AM 22.88 73.184 0.37 8.14 0.97 10.32
8/6/2022 10:45:00 AM 23.07 73.526 0.371 8.25 0.66 10.47
8/6/2022 11:00:00 AM 23.29 73.922 0.37 8.29 0.98 10.56
8/6/2022 11:15:00 AM 23.48 74.264 0.37 8.32 0.71 10.61
8/6/2022 11:30:00 AM 23.77 74.786 0.369 8.4 0.79 10.76
8/6/2022 11:45:00 AM 24.06 75.308 0.369 8.47 0.59 11
8/6/2022 12:00:00 PM 24.39 75.902 0.369 8.55 1.14 11.15
8/6/2022 12:15:00 PM 24.61 76.298 0.369 8.57 0.64 11.18
8/6/2022 12:30:00 PM 24.83 76.694 0.368 8.59 0.83 11.13
8/6/2022 12:45:00 PM 25 77 0.369 8.6 0.64 11.1
8/6/2022 1:00:00 PM 25.28 77.504 0.368 8.66 0.94 11.31
8/6/2022 1:15:00 PM 25.49 77.882 0.375 8.67 0.63 11.29
8/6/2022 1:30:00 PM 25.72 78.296 0.375 8.7 1.02 11.36
8/6/2022 1:45:00 PM 25.93 78.674 0.375 8.73 0.66 11.32
8/6/2022 2:00:00 PM 26.2 79.16 0.375 8.76 0.62 11.46
8/6/2022 2:15:00 PM 26.28 79.304 0.375 8.77 0.67 11.39
8/6/2022 2:30:00 PM 26.54 79.772 0.375 8.76 0.67 11.29
8/6/2022 2:45:00 PM 26.65 79.97 0.375 8.79 0.85 11.3
8/6/2022 3:00:00 PM 26.71 80.078 0.375 8.8 0.72 11.19
8/6/2022 3:15:00 PM 26.83 80.294 0.375 8.81 0.68 11.15
8/6/2022 3:30:00 PM 26.83 80.294 0.374 8.8 0.64 11.08
8/6/2022 3:45:00 PM 26.77 80.186 0.375 8.76 0.75 10.69
8/6/2022 4:00:00 PM 26.73 80.114 0.375 8.74 1.26 10.56
8/6/2022 4:15:00 PM 26.72 80.096 0.375 8.72 1.01 10.37
8/6/2022 4:30:00 PM 26.72 80.096 0.375 8.72 0.93 10.35
8/6/2022 4:45:00 PM 26.69 80.042 0.374 8.72 1.34 10.25
8/6/2022 5:00:00 PM 26.62 79.916 0.374 8.7 0.7 10.1
8/6/2022 5:15:00 PM 26.55 79.79 0.373 8.66 0.51 9.88
8/6/2022 5:30:00 PM 26.43 79.574 0.372 8.61 0.82 9.72
8/6/2022 5:45:00 PM 26.42 79.556 0.233 8.61 0.8 9.69
8/6/2022 6:00:00 PM 26.36 79.448 0.37 8.6 0.76 9.67
8/6/2022 6:15:00 PM 26.39 79.502 0.37 8.61 0.74 9.72
8/6/2022 6:30:00 PM 26.37 79.466 0.369 8.57 0.77 9.53
8/6/2022 6:45:00 PM 26.14 79.052 0.368 8.47 0.68 9.13
8/6/2022 7:00:00 PM 26.04 78.872 0.368 8.36 0.63 8.78
8/6/2022 7:15:00 PM 25.9 78.62 0.367 8.24 0.77 8.46
8/6/2022 7:30:00 PM 25.75 78.35 0.367 8.1 0.97 8.08
8/6/2022 7:45:00 PM 25.64 78.152 0.368 7.96 1.02 7.77
8/6/2022 8:00:00 PM 25.51 77.918 0.368 7.81 0.84 7.42
8/6/2022 8:15:00 PM 25.38 77.684 0.369 7.66 1.94 7.03
8/6/2022 8:30:00 PM 25.22 77.396 0.369 7.56 1.57 6.77
8/6/2022 8:45:00 PM 25.07 77.126 0.371 7.49 1.08 6.55
8/6/2022 9:00:00 PM 24.95 76.91 0.371 7.44 0.7 6.38
8/6/2022 9:15:00 PM 24.82 76.676 0.372 7.39 1.1 6.26
8/6/2022 9:30:00 PM 24.72 76.496 0.373 7.36 1.02 6.22
8/6/2022 9:45:00 PM 24.6 76.28 0.371 7.33 0.87 6.15
8/6/2022 10:00:00 PM 24.49 76.082 0.371 7.31 0.79 6.08
8/6/2022 10:15:00 PM 24.41 75.938 0.372 7.3 0.7 6.06
8/6/2022 10:30:00 PM 24.34 75.812 0.372 7.29 1.43 6.07
8/6/2022 10:45:00 PM 24.24 75.632 0.371 7.27 0.67 6
8/6/2022 11:00:00 PM 24.14 75.452 0.369 7.25 0.64 5.95
8/6/2022 11:15:00 PM 24.06 75.308 0.371 7.25 0.9 6.01
8/6/2022 11:30:00 PM 24.01 75.218 0.37 7.25 1.13 6.01
8/6/2022 11:45:00 PM 23.92 75.056 0.37 7.24 0.95 5.97
8/7/2022 12:00:00 AM 23.84 74.912 0.368 7.23 0.92 6
8/7/2022 12:15:00 AM 23.77 74.786 0.371 7.23 1.11 6.04
8/7/2022 12:30:00 AM 23.69 74.642 0.37 7.21 1.75 5.98
8/7/2022 12:45:00 AM 23.63 74.534 0.37 7.21 0.67 6.03
8/7/2022 1:00:00 AM 23.58 74.444 0.37 7.19 1.99 5.95
8/7/2022 1:15:00 AM 23.54 74.372 0.37 7.21 1.07 6.02
8/7/2022 1:30:00 AM 23.51 74.318 0.134 7.2 1.14 6.05
8/7/2022 1:45:00 AM 23.46 74.228 0.33 7.2 1.02 6.09
8/7/2022 2:00:00 AM 23.4 74.12 0.37 7.2 0.8 6.1
8/7/2022 2:15:00 AM 23.35 74.03 0.371 7.19 0.96 6.08
8/7/2022 2:30:00 AM 23.31 73.958 0.371 7.19 1.23 6.08
8/7/2022 2:45:00 AM 23.28 73.904 0.371 7.19 1.12 6.1
8/7/2022 3:00:00 AM 23.27 73.886 0.372 7.2 1.45 6.16
8/7/2022 3:15:00 AM 23.22 73.796 0.372 7.2 1.18 6.18
8/7/2022 3:30:00 AM 23.21 73.778 0.373 7.2 1.22 6.21
8/7/2022 3:45:00 AM 23.16 73.688 0.304 7.2 1.32 6.2
8/7/2022 4:00:00 AM 23.13 73.634 0.372 7.19 0.67 6.17
8/7/2022 4:15:00 AM 23.1 73.58 0.372 7.18 0.72 6.14
8/7/2022 4:30:00 AM 23.06 73.508 0.374 7.2 0.8 6.16
8/7/2022 4:45:00 AM 23 73.4 0.372 7.18 0.85 6.19
8/7/2022 5:00:00 AM 22.95 73.31 0.373 7.19 0.8 6.17
8/7/2022 5:15:00 AM 22.9 73.22 0.373 7.2 0.77 6.2
8/7/2022 5:30:00 AM 22.85 73.13 0.373 7.18 1.33 6.15
8/7/2022 5:45:00 AM 22.83 73.094 0.374 7.19 1.11 6.23
8/7/2022 6:00:00 AM 22.8 73.04 0.375 7.19 1.05 6.16
8/7/2022 6:15:00 AM 22.8 73.04 0.376 7.18 0.97 6.19
8/7/2022 6:30:00 AM 22.76 72.968 0.376 7.2 0.89 6.3
8/7/2022 6:45:00 AM 22.75 72.95 0.376 7.22 0.6 6.15
8/7/2022 7:00:00 AM 22.73 72.914 0.376 7.24 0.8 6.55
8/7/2022 7:15:00 AM 22.73 72.914 0.376 7.25 0.7 6.71
8/7/2022 7:30:00 AM 22.74 72.932 0.377 7.28 0.76 6.92
8/7/2022 7:45:00 AM 22.75 72.95 0.376 7.29 0.66 7.04
8/7/2022 8:00:00 AM 22.87 73.166 0.376 7.36 0.85 7.42
8/7/2022 8:15:00 AM 23.06 73.508 0.376 7.42 0.87 7.88
8/7/2022 8:30:00 AM 23.22 73.796 0.376 7.48 1.1 8.21
8/7/2022 8:45:00 AM 23.39 74.102 0.377 7.6 0.76 8.61
8/7/2022 9:00:00 AM 23.54 74.372 0.376 7.67 2.7 8.9
8/7/2022 9:15:00 AM 23.64 74.552 0.376 7.71 0.78 8.99
8/7/2022 9:30:00 AM 23.74 74.732 0.376 7.77 0.81 9.12
8/7/2022 9:45:00 AM 23.86 74.948 0.377 7.85 0.79 9.4
8/7/2022 10:00:00 AM 24.04 75.272 0.377 8.03 0.76 9.75
8/7/2022 10:15:00 AM 24.2 75.56 0.377 8.08 0.63 9.96
8/7/2022 10:30:00 AM 24.41 75.938 0.377 8.17 0.67 10.1
8/7/2022 10:45:00 AM 24.69 76.442 0.376 8.27 0.96 10.33
8/7/2022 11:00:00 AM 24.83 76.694 0.376 8.3 0.91 10.42
8/7/2022 11:15:00 AM 24.9 76.82 0.376 8.31 1.19 10.26
8/7/2022 11:30:00 AM 25.18 77.324 0.375 8.4 0.67 10.53
8/7/2022 11:45:00 AM 25.48 77.864 0.375 8.49 0.76 10.81
8/7/2022 12:00:00 PM 25.82 78.476 0.375 8.55 0.59 10.99
8/7/2022 12:15:00 PM 26.04 78.872 0.374 8.6 0.85 11.05
8/7/2022 12:30:00 PM 25.85 78.53 0.375 8.48 0.63 10.34
8/7/2022 12:45:00 PM 25.61 78.098 0.375 8.29 0.68 9.38
8/7/2022 1:00:00 PM 25.42 77.756 0.374 8.14 1.06 8.98
8/7/2022 1:15:00 PM 25.39 77.702 0.373 8.15 0.56 9.08
8/7/2022 1:30:00 PM 25.63 78.134 0.373 8.34 0.68 9.89
8/7/2022 1:45:00 PM 25.65 78.17 0.373 8.32 1.67 9.66
8/7/2022 2:00:00 PM 25.33 77.594 0.364 8.08 2.7 8.57
8/7/2022 2:15:00 PM 25.08 77.144 0.353 7.9 1.8 8.13
8/7/2022 2:30:00 PM 24.94 76.892 0.351 7.83 2.45 8.14
8/7/2022 2:45:00 PM 25.13 77.234 0.352 8.03 1.22 9.07
8/7/2022 3:00:00 PM 25.28 77.504 0.355 8.13 1.29 9.46
8/7/2022 3:15:00 PM 25.28 77.504 0.358 8.14 1.67 9.4
8/7/2022 3:30:00 PM 25.2 77.36 0.358 8.1 7.29 9.32
8/7/2022 3:45:00 PM 25.15 77.27 0.353 8.08 1.79 9.18
8/7/2022 4:00:00 PM 25.1 77.18 0.341 8.01 1.49 8.91
8/7/2022 4:15:00 PM 25.06 77.108 0.33 7.9 2.42 8.6
8/7/2022 4:30:00 PM 25.24 77.432 0.322 7.98 3.45 8.88
8/7/2022 4:45:00 PM 25.44 77.792 0.318 8.07 4.09 9.09
8/7/2022 5:00:00 PM 25.62 78.116 0.32 8.13 5.08 9.23
8/7/2022 5:15:00 PM 25.55 77.99 0.323 8.02 5.32 8.86
8/7/2022 5:30:00 PM 25.38 77.684 0.326 7.9 6.05 8.51
8/7/2022 5:45:00 PM 25.34 77.612 0.326 7.87 5.35 8.61
8/7/2022 6:00:00 PM 25.39 77.702 0.328 7.93 4.86 8.66
8/7/2022 6:15:00 PM 25.28 77.504 0.33 7.88 3.62 8.57
8/7/2022 6:30:00 PM 25.17 77.306 0.331 7.82 4.02 8.23
8/7/2022 6:45:00 PM 25.03 77.054 0.331 7.78 2.42 8.16
8/7/2022 7:00:00 PM 25.01 77.018 0.334 7.72 2.26 8.03
8/7/2022 7:15:00 PM 24.87 76.766 0.336 7.64 1.86 7.74
8/7/2022 7:30:00 PM 24.76 76.568 0.336 7.56 1.84 7.48
8/7/2022 7:45:00 PM 24.68 76.424 0.336 7.48 2.05 7.16
8/7/2022 8:00:00 PM 24.54 76.172 0.337 7.43 1.36 6.95
8/7/2022 8:15:00 PM 24.37 75.866 0.339 7.39 1.34 6.79
8/7/2022 8:30:00 PM 24.3 75.74 0.338 7.32 3.04 6.51
8/7/2022 8:45:00 PM 24.2 75.56 0.339 7.31 1.51 6.44
8/7/2022 9:00:00 PM 24.09 75.362 0.339 7.27 1.23 6.29
8/7/2022 9:15:00 PM 24 75.2 0.34 7.26 1 6.22
8/7/2022 9:30:00 PM 23.91 75.038 0.341 7.22 1.64 6.1
8/7/2022 9:45:00 PM 23.84 74.912 0.342 7.22 0.96 6.2
8/7/2022 10:00:00 PM 23.76 74.768 0.342 7.23 1.37 6.19
8/7/2022 10:15:00 PM 23.66 74.588 0.343 7.23 1.05 6.19
8/7/2022 10:30:00 PM 23.59 74.462 0.342 7.22 1.39 6.11
8/7/2022 10:45:00 PM 23.51 74.318 0.342 7.21 0.91 6.11
8/7/2022 11:00:00 PM 23.44 74.192 0.343 7.2 1.1 6.12
8/7/2022 11:15:00 PM 23.38 74.084 0.345 7.2 0.91 6.13
8/7/2022 11:30:00 PM 23.3 73.94 0.345 7.18 0.97 6.03
8/7/2022 11:45:00 PM 23.26 73.868 0.346 7.19 0.85 6.11
8/8/2022 12:00:00 AM 23.2 73.76 0.348 7.19 0.78 6.13
8/8/2022 12:15:00 AM 23.16 73.688 0.35 7.21 0.99 6.18
8/8/2022 12:30:00 AM 23.08 73.544 0.35 7.2 0.6 6.23
8/8/2022 12:45:00 AM 23.01 73.418 0.349 7.18 0.69 6.16
8/8/2022 1:00:00 AM 22.99 73.382 0.35 7.19 0.85 6.24
8/8/2022 1:15:00 AM 22.92 73.256 0.35 7.19 0.67 6.25
8/8/2022 1:30:00 AM 22.83 73.094 0.35 7.18 0.63 6.23
8/8/2022 1:45:00 AM 22.81 73.058 0.349 7.18 0.88 6.27
8/8/2022 2:00:00 AM 22.73 72.914 0.349 7.18 0.56 6.27
8/8/2022 2:15:00 AM 22.7 72.86 0.349 7.17 0.84 6.24
8/8/2022 2:30:00 AM 22.64 72.752 0.349 7.18 1.04 6.29
8/8/2022 2:45:00 AM 22.59 72.662 0.349 7.17 1.15 6.33
8/8/2022 3:00:00 AM 22.56 72.608 0.349 7.18 0.71 6.36
8/8/2022 3:15:00 AM 22.55 72.59 0.349 7.19 9.32 6.38
8/8/2022 3:30:00 AM 22.49 72.482 0.349 7.17 1.4 6.37
8/8/2022 3:45:00 AM 22.46 72.42799 0.349 7.19 0.87 6.43
8/8/2022 4:00:00 AM 22.4 72.32 0.349 7.17 1.01 6.41
8/8/2022 4:15:00 AM 22.37 72.266 0.35 7.19 0.73 6.44
8/8/2022 4:30:00 AM 22.29 72.122 0.35 7.19 0.83 6.49
8/8/2022 4:45:00 AM 22.25 72.05 0.35 7.18 0.96 6.4
8/8/2022 5:00:00 AM 22.21 71.978 0.35 7.17 0.74 6.48
8/8/2022 5:15:00 AM 22.11 71.798 0.349 7.17 0.83 6.44
8/8/2022 5:30:00 AM 22.07 71.726 0.351 7.17 1.24 6.49
8/8/2022 5:45:00 AM 22.03 71.654 0.35 7.16 1.08 6.46
8/8/2022 6:00:00 AM 21.98 71.564 0.351 7.18 1.16 6.54
8/8/2022 6:15:00 AM 21.96 71.528 0.351 7.19 1 6.58
8/8/2022 6:30:00 AM 21.9 71.42 0.351 7.19 1.07 6.63
8/8/2022 6:45:00 AM 21.87 71.366 0.351 7.21 1.14 6.71
8/8/2022 7:00:00 AM 21.86 71.348 0.351 7.23 3.71 6.92
8/8/2022 7:15:00 AM 21.84 71.312 0.35 7.24 1.09 7.03
8/8/2022 7:30:00 AM 21.82 71.276 0.35 7.26 1.28 7.16
8/8/2022 7:45:00 AM 21.88 71.384 0.349 7.28 0.98 7.32
8/8/2022 8:00:00 AM 22 71.6 0.349 7.36 0.91 7.82
8/8/2022 8:15:00 AM 22.08 71.744 0.347 7.36 1.13 7.96
8/8/2022 8:30:00 AM 22.19 71.942 0.345 7.45 0.74 8.37
8/8/2022 8:45:00 AM 22.37 72.266 0.345 7.51 0.8 8.57
8/8/2022 9:00:00 AM 22.5 72.5 0.345 7.57 1.15 8.77
8/8/2022 9:15:00 AM 22.64 72.752 0.344 7.66 0.75 9.04
8/8/2022 9:30:00 AM 22.83 73.094 0.343 7.74 0.64 9.25
8/8/2022 9:45:00 AM 23.01 73.418 0.343 7.78 0.77 9.4
8/8/2022 10:00:00 AM 23.19 73.742 0.328 7.88 0.91 9.53
8/8/2022 10:15:00 AM 23.31 73.958 0.342 7.9 0.76 9.59
8/8/2022 10:30:00 AM 23.53 74.354 0.341 8 1.04 9.77
8/8/2022 10:45:00 AM 23.66 74.588 0.34 8.01 0.71 9.81
8/8/2022 11:00:00 AM 23.89 75.002 0.34 8.09 0.75 9.94
8/8/2022 11:15:00 AM 24.16 75.488 0.341 8.17 0.61 10.03
8/8/2022 11:30:00 AM 24.35 75.83 0.339 8.23 0.79 10.16
8/8/2022 11:45:00 AM 24.62 76.316 0.337 8.27 0.69 10.21
8/8/2022 12:00:00 PM 24.84 76.712 0.339 8.32 0.71 10.25
8/8/2022 12:15:00 PM 25.03 77.054 0.339 8.36 0.94 10.36
8/8/2022 12:30:00 PM 25.39 77.702 0.338 8.46 1.19 10.56
8/8/2022 12:45:00 PM 25.75 78.35 0.345 8.54 1.09 10.74
8/8/2022 1:00:00 PM 26.02 78.836 0.344 8.57 0.84 10.84
8/8/2022 1:15:00 PM 26.09 78.962 0.345 8.57 1.14 10.66
8/8/2022 1:30:00 PM 26.27 79.286 0.345 8.6 0.72 10.66
8/8/2022 1:45:00 PM 26.5 79.7 0.344 8.63 0.65 10.79
8/8/2022 2:00:00 PM 26.76 80.168 0.345 8.66 0.72 10.69
8/8/2022 2:15:00 PM 26.87 80.366 0.344 8.66 0.92 10.63
8/8/2022 2:30:00 PM 26.93 80.474 0.343 8.63 0.62 10.49
8/8/2022 2:45:00 PM 27.22 80.996 0.344 8.69 0.62 10.5
8/8/2022 3:00:00 PM 27.34 81.212 0.344 8.7 0.59 10.45
8/8/2022 3:15:00 PM 27.35 81.23 0.343 8.68 0.95 10.33
8/8/2022 3:30:00 PM 27.41 81.338 0.343 8.67 0.52 10.27
8/8/2022 3:45:00 PM 27.51 81.518 0.343 8.69 0.75 10.22
8/8/2022 4:00:00 PM 27.67 81.806 0.343 8.69 0.74 10.09
8/8/2022 4:15:00 PM 27.78 82.004 0.344 8.68 0.75 9.96
8/8/2022 4:30:00 PM 27.74 81.932 0.344 8.64 0.74 9.74
8/8/2022 4:45:00 PM 27.77 81.986 0.343 8.63 0.69 9.7
8/8/2022 5:00:00 PM 27.61 81.698 0.344 8.53 0.64 9.16
8/8/2022 5:15:00 PM 27.48 81.464 0.344 8.49 0.82 9.05
8/8/2022 5:30:00 PM 27.27 81.086 0.345 8.32 0.67 8.39
8/8/2022 5:45:00 PM 27 80.6 0.342 8.08 0.88 7.65
8/8/2022 6:00:00 PM 26.93 80.474 0.342 8.09 0.71 7.89
8/8/2022 6:15:00 PM 26.9 80.42 0.342 8.13 0.95 8.08
8/8/2022 6:30:00 PM 26.84 80.312 0.341 8.11 0.86 8.23
8/8/2022 6:45:00 PM 26.67 80.006 0.343 7.96 1.22 7.8
8/8/2022 7:00:00 PM 26.5 79.7 0.344 7.82 0.83 7.41
8/8/2022 7:15:00 PM 26.34 79.412 0.346 7.72 0.96 7.18
8/8/2022 7:30:00 PM 26.19 79.142 0.345 7.64 1.21 6.98
8/8/2022 7:45:00 PM 26.04 78.872 0.21 7.57 1.04 6.77
8/8/2022 8:00:00 PM 25.91 78.638 0.345 7.5 0.77 6.53
8/8/2022 8:15:00 PM 25.78 78.404 0.345 7.43 0.74 6.36
8/8/2022 8:30:00 PM 25.63 78.134 0.344 7.39 0.67 6.21
8/8/2022 8:45:00 PM 25.49 77.882 0.343 7.35 1.05 6.1
8/8/2022 9:00:00 PM 25.36 77.648 0.345 7.32 1.36 5.99
8/8/2022 9:15:00 PM 25.26 77.468 0.343 7.31 1.11 5.99
8/8/2022 9:30:00 PM 25.13 77.234 0.281 7.27 1.34 5.87
8/8/2022 9:45:00 PM 25.02 77.036 0.346 7.27 1.42 5.88
8/8/2022 10:00:00 PM 24.88 76.784 0.342 7.23 0.99 5.78
8/8/2022 10:15:00 PM 24.77 76.586 0.343 7.24 1.43 5.84
8/8/2022 10:30:00 PM 24.67 76.406 0.293 7.24 1.49 5.88
8/8/2022 10:45:00 PM 24.56 76.208 0.34 7.23 0.91 5.88
8/8/2022 11:00:00 PM 24.48 76.064 0.339 7.22 0.95 5.86
8/8/2022 11:15:00 PM 24.39 75.902 0.338 7.21 0.67 5.82
8/8/2022 11:30:00 PM 24.32 75.776 0.337 7.2 0.63 5.85
8/8/2022 11:45:00 PM 24.3 75.74 0.337 7.21 0.65 5.88
8/9/2022 12:00:00 AM 24.23 75.614 0.336 7.22 0.98 5.9
8/9/2022 12:15:00 AM 24.17 75.506 0.335 7.21 0.61 5.92
8/9/2022 12:30:00 AM 24.1 75.38 0.335 7.19 0.78 5.86
8/9/2022 12:45:00 AM 24.05 75.29 0.335 7.2 0.69 5.91
8/9/2022 1:00:00 AM 23.99 75.182 0.334 7.21 0.64 5.96
8/9/2022 1:15:00 AM 23.94 75.092 0.334 7.19 0.74 5.97
8/9/2022 1:30:00 AM 23.93 75.074 0.334 7.21 0.74 6.02
8/9/2022 1:45:00 AM 23.91 75.038 0.334 7.2 1.07 6.01
8/9/2022 2:00:00 AM 23.88 74.984 0.334 7.21 0.73 6.11
8/9/2022 2:15:00 AM 23.81 74.858 0.334 7.19 0.59 6.01
8/9/2022 2:30:00 AM 23.75 74.75 0.334 7.2 0.98 6.07
8/9/2022 2:45:00 AM 23.71 74.67799 0.334 7.2 0.74 6.05
8/9/2022 3:00:00 AM 23.65 74.57 0.334 7.2 0.71 6.08
8/9/2022 3:15:00 AM 23.6 74.48 0.24 7.2 1.2 6.07
8/9/2022 3:30:00 AM 23.57 74.426 0.334 7.2 0.91 6.13
8/9/2022 3:45:00 AM 23.53 74.354 0.334 7.2 0.83 6.12
8/9/2022 4:00:00 AM 23.5 74.3 0.334 7.2 0.83 6.15
8/9/2022 4:15:00 AM 23.45 74.21 0.334 7.2 0.66 6.19
8/9/2022 4:30:00 AM 23.4 74.12 0.333 7.19 0.75 6.18
8/9/2022 4:45:00 AM 23.38 74.084 0.333 7.2 0.71 6.21
8/9/2022 5:00:00 AM 23.37 74.066 0.334 7.2 0.7 6.25
8/9/2022 5:15:00 AM 23.32 73.976 0.332 7.2 0.91 6.2
8/9/2022 5:30:00 AM 23.28 73.904 0.331 7.19 1.7 6.14
8/9/2022 5:45:00 AM 23.24 73.832 0.331 7.18 1.1 6.16
8/9/2022 6:00:00 AM 23.27 73.886 0.332 7.19 0.96 6.25
8/9/2022 6:15:00 AM 23.25 73.85 0.332 7.2 1.24 6.29
8/9/2022 6:30:00 AM 23.22 73.796 0.33 7.21 0.91 6.31
8/9/2022 6:45:00 AM 23.18 73.724 0.33 7.19 2.05 6.33
8/9/2022 7:00:00 AM 23.19 73.742 0.33 7.21 1.38 6.45
8/9/2022 7:15:00 AM 23.2 73.76 0.33 7.23 0.76 6.64
8/9/2022 7:30:00 AM 23.2 73.76 0.329 7.23 1.72 6.66
8/9/2022 7:45:00 AM 23.23 73.814 0.229 7.27 1.16 6.89
8/9/2022 8:00:00 AM 23.25 73.85 0.329 7.28 1.36 7.03
8/9/2022 8:15:00 AM 23.25 73.85 0.329 7.29 0.9 7.09
8/9/2022 8:30:00 AM 23.28 73.904 0.328 7.32 1.21 7.31
8/9/2022 8:45:00 AM 23.32 73.976 0.327 7.35 1.32 7.51
8/9/2022 9:00:00 AM 23.56 74.408 0.327 7.47 1.34 8.24
8/9/2022 9:15:00 AM 23.65 74.57 0.326 7.55 1.01 8.45
8/9/2022 9:30:00 AM 23.79 74.82201 0.129 7.67 1.17 8.87
8/9/2022 9:45:00 AM 23.84 74.912 0.326 7.71 1.22 9.02
8/9/2022 10:00:00 AM 24.17 75.506 0.162 7.86 0.93 9.47
8/9/2022 10:15:00 AM 24.27 75.686 0.325 7.91 1.68 9.53
8/9/2022 10:30:00 AM 24.2 75.56 0.325 7.84 1.07 9.01
8/9/2022 10:45:00 AM 24.16 75.488 0.325 7.78 1.33 8.95
8/9/2022 11:00:00 AM 24.17 75.506 0.325 7.84 1.49 9.08
8/9/2022 11:15:00 AM 24.25 75.65 0.322 7.92 0.74 9.31
8/9/2022 11:30:00 AM 24.38 75.884 0.324 8.03 0.9 9.55
8/9/2022 11:45:00 AM 24.44 75.992 0.324 8.02 0.87 9.4
8/9/2022 12:00:00 PM 24.44 75.992 0.322 7.99 0.71 9.35
8/9/2022 12:15:00 PM 24.68 76.424 0.323 8.2 0.73 9.95
8/9/2022 12:30:00 PM 24.7 76.46 0.323 8.17 0.71 9.55
8/9/2022 12:45:00 PM 24.6 76.28 0.323 8.08 0.74 9.27
8/9/2022 1:00:00 PM 24.67 76.406 0.322 8.19 0.66 9.52
8/9/2022 1:15:00 PM 24.81 76.658 0.321 8.29 1.54 9.92
8/9/2022 1:30:00 PM 24.93 76.874 0.321 8.37 0.84 10.14
8/9/2022 1:45:00 PM 25.06 77.108 0.321 8.45 1.03 10.29
8/9/2022 2:00:00 PM 25.3 77.54 0.188 8.55 0.94 10.52
8/9/2022 2:15:00 PM 25.5 77.9 0.32 8.58 0.79 10.64
8/9/2022 2:30:00 PM 25.65 78.17 0.32 8.59 1.12 10.53
8/9/2022 2:45:00 PM 25.74 78.332 0.32 8.61 0.87 10.53
8/9/2022 3:00:00 PM 25.74 78.332 0.32 8.63 1.03 9.95
8/9/2022 3:15:00 PM 25.68 78.224 0.32 8.56 1.22 10.1
8/9/2022 3:30:00 PM 25.6 78.08 0.321 8.48 0.9 9.7
8/9/2022 3:45:00 PM 25.56 78.008 0.321 8.42 1.12 9.46
8/9/2022 4:00:00 PM 25.74 78.332 0.322 8.51 0.64 9.81
8/9/2022 4:15:00 PM 25.83 78.494 0.322 8.57 14.21 9.94
8/9/2022 4:30:00 PM 25.91 78.638 0.324 8.57 1.97 9.94
8/9/2022 4:45:00 PM 26 78.8 0.324 8.58 2.28 9.88
8/9/2022 5:00:00 PM 26.02 78.836 0.325 8.57 1.69 9.84
8/9/2022 5:15:00 PM 25.99 78.782 0.326 8.57 0.96 9.73
8/9/2022 5:30:00 PM 25.93 78.674 0.327 8.53 1.06 9.53
8/9/2022 5:45:00 PM 25.97 78.746 0.327 8.51 231.74 9.45
8/9/2022 6:00:00 PM 25.95 78.71 0.328 8.47 4.67 9.19
8/9/2022 6:15:00 PM 25.84 78.512 0.329 8.38 1.05 8.97
8/9/2022 6:30:00 PM 25.74 78.332 0.33 8.32 2.69 8.82
8/9/2022 6:45:00 PM 25.62 78.116 0.331 8.24 2.13 8.6
8/9/2022 7:00:00 PM 25.5 77.9 0.333 8.13 1.06 8.3
8/9/2022 7:15:00 PM 25.35 77.63 0.332 7.99 1.16 7.9
8/9/2022 7:30:00 PM 25.25 77.45 0.334 7.85 1.59 7.7
8/9/2022 7:45:00 PM 25.14 77.252 0.335 7.81 0.93 7.63
8/9/2022 8:00:00 PM 25.02 77.036 0.335 7.7 0.72 7.33
8/9/2022 8:15:00 PM 24.88 76.784 0.335 7.61 0.91 7.07
8/9/2022 8:30:00 PM 24.76 76.568 0.336 7.54 0.68 6.87
8/9/2022 8:45:00 PM 24.64 76.352 0.336 7.48 1.04 6.66
8/9/2022 9:00:00 PM 24.55 76.19 0.336 7.44 0.95 6.59
8/9/2022 9:15:00 PM 24.46 76.028 0.336 7.4 0.79 6.48
8/9/2022 9:30:00 PM 24.38 75.884 0.336 7.37 0.83 6.39
8/9/2022 9:45:00 PM 24.26 75.668 0.335 7.33 0.79 6.29
8/9/2022 10:00:00 PM 24.17 75.506 0.336 7.33 0.72 6.32
8/9/2022 10:15:00 PM 24.05 75.29 0.334 7.3 0.97 6.27
8/9/2022 10:30:00 PM 23.97 75.146 0.334 7.31 1.3 6.29
8/9/2022 10:45:00 PM 23.87 74.966 0.334 7.29 0.94 6.23
8/9/2022 11:00:00 PM 23.77 74.786 0.334 7.27 1.19 6.21
8/9/2022 11:15:00 PM 23.7 74.66 0.334 7.27 0.96 6.24
8/9/2022 11:30:00 PM 23.64 74.552 0.15 7.28 1.14 6.33
8/9/2022 11:45:00 PM 23.57 74.426 0.335 7.27 0.92 6.33
8/10/2022 12:00:00 AM 23.49 74.282 0.335 7.26 1.68 6.33
8/10/2022 12:15:00 AM 23.42 74.156 0.335 7.26 0.96 6.33
8/10/2022 12:30:00 AM 23.37 74.066 0.335 7.27 3.86 6.37
8/10/2022 12:45:00 AM 23.28 73.904 0.334 7.24 1.61 6.32
8/10/2022 1:00:00 AM 23.22 73.796 0.335 7.24 1.51 6.35
8/10/2022 1:15:00 AM 23.15 73.67 0.334 7.24 1.51 6.36
8/10/2022 1:30:00 AM 23.08 73.544 0.335 7.23 1.15 6.35
8/10/2022 1:45:00 AM 23.03 73.454 0.334 7.24 0.71 6.38
8/10/2022 2:00:00 AM 22.97 73.346 0.334 7.24 0.75 6.37
8/10/2022 2:15:00 AM 22.91 73.238 0.334 7.24 0.9 6.43
8/10/2022 2:30:00 AM 22.83 73.094 0.334 7.25 0.75 6.46
8/10/2022 2:45:00 AM 22.73 72.914 0.334 7.24 0.73 6.47
8/10/2022 3:00:00 AM 22.64 72.752 0.332 7.24 0.57 6.46
8/10/2022 3:15:00 AM 22.54 72.57201 0.333 7.24 0.67 6.47
8/10/2022 3:30:00 AM 22.47 72.446 0.332 7.24 0.66 6.48
8/10/2022 3:45:00 AM 22.4 72.32 0.332 7.24 0.76 6.52
8/10/2022 4:00:00 AM 22.32 72.176 0.332 7.24 0.8 6.57
8/10/2022 4:15:00 AM 22.24 72.032 0.331 7.25 1.39 6.6
8/10/2022 4:30:00 AM 22.14 71.852 0.331 7.24 0.78 6.6
8/10/2022 4:45:00 AM 22.05 71.69 0.331 7.25 1.03 6.67
8/10/2022 5:00:00 AM 21.97 71.546 0.331 7.25 0.54 6.67
8/10/2022 5:15:00 AM 21.92 71.456 0.331 7.24 1.39 6.65
8/10/2022 5:30:00 AM 21.86 71.348 0.33 7.23 1.42 6.68
8/10/2022 5:45:00 AM 21.78 71.204 0.329 7.22 1.78 6.64
8/10/2022 6:00:00 AM 21.71 71.078 0.33 7.24 1.19 6.72
8/10/2022 6:15:00 AM 21.63 70.934 0.329 7.22 0.65 6.73
8/10/2022 6:30:00 AM 21.6 70.88 0.33 7.25 1.26 6.88
8/10/2022 6:45:00 AM 21.56 70.808 0.329 7.25 0.89 6.89
8/10/2022 7:00:00 AM 21.54 70.772 0.328 7.27 1.28 7.04
8/10/2022 7:15:00 AM 21.52 70.736 0.329 7.29 0.99 7.17
8/10/2022 7:30:00 AM 21.5 70.7 0.328 7.31 1.18 7.4
8/10/2022 7:45:00 AM 21.52 70.736 0.328 7.36 0.84 7.69
8/10/2022 8:00:00 AM 21.55 70.79 0.329 7.41 0.95 7.96
8/10/2022 8:15:00 AM 21.53 70.754 0.326 7.41 0.79 8.02
8/10/2022 8:30:00 AM 21.59 70.862 0.261 7.47 0.71 8.37
8/10/2022 8:45:00 AM 21.69 71.042 0.326 7.56 0.93 8.8
8/10/2022 9:00:00 AM 21.83 71.294 0.327 7.67 0.67 9.13
8/10/2022 9:15:00 AM 21.93 71.474 0.248 7.75 0.78 9.36
8/10/2022 9:30:00 AM 22.01 71.618 0.327 7.83 2.78 9.52
8/10/2022 9:45:00 AM 22.18 71.924 0.128 7.93 1.71 9.89
8/10/2022 10:00:00 AM 22.15 71.87 0.09 7.96 1.2 9.83
8/10/2022 10:15:00 AM 22.15 71.87 0.326 7.97 0.78 9.86
8/10/2022 10:30:00 AM 22.19 71.942 0.327 8.09 1.75 10.07
8/10/2022 10:45:00 AM 22.32 72.176 0.327 8.15 0.8 10.1
8/10/2022 11:00:00 AM 22.44 72.392 0.326 8.19 1.06 10.2
8/10/2022 11:15:00 AM 22.64 72.752 0.327 8.26 0.95 10.26
8/10/2022 11:30:00 AM 22.75 72.95 0.328 8.24 0.65 10.15
8/10/2022 11:45:00 AM 22.93 73.274 0.327 8.29 0.69 10.26
8/10/2022 12:00:00 PM 23.26 73.868 0.328 8.39 0.63 10.45
8/10/2022 12:15:00 PM 23.33 73.994 0.326 8.44 0.59 10.58
8/10/2022 12:30:00 PM 23.65 74.57 0.327 8.48 1.03 10.65
8/10/2022 12:45:00 PM 23.87 74.966 0.327 8.51 0.81 10.67
8/10/2022 1:00:00 PM 24.09 75.362 0.327 8.55 0.84 10.76
8/10/2022 1:15:00 PM 24.32 75.776 0.327 8.62 0.74 10.9
8/10/2022 1:30:00 PM 24.4 75.92 0.327 8.62 0.63 10.81
8/10/2022 1:45:00 PM 24.51 76.118 0.327 8.61 0.6 10.67
8/10/2022 2:00:00 PM 24.8 76.64 0.327 8.66 0.53 10.78
8/10/2022 2:15:00 PM 24.97 76.946 0.327 8.68 0.6 10.83
8/10/2022 2:30:00 PM 24.89 76.802 0.327 8.7 1.09 10.84
8/10/2022 2:45:00 PM 25.19 77.342 0.327 8.76 0.55 11.06
8/10/2022 3:00:00 PM 25.36 77.648 0.327 8.75 0.61 10.82
8/10/2022 3:15:00 PM 25.56 78.008 0.098 8.75 0.8 10.71
8/10/2022 3:30:00 PM 25.65 78.17 0.328 8.74 0.61 10.59
8/10/2022 3:45:00 PM 25.73 78.314 0.328 8.72 0.68 10.46
8/10/2022 4:00:00 PM 25.85 78.53 0.329 8.73 0.71 10.33
8/10/2022 4:15:00 PM 25.88 78.584 0.329 8.7 0.44 10.2
8/10/2022 4:30:00 PM 25.93 78.674 0.33 8.68 1.24 10.02
8/10/2022 4:45:00 PM 25.93 78.674 0.33 8.66 0.78 9.89
8/10/2022 5:00:00 PM 25.94 78.692 0.33 8.63 0.59 9.73
8/10/2022 5:15:00 PM 25.89 78.602 0.33 8.6 1.12 9.56
8/10/2022 5:30:00 PM 25.83 78.494 0.33 8.56 0.7 9.38
8/10/2022 5:45:00 PM 25.7 78.26 0.33 8.5 0.54 9.19
8/10/2022 6:00:00 PM 25.58 78.044 0.33 8.44 0.72 9.01
8/10/2022 6:15:00 PM 25.41 77.738 0.331 8.36 0.65 8.79
8/10/2022 6:30:00 PM 25.25 77.45 0.331 8.27 0.53 8.59
8/10/2022 6:45:00 PM 25.07 77.126 0.331 8.15 0.7 8.28
8/10/2022 7:00:00 PM 24.85 76.73 0.332 8.03 0.63 8.02
8/10/2022 7:15:00 PM 24.63 76.334 0.333 7.88 0.71 7.7
8/10/2022 7:30:00 PM 24.41 75.938 0.333 7.75 1.59 7.43
8/10/2022 7:45:00 PM 24.2 75.56 0.333 7.65 0.76 7.19
8/10/2022 8:00:00 PM 24 75.2 0.333 7.58 0.65 7.03
8/10/2022 8:15:00 PM 23.82 74.876 0.333 7.51 0.65 6.85
8/10/2022 8:30:00 PM 23.64 74.552 0.333 7.47 0.75 6.77
8/10/2022 8:45:00 PM 23.47 74.246 0.333 7.43 0.99 6.64
8/10/2022 9:00:00 PM 23.29 73.922 0.333 7.4 0.81 6.6
8/10/2022 9:15:00 PM 23.16 73.688 0.333 7.38 1.32 6.58
8/10/2022 9:30:00 PM 23.02 73.436 0.333 7.36 0.72 6.59
8/10/2022 9:45:00 PM 22.9 73.22 0.333 7.34 0.81 6.55
8/10/2022 10:00:00 PM 22.77 72.986 0.333 7.33 0.76 6.52
8/10/2022 10:15:00 PM 22.63 72.734 0.333 7.32 0.8 6.56
8/10/2022 10:30:00 PM 22.5 72.5 0.333 7.3 0.77 6.5
8/10/2022 10:45:00 PM 22.39 72.302 0.332 7.28 0.78 6.48
8/10/2022 11:00:00 PM 22.26 72.068 0.332 7.29 0.91 6.58
8/10/2022 11:15:00 PM 22.14 71.852 0.333 7.29 1.05 6.6
8/10/2022 11:30:00 PM 22.02 71.636 0.332 7.29 0.78 6.65
8/10/2022 11:45:00 PM 21.92 71.456 0.332 7.27 0.64 6.58
8/11/2022 12:00:00 AM 21.82 71.276 0.332 7.27 0.95 6.65
8/11/2022 12:15:00 AM 21.71 71.078 0.332 7.27 1.15 6.65
8/11/2022 12:30:00 AM 21.63 70.934 0.332 7.26 0.77 6.65
8/11/2022 12:45:00 AM 21.55 70.79 0.332 7.26 0.7 6.66
8/11/2022 1:00:00 AM 21.47 70.646 0.332 7.25 0.95 6.67
8/11/2022 1:15:00 AM 21.41 70.538 0.331 7.26 0.61 6.76
8/11/2022 1:30:00 AM 21.32 70.376 0.331 7.25 0.54 6.76
8/11/2022 1:45:00 AM 21.25 70.25 0.332 7.25 0.89 6.78
8/11/2022 2:00:00 AM 21.16 70.088 0.332 7.25 0.68 6.82
8/11/2022 2:15:00 AM 21.07 69.926 0.332 7.23 0.64 6.75
8/11/2022 2:30:00 AM 21 69.8 0.332 7.25 0.93 6.87
8/11/2022 2:45:00 AM 20.95 69.71 0.332 7.24 0.71 6.82
8/11/2022 3:00:00 AM 20.87 69.566 0.332 7.24 0.7 6.86
8/11/2022 3:15:00 AM 20.78 69.404 0.332 7.24 0.78 6.9
8/11/2022 3:30:00 AM 20.72 69.296 0.333 7.24 0.73 6.89
8/11/2022 3:45:00 AM 20.63 69.134 0.332 7.23 0.72 6.9
8/11/2022 4:00:00 AM 20.56 69.008 0.333 7.23 0.73 6.91
8/11/2022 4:15:00 AM 20.48 68.864 0.333 7.24 0.73 6.95
8/11/2022 4:30:00 AM 20.4 68.72 0.334 7.24 1.32 6.98
8/11/2022 4:45:00 AM 20.32 68.576 0.334 7.23 1.53 6.97
8/11/2022 5:00:00 AM 20.24 68.432 0.334 7.25 1.14 7.02
8/11/2022 5:15:00 AM 20.16 68.288 0.334 7.24 0.78 7.01
8/11/2022 5:30:00 AM 20.07 68.126 0.334 7.25 0.8 7.05
8/11/2022 5:45:00 AM 20 68 0.335 7.25 1.04 7.07
8/11/2022 6:00:00 AM 19.93 67.874 0.298 7.25 0.8 7.09
8/11/2022 6:15:00 AM 19.86 67.748 0.335 7.25 0.92 7.13
8/11/2022 6:30:00 AM 19.77 67.586 0.335 7.25 0.9 7.18
8/11/2022 6:45:00 AM 19.71 67.478 0.299 7.27 0.86 7.34
8/11/2022 7:00:00 AM 19.65 67.37 0.334 7.27 0.97 7.38
8/11/2022 7:15:00 AM 19.6 67.28 0.335 7.28 0.96 7.5
8/11/2022 7:30:00 AM 19.56 67.208 0.335 7.31 1.04 7.66
8/11/2022 7:45:00 AM 19.57 67.226 0.335 7.34 0.62 7.95
8/11/2022 8:00:00 AM 19.63 67.334 0.335 7.39 0.65 8.27
8/11/2022 8:15:00 AM 19.7 67.46 0.334 7.44 0.5 8.57
8/11/2022 8:30:00 AM 19.85 67.73 0.334 7.53 0.62 8.93
8/11/2022 8:45:00 AM 20.01 68.018 0.333 7.62 0.98 9.29
8/11/2022 9:00:00 AM 20.14 68.252 0.333 7.67 0.59 9.48
8/11/2022 9:15:00 AM 20.32 68.576 0.333 7.76 0.65 9.67
8/11/2022 9:30:00 AM 20.46 68.828 0.333 7.81 0.65 9.77
8/11/2022 9:45:00 AM 20.63 69.134 0.333 7.89 0.73 9.92
8/11/2022 10:00:00 AM 20.74 69.332 0.332 7.91 0.52 9.94
8/11/2022 10:15:00 AM 20.93 69.674 0.332 7.96 0.99 10.02
8/11/2022 10:30:00 AM 21.15 70.07 0.332 8.06 0.85 10.18
8/11/2022 10:45:00 AM 21.3 70.34 0.332 8.11 1.07 10.3
8/11/2022 11:00:00 AM 21.51 70.718 0.332 8.16 0.59 10.37
8/11/2022 11:15:00 AM 21.74 71.132 0.332 8.22 0.73 10.45
8/11/2022 11:30:00 AM 22.03 71.654 0.331 8.31 0.89 10.56
8/11/2022 11:45:00 AM 22.25 72.05 0.332 8.34 1.13 10.69
8/11/2022 12:00:00 PM 22.55 72.59 0.331 8.41 0.85 10.84
8/11/2022 12:15:00 PM 22.75 72.95 0.331 8.45 0.77 10.84
8/11/2022 12:30:00 PM 22.97 73.346 0.331 8.5 0.68 10.91
8/11/2022 12:45:00 PM 23.16 73.688 0.33 8.53 0.57 10.91
8/11/2022 1:00:00 PM 23.44 74.192 0.33 8.57 0.94 10.96
8/11/2022 1:15:00 PM 23.58 74.444 0.33 8.58 0.74 10.97
8/11/2022 1:30:00 PM 23.86 74.948 0.33 8.62 0.72 10.98
8/11/2022 1:45:00 PM 24.06 75.308 0.33 8.63 0.72 10.97
8/11/2022 2:00:00 PM 24.23 75.614 0.33 8.66 0.7 11
8/11/2022 2:15:00 PM 24.5 76.1 0.33 8.7 0.58 11.13
8/11/2022 2:30:00 PM 24.48 76.064 0.33 8.68 0.57 10.87
8/11/2022 2:45:00 PM 24.49 76.082 0.33 8.69 0.54 10.84
8/11/2022 3:00:00 PM 24.47 76.046 0.33 8.68 0.83 10.73
8/11/2022 3:15:00 PM 24.33 75.794 0.33 8.66 0.62 10.43
8/11/2022 3:30:00 PM 24.34 75.812 0.33 8.61 0.61 10.33
8/11/2022 3:45:00 PM 24.62 76.316 0.33 8.68 0.54 10.56
8/11/2022 4:00:00 PM 24.86 76.748 0.33 8.73 0.66 10.68
8/11/2022 4:15:00 PM 25.05 77.09 0.329 8.75 0.52 10.7
8/11/2022 4:30:00 PM 24.96 76.92799 0.335 8.7 0.66 10.32
8/11/2022 4:45:00 PM 25.03 77.054 0.335 8.71 0.56 10.34
8/11/2022 5:00:00 PM 25 77 0.334 8.69 0.56 10.17
8/11/2022 5:15:00 PM 24.98 76.964 0.334 8.67 0.66 9.99
8/11/2022 5:30:00 PM 24.92 76.856 0.334 8.62 0.66 9.8
8/11/2022 5:45:00 PM 24.79 76.622 0.334 8.59 0.75 9.62
8/11/2022 6:00:00 PM 24.65 76.37 0.333 8.53 0.64 9.4
8/11/2022 6:15:00 PM 24.51 76.118 0.334 8.46 0.68 9.25
8/11/2022 6:30:00 PM 24.35 75.83 0.334 8.38 0.52 8.98
8/11/2022 6:45:00 PM 24.15 75.47 0.335 8.28 0.74 8.75
8/11/2022 7:00:00 PM 23.95 75.11 0.336 8.13 1.12 8.37
8/11/2022 7:15:00 PM 23.72 74.696 0.336 7.97 0.51 8
8/11/2022 7:30:00 PM 23.54 74.372 0.337 7.84 0.65 7.72
8/11/2022 7:45:00 PM 23.37 74.066 0.336 7.71 0.49 7.45
8/11/2022 8:00:00 PM 23.19 73.742 0.335 7.64 0.53 7.29
8/11/2022 8:15:00 PM 23.02 73.436 0.333 7.58 1.06 7.14
8/11/2022 8:30:00 PM 22.87 73.166 0.334 7.51 0.7 6.97
8/11/2022 8:45:00 PM 22.74 72.932 0.335 7.47 0.76 6.89
8/11/2022 9:00:00 PM 22.63 72.734 0.336 7.44 0.71 6.8
8/11/2022 9:15:00 PM 22.47 72.446 0.336 7.41 0.66 6.76
8/11/2022 9:30:00 PM 22.35 72.23 0.336 7.4 0.67 6.73
8/11/2022 9:45:00 PM 22.2 71.96 0.337 7.37 0.95 6.69
8/11/2022 10:00:00 PM 22.07 71.726 0.337 7.35 0.81 6.64
8/11/2022 10:15:00 PM 21.95 71.51 0.337 7.34 0.88 6.65
8/11/2022 10:30:00 PM 21.8 71.24 0.337 7.32 0.74 6.68
8/11/2022 10:45:00 PM 21.68 71.024 0.337 7.32 0.87 6.67
8/11/2022 11:00:00 PM 21.56 70.808 0.337 7.32 0.74 6.68
8/11/2022 11:15:00 PM 21.43 70.574 0.337 7.3 1.05 6.65
8/11/2022 11:30:00 PM 21.3 70.34 0.337 7.3 0.8 6.71
8/11/2022 11:45:00 PM 21.19 70.142 0.337 7.3 0.83 6.78
8/12/2022 12:00:00 AM 21.06 69.908 0.336 7.29 0.64 6.75
8/12/2022 12:15:00 AM 20.94 69.692 0.336 7.28 1.16 6.8
8/12/2022 12:30:00 AM 20.82 69.476 0.336 7.29 0.8 6.83
8/12/2022 12:45:00 AM 20.7 69.26 0.335 7.28 0.74 6.86
8/12/2022 1:00:00 AM 20.63 69.134 0.335 7.28 0.61 6.85
8/12/2022 1:15:00 AM 20.52 68.936 0.336 7.28 0.68 6.87
8/12/2022 1:30:00 AM 20.41 68.738 0.335 7.26 0.63 6.87
8/12/2022 1:45:00 AM 20.31 68.558 0.336 7.27 2.12 6.96
8/12/2022 2:00:00 AM 20.19 68.342 0.336 7.27 1.91 6.96
8/12/2022 2:15:00 AM 20.11 68.198 0.336 7.28 0.7 7
8/12/2022 2:30:00 AM 20.01 68.018 0.335 7.27 0.73 7.01
8/12/2022 2:45:00 AM 19.91 67.838 0.335 7.27 0.55 7.03
8/12/2022 3:00:00 AM 19.81 67.658 0.335 7.26 0.66 7.06
8/12/2022 3:15:00 AM 19.72 67.496 0.336 7.27 0.65 7.07
8/12/2022 3:30:00 AM 19.62 67.316 0.335 7.26 0.59 7.09
8/12/2022 3:45:00 AM 19.53 67.154 0.335 7.27 0.57 7.12
8/12/2022 4:00:00 AM 19.43 66.974 0.336 7.26 1 7.15
8/12/2022 4:15:00 AM 19.34 66.812 0.336 7.27 0.71 7.18
8/12/2022 4:30:00 AM 19.24 66.632 0.336 7.26 0.7 7.2
8/12/2022 4:45:00 AM 19.16 66.488 0.337 7.27 0.85 7.23
8/12/2022 5:00:00 AM 19.07 66.326 0.336 7.26 0.72 7.27
8/12/2022 5:15:00 AM 18.99 66.182 0.337 7.26 0.75 7.29
8/12/2022 5:30:00 AM 18.88 65.984 0.337 7.26 0.74 7.33
8/12/2022 5:45:00 AM 18.81 65.858 0.337 7.26 0.84 7.34
8/12/2022 6:00:00 AM 18.72 65.696 0.337 7.25 1.25 7.32
8/12/2022 6:15:00 AM 18.62 65.516 0.338 7.26 1.03 7.36
8/12/2022 6:30:00 AM 18.55 65.39 0.338 7.25 0.74 7.44
8/12/2022 6:45:00 AM 18.46 65.228 0.338 7.27 0.76 7.52
8/12/2022 7:00:00 AM 18.39 65.102 0.338 7.26 0.86 7.59
8/12/2022 7:15:00 AM 18.32 64.976 0.338 7.29 0.76 7.74
8/12/2022 7:30:00 AM 18.28 64.904 0.338 7.3 0.71 7.86
8/12/2022 7:45:00 AM 18.31 64.958 0.339 7.35 0.81 8.23
8/12/2022 8:00:00 AM 18.36 65.048 0.339 7.39 0.71 8.51
8/12/2022 8:15:00 AM 18.46 65.228 0.339 7.46 0.8 8.84
8/12/2022 8:30:00 AM 18.6 65.48 0.339 7.53 1.15 9.2
8/12/2022 8:45:00 AM 18.69 65.642 0.339 7.57 0.62 9.38
8/12/2022 9:00:00 AM 18.88 65.984 0.34 7.67 0.78 9.67
8/12/2022 9:15:00 AM 19.03 66.254 0.34 7.74 0.92 9.85
8/12/2022 9:30:00 AM 19.21 66.578 0.34 7.82 0.71 10.06
8/12/2022 9:45:00 AM 19.35 66.83 0.34 7.88 0.56 10.13
8/12/2022 10:00:00 AM 19.58 67.244 0.34 8 0.81 10.33
8/12/2022 10:15:00 AM 19.76 67.568 0.34 8.07 0.61 10.49
8/12/2022 10:30:00 AM 20.01 68.018 0.341 8.15 0.74 10.58
8/12/2022 10:45:00 AM 20.18 68.324 0.341 8.18 1.34 10.6
8/12/2022 11:00:00 AM 20.43 68.774 0.341 8.29 0.73 10.92
8/12/2022 11:15:00 AM 20.68 69.224 0.341 8.35 0.78 10.96
8/12/2022 11:30:00 AM 20.86 69.548 0.341 8.39 0.64 11
8/12/2022 11:45:00 AM 21.13 70.034 0.342 8.45 0.67 11.11
8/12/2022 12:00:00 PM 21.29 70.32201 0.343 8.47 0.67 11.15
8/12/2022 12:15:00 PM 21.69 71.042 0.342 8.52 0.8 11.21
8/12/2022 12:30:00 PM 21.88 71.384 0.342 8.57 1.05 11.22
8/12/2022 12:45:00 PM 22.06 71.708 0.342 8.59 0.86 11.22
8/12/2022 1:00:00 PM 22.31 72.158 0.341 8.63 0.83 11.28
8/12/2022 1:15:00 PM 22.51 72.518 0.342 8.65 0.78 11.34
8/12/2022 1:30:00 PM 22.73 72.914 0.289 8.66 0.77 11.37
8/12/2022 1:45:00 PM 22.96 73.328 0.342 8.7 0.8 11.42
8/12/2022 2:00:00 PM 23.11 73.598 0.342 8.73 0.97 11.36
8/12/2022 2:15:00 PM 23.29 73.922 0.341 8.74 1.03 11.35
8/12/2022 2:30:00 PM 23.48 74.264 0.342 8.77 1.03 11.31
8/12/2022 2:45:00 PM 23.55 74.39 0.341 8.77 0.69 11.29
8/12/2022 3:00:00 PM 23.73 74.714 0.341 8.76 0.66 11.25
8/12/2022 3:15:00 PM 23.84 74.912 0.341 8.78 4.37 11.2
8/12/2022 3:30:00 PM 23.94 75.092 0.34 8.79 0.82 11.2
8/12/2022 3:45:00 PM 23.87 74.966 0.34 8.77 0.67 10.98
8/12/2022 4:00:00 PM 23.86 74.948 0.34 8.77 0.79 10.92
8/12/2022 4:15:00 PM 23.92 75.056 0.34 8.76 0.91 10.83
8/12/2022 4:30:00 PM 23.91 75.038 0.34 8.74 0.75 10.71
8/12/2022 4:45:00 PM 23.92 75.056 0.341 8.74 0.78 10.57
8/12/2022 5:00:00 PM 23.89 75.002 0.341 8.72 0.89 10.48
8/12/2022 5:15:00 PM 23.85 74.93 0.341 8.71 0.84 10.38
8/12/2022 5:30:00 PM 23.76 74.768 0.342 8.68 0.8 10.25
8/12/2022 5:45:00 PM 23.63 74.534 0.342 8.63 0.81 10.03
8/12/2022 6:00:00 PM 23.53 74.354 0.343 8.6 1.16 9.87
8/12/2022 6:15:00 PM 23.4 74.12 0.343 8.55 0.69 9.73
8/12/2022 6:30:00 PM 23.19 73.742 0.343 8.49 0.73 9.53
8/12/2022 6:45:00 PM 22.94 73.292 0.343 8.38 0.75 9.21
8/12/2022 7:00:00 PM 22.64 72.752 0.345 8.24 0.72 8.77
8/12/2022 7:15:00 PM 22.39 72.302 0.345 8.07 0.91 8.37
8/12/2022 7:30:00 PM 22.14 71.852 0.346 7.93 0.75 7.99
8/12/2022 7:45:00 PM 21.92 71.456 0.345 7.8 0.73 7.83
8/12/2022 8:00:00 PM 21.72 71.096 0.346 7.7 0.66 7.62
8/12/2022 8:15:00 PM 21.53 70.754 0.346 7.63 0.68 7.47
8/12/2022 8:30:00 PM 21.34 70.412 0.346 7.55 0.64 7.29
8/12/2022 8:45:00 PM 21.15 70.07 0.346 7.5 0.86 7.2
8/12/2022 9:00:00 PM 21 69.8 0.345 7.46 1.14 7.09
8/12/2022 9:15:00 PM 20.83 69.494 0.345 7.42 0.69 7.04
8/12/2022 9:30:00 PM 20.67 69.206 0.345 7.41 0.84 6.99
8/12/2022 9:45:00 PM 20.52 68.936 0.345 7.39 0.77 6.99
8/12/2022 10:00:00 PM 20.38 68.684 0.345 7.36 0.81 6.93
8/12/2022 10:15:00 PM 20.21 68.378 0.345 7.36 0.84 6.97
8/12/2022 10:30:00 PM 20.07 68.126 0.345 7.34 0.76 6.97
8/12/2022 10:45:00 PM 19.92 67.856 0.346 7.34 0.83 6.99
8/12/2022 11:00:00 PM 19.77 67.586 0.346 7.34 0.79 7.04
8/12/2022 11:15:00 PM 19.65 67.37 0.346 7.31 0.84 7
8/12/2022 11:30:00 PM 19.49 67.082 0.346 7.32 0.68 7.07
8/12/2022 11:45:00 PM 19.36 66.848 0.347 7.32 0.8 7.14
8/13/2022 12:00:00 AM 19.21 66.578 0.346 7.3 1.53 7.09
8/13/2022 12:15:00 AM 19.06 66.308 0.346 7.31 0.87 7.18
8/13/2022 12:30:00 AM 18.92 66.056 0.346 7.3 0.75 7.2
8/13/2022 12:45:00 AM 18.79 65.82201 0.346 7.29 0.63 7.22
8/13/2022 1:00:00 AM 18.67 65.606 0.346 7.3 0.63 7.28
8/13/2022 1:15:00 AM 18.54 65.372 0.345 7.28 0.59 7.26
8/13/2022 1:30:00 AM 18.41 65.138 0.344 7.28 0.72 7.3
8/13/2022 1:45:00 AM 18.29 64.922 0.344 7.27 1.02 7.34
8/13/2022 2:00:00 AM 18.16 64.688 0.343 7.27 0.62 7.34
8/13/2022 2:15:00 AM 18.03 64.454 0.343 7.26 0.74 7.37
8/13/2022 2:30:00 AM 17.94 64.292 0.342 7.25 0.89 7.39
8/13/2022 2:45:00 AM 17.8 64.04 0.342 7.25 0.68 7.44
8/13/2022 3:00:00 AM 17.69 63.842 0.342 7.25 0.75 7.48
8/13/2022 3:15:00 AM 17.56 63.608 0.34 7.25 0.79 7.5
8/13/2022 3:30:00 AM 17.47 63.446 0.341 7.24 0.78 7.54
8/13/2022 3:45:00 AM 17.35 63.23 0.34 7.24 0.73 7.55
8/13/2022 4:00:00 AM 17.23 63.014 0.34 7.23 0.74 7.6
8/13/2022 4:15:00 AM 17.11 62.798 0.34 7.22 0.64 7.59
8/13/2022 4:30:00 AM 17.03 62.654 0.34 7.22 0.71 7.59
8/13/2022 4:45:00 AM 16.91 62.438 0.339 7.21 0.7 7.65
8/13/2022 5:00:00 AM 16.8 62.24 0.34 7.23 0.78 7.73
8/13/2022 5:15:00 AM 16.72 62.096 0.34 7.22 0.66 7.73
8/13/2022 5:30:00 AM 16.6 61.88 0.339 7.2 0.72 7.73
8/13/2022 5:45:00 AM 16.5 61.7 0.339 7.21 0.88 7.81
8/13/2022 6:00:00 AM 16.4 61.52 0.34 7.21 0.96 7.84
8/13/2022 6:15:00 AM 16.31 61.358 0.339 7.21 0.76 7.86
8/13/2022 6:30:00 AM 16.21 61.178 0.34 7.2 0.77 7.95
8/13/2022 6:45:00 AM 16.12 61.016 0.34 7.22 0.74 8.05
8/13/2022 7:00:00 AM 16.02 60.836 0.338 7.2 0.72 8.05
8/13/2022 7:15:00 AM 15.96 60.728 0.34 7.24 0.6 8.28
8/13/2022 7:30:00 AM 15.91 60.638 0.339 7.25 0.6 8.38
8/13/2022 7:45:00 AM 15.93 60.674 0.34 7.27 0.64 8.59
8/13/2022 8:00:00 AM 16.02 60.836 0.34 7.35 0.58 9.12
8/13/2022 8:15:00 AM 16.14 61.052 0.34 7.43 0.58 9.51
8/13/2022 8:30:00 AM 16.25 61.25 0.34 7.51 0.56 9.76
8/13/2022 8:45:00 AM 16.36 61.448 0.308 7.55 0.57 9.93
8/13/2022 9:00:00 AM 16.57 61.826 0.34 7.64 0.58 10.23
8/13/2022 9:15:00 AM 16.75 62.15 0.34 7.72 0.55 10.33
8/13/2022 9:30:00 AM 17.02 62.636 0.34 7.84 0.52 10.57
8/13/2022 9:45:00 AM 17.26 63.068 0.34 7.92 0.56 10.8
8/13/2022 10:00:00 AM 17.57 63.626 0.34 8.03 0.53 11.01
8/13/2022 10:15:00 AM 17.81 64.058 0.341 8.1 0.5 11.09
8/13/2022 10:30:00 AM 18.06 64.508 0.342 8.18 0.58 11.23
8/13/2022 10:45:00 AM 18.29 64.922 0.342 8.24 0.6 11.29
8/13/2022 11:00:00 AM 18.61 65.498 0.342 8.33 0.64 11.46
8/13/2022 11:15:00 AM 18.92 66.056 0.342 8.39 0.56 11.54
8/13/2022 11:30:00 AM 19.22 66.596 0.343 8.46 0.6 11.67
8/13/2022 11:45:00 AM 19.46 67.028 0.343 8.52 0.6 11.75
8/13/2022 12:00:00 PM 19.75 67.55 0.344 8.57 0.57 11.78
8/13/2022 12:15:00 PM 20.1 68.18 0.345 8.62 0.63 11.89
8/13/2022 12:30:00 PM 20.26 68.468 0.344 8.64 0.81 11.93
8/13/2022 12:45:00 PM 20.54 68.972 0.317 8.67 1.23 11.9
8/13/2022 1:00:00 PM 20.82 69.476 0.346 8.71 0.84 11.99
8/13/2022 1:15:00 PM 21.08 69.944 0.347 8.74 0.64 12.01
8/13/2022 1:30:00 PM 21.38 70.484 0.348 8.77 0.72 12.03
8/13/2022 1:45:00 PM 21.54 70.772 0.348 8.79 0.74 12.03
8/13/2022 2:00:00 PM 21.84 71.312 0.348 8.82 0.61 12.06
8/13/2022 2:15:00 PM 21.98 71.564 0.348 8.82 1.19 11.99
8/13/2022 2:30:00 PM 22.15 71.87 0.349 8.83 1.21 11.97
8/13/2022 2:45:00 PM 22.39 72.302 0.35 8.86 0.68 12
8/13/2022 3:00:00 PM 22.56 72.608 0.348 8.86 1.08 11.93
8/13/2022 3:15:00 PM 22.68 72.824 0.35 8.85 1.3 11.87
8/13/2022 3:30:00 PM 22.79 73.022 0.243 8.85 1.26 11.84
8/13/2022 3:45:00 PM 22.9 73.22 0.35 8.85 1.74 11.64
8/13/2022 4:00:00 PM 22.93 73.274 0.35 8.85 0.93 11.55
8/13/2022 4:15:00 PM 22.98 73.364 0.349 8.84 1.01 11.46
8/13/2022 4:30:00 PM 23 73.4 0.35 8.82 1.81 11.32
8/13/2022 4:45:00 PM 23 73.4 0.351 8.8 1.23 11.13
8/13/2022 5:00:00 PM 23.08 73.544 0.351 8.81 0.76 11.11
8/13/2022 5:15:00 PM 23.05 73.49 0.352 8.78 1.61 10.92
8/13/2022 5:30:00 PM 23.05 73.49 0.353 8.76 1.52 10.77
8/13/2022 5:45:00 PM 23 73.4 0.353 8.73 0.97 10.57
8/13/2022 6:00:00 PM 22.9 73.22 0.353 8.67 1.93 10.39
8/13/2022 6:15:00 PM 22.83 73.094 0.24 8.63 1.34 10.18
8/13/2022 6:30:00 PM 22.69 72.842 0.354 8.57 1.19 9.96
8/13/2022 6:45:00 PM 22.52 72.536 0.355 8.48 1.11 9.66
8/13/2022 7:00:00 PM 22.31 72.158 0.356 8.34 0.87 9.21
8/13/2022 7:15:00 PM 22.05 71.69 0.357 8.16 0.82 8.69
8/13/2022 7:30:00 PM 21.82 71.276 0.358 8.02 0.93 8.36
8/13/2022 7:45:00 PM 21.57 70.826 0.358 7.87 0.65 8.07
8/13/2022 8:00:00 PM 21.31 70.358 0.359 7.76 0.76 7.86
8/13/2022 8:15:00 PM 21.06 69.908 0.359 7.67 0.68 7.65
8/13/2022 8:30:00 PM 20.82 69.476 0.359 7.59 0.64 7.45
8/13/2022 8:45:00 PM 20.57 69.026 0.36 7.53 1.63 7.35
8/13/2022 9:00:00 PM 20.38 68.684 0.36 7.49 0.9 7.22
8/13/2022 9:15:00 PM 20.19 68.342 0.359 7.45 0.85 7.15
8/13/2022 9:30:00 PM 20.01 68.018 0.36 7.42 0.84 7.12
8/13/2022 9:45:00 PM 19.85 67.73 0.36 7.39 0.67 7.09
8/13/2022 10:00:00 PM 19.72 67.496 0.36 7.38 0.75 7.07
8/13/2022 10:15:00 PM 19.6 67.28 0.359 7.35 0.68 7.01
8/13/2022 10:30:00 PM 19.46 67.028 0.359 7.34 0.74 7.02
8/13/2022 10:45:00 PM 19.32 66.776 0.359 7.33 4.61 7.01
8/13/2022 11:00:00 PM 19.2 66.56 0.359 7.31 1.19 6.98
8/13/2022 11:15:00 PM 19.08 66.344 0.359 7.31 0.83 7.01
8/13/2022 11:30:00 PM 18.95 66.11 0.36 7.3 0.76 7.03
8/13/2022 11:45:00 PM 18.86 65.948 0.36 7.29 0.76 7
8/14/2022 12:00:00 AM 18.74 65.732 0.36 7.28 0.73 7
8/14/2022 12:15:00 AM 18.61 65.498 0.361 7.28 0.87 7.07
8/14/2022 12:30:00 AM 18.49 65.282 0.362 7.28 0.82 7.1
8/14/2022 12:45:00 AM 18.36 65.048 0.356 7.29 0.74 7.15
8/14/2022 1:00:00 AM 18.25 64.85 0.363 7.29 0.81 7.17
8/14/2022 1:15:00 AM 18.15 64.67 0.364 7.28 0.86 7.18
8/14/2022 1:30:00 AM 18.03 64.454 0.363 7.27 1.01 7.19
8/14/2022 1:45:00 AM 17.9 64.22 0.364 7.27 1.15 7.26
8/14/2022 2:00:00 AM 17.78 64.004 0.364 7.27 0.8 7.28
8/14/2022 2:15:00 AM 17.66 63.788 0.365 7.27 0.78 7.32
8/14/2022 2:30:00 AM 17.56 63.608 0.365 7.26 0.88 7.34
8/14/2022 2:45:00 AM 17.45 63.41 0.365 7.25 0.76 7.31
8/14/2022 3:00:00 AM 17.33 63.194 0.364 7.25 1.12 7.37
8/14/2022 3:15:00 AM 17.22 62.996 0.306 7.26 1.13 7.43
8/14/2022 3:30:00 AM 17.14 62.852 0.365 7.23 0.87 7.4
8/14/2022 3:45:00 AM 17.04 62.672 0.365 7.23 0.73 7.43
8/14/2022 4:00:00 AM 16.91 62.438 0.366 7.24 0.84 7.54
8/14/2022 4:30:00 AM 16.72 62.096 0.365 7.22 0.67 7.52
8/14/2022 4:45:00 AM 16.63 61.934 0.365 7.23 0.9 7.57
8/14/2022 5:00:00 AM 16.53 61.754 0.364 7.21 1.17 7.54
8/14/2022 5:15:00 AM 16.39 61.502 0.365 7.23 0.93 7.68
8/14/2022 5:30:00 AM 16.33 61.394 0.364 7.22 0.8 7.6
8/14/2022 5:45:00 AM 16.22 61.196 0.364 7.23 0.91 7.72
8/14/2022 6:00:00 AM 16.12 61.016 0.364 7.24 0.79 7.77
8/14/2022 6:15:00 AM 16.01 60.818 0.365 7.24 1.39 7.83
8/14/2022 6:30:00 AM 15.94 60.692 0.364 7.24 1.18 7.87
8/14/2022 6:45:00 AM 15.89 60.602 0.361 7.23 1.35 7.83
8/14/2022 7:00:00 AM 15.79 60.422 0.363 7.26 0.81 8.08
8/14/2022 7:15:00 AM 15.72 60.296 0.363 7.27 8.03 8.21
8/14/2022 7:30:00 AM 15.68 60.224 0.362 7.26 0.78 8.19
8/14/2022 7:45:00 AM 15.7 60.26 0.363 7.32 0.8 8.63
8/14/2022 8:00:00 AM 15.79 60.422 0.361 7.35 0.65 8.82
8/14/2022 8:15:00 AM 15.89 60.602 0.362 7.41 0.67 9.29
8/14/2022 8:30:00 AM 16 60.8 0.361 7.48 0.77 9.46
8/14/2022 8:45:00 AM 16.17 61.106 0.361 7.55 0.67 9.83
8/14/2022 9:00:00 AM 16.39 61.502 0.362 7.7 0.66 10.3
8/14/2022 9:15:00 AM 16.6 61.88 0.361 7.75 0.74 10.52
8/14/2022 9:30:00 AM 16.97 62.546 0.361 7.94 0.71 10.85
8/14/2022 9:45:00 AM 17.22 62.996 0.361 8.02 1.37 11.09
8/14/2022 10:00:00 AM 17.58 63.644 0.361 8.15 0.86 11.33
8/14/2022 10:15:00 AM 17.8 64.04 0.361 8.21 0.83 11.36
8/14/2022 10:30:00 AM 18.08 64.544 0.361 8.28 0.92 11.53
8/14/2022 10:45:00 AM 18.41 65.138 0.361 8.36 0.87 11.67
8/14/2022 11:00:00 AM 18.7 65.66 0.361 8.45 0.82 11.78
8/14/2022 11:15:00 AM 18.99 66.182 0.361 8.5 0.76 11.91
8/14/2022 11:30:00 AM 19.29 66.722 0.361 8.54 0.77 12.05
8/14/2022 11:45:00 AM 19.59 67.262 0.361 8.62 0.91 12.12
8/14/2022 12:00:00 PM 19.91 67.838 0.362 8.67 2.02 12.19
8/14/2022 12:15:00 PM 20.1 68.18 0.362 8.71 0.92 12.26
8/14/2022 12:30:00 PM 20.4 68.72 0.362 8.75 0.75 12.3
8/14/2022 12:45:00 PM 20.69 69.242 0.362 8.78 0.84 12.37
8/14/2022 1:00:00 PM 20.93 69.674 0.363 8.8 1.05 12.35
8/14/2022 1:15:00 PM 20.92 69.656 0.363 8.75 1.39 12.08
8/14/2022 1:30:00 PM 21.34 70.412 0.364 8.83 1.01 12.35
8/14/2022 1:45:00 PM 21.69 71.042 0.364 8.88 1.66 12.53
8/14/2022 2:00:00 PM 21.93 71.474 0.364 8.92 1.18 12.64
8/14/2022 2:15:00 PM 22.31 72.158 0.365 8.96 0.69 12.76
8/14/2022 2:30:00 PM 22.43 72.374 0.365 8.97 0.76 12.79
8/14/2022 2:45:00 PM 22.55 72.59 0.365 9 0.72 12.83
8/14/2022 3:00:00 PM 22.72 72.896 0.371 9.03 0.78 12.91
8/14/2022 3:15:00 PM 22.68 72.824 0.373 9.03 0.69 12.78
8/14/2022 3:30:00 PM 22.77 72.986 0.373 9.06 0.73 12.95
8/14/2022 3:45:00 PM 22.78 73.004 0.373 9.05 0.92 12.81
8/14/2022 4:00:00 PM 22.9 73.22 0.377 9.06 2.81 12.79
8/14/2022 4:15:00 PM 22.85 73.13 0.373 9.06 0.94 12.65
8/14/2022 4:30:00 PM 22.93 73.274 0.372 9.07 0.84 12.69
8/14/2022 4:45:00 PM 22.96 73.328 0.372 9.06 0.92 12.47
8/14/2022 5:00:00 PM 22.89 73.202 0.372 9.03 1.75 12.22
8/14/2022 5:15:00 PM 22.82 73.076 0.374 8.96 1.24 11.68
8/14/2022 5:30:00 PM 22.87 73.166 0.375 8.97 0.83 11.72
8/14/2022 5:45:00 PM 22.76 72.968 0.376 8.91 0.73 11.27
8/14/2022 6:00:00 PM 22.58 72.644 0.376 8.81 0.77 10.58
8/14/2022 6:15:00 PM 22.47 72.446 0.379 8.71 0.76 10.16
8/14/2022 6:30:00 PM 22.41 72.338 0.376 8.7 0.73 10.02
8/14/2022 6:45:00 PM 22.41 72.338 0.379 8.66 0.8 10.07
8/14/2022 7:00:00 PM 22.27 72.086 0.379 8.57 0.72 9.82
8/14/2022 7:15:00 PM 22.19 71.942 0.381 8.48 0.83 9.5
8/14/2022 7:30:00 PM 22.05 71.69 0.381 8.35 0.71 9.06
8/14/2022 7:45:00 PM 21.91 71.438 0.38 8.21 0.79 8.67
8/14/2022 8:00:00 PM 21.75 71.15 0.38 8.03 0.92 8.21
8/14/2022 8:15:00 PM 21.6 70.88 0.383 7.9 0.65 7.93
8/14/2022 8:30:00 PM 21.42 70.556 0.383 7.78 0.86 7.66
8/14/2022 8:45:00 PM 21.25 70.25 0.384 7.67 0.77 7.42
8/14/2022 9:00:00 PM 21.09 69.962 0.384 7.59 0.7 7.19
8/14/2022 9:15:00 PM 20.92 69.656 0.384 7.53 0.85 7.08
8/14/2022 9:30:00 PM 20.76 69.368 0.385 7.49 0.69 7.01
8/14/2022 9:45:00 PM 20.63 69.134 0.385 7.46 0.86 6.92
8/14/2022 10:00:00 PM 20.49 68.882 0.385 7.43 1.08 6.93
8/14/2022 10:15:00 PM 20.37 68.666 0.383 7.39 0.95 6.81
8/14/2022 10:30:00 PM 20.26 68.468 0.383 7.37 0.74 6.78
8/14/2022 10:45:00 PM 20.13 68.234 0.384 7.36 0.78 6.8
8/14/2022 11:00:00 PM 20.03 68.054 0.383 7.3 5.34 6.62
8/14/2022 11:15:00 PM 19.93 67.874 0.382 7.29 0.87 6.62
8/14/2022 11:30:00 PM 19.83 67.694 0.383 7.3 0.71 6.67
8/14/2022 11:45:00 PM 19.73 67.514 0.383 7.29 1.53 6.69
8/15/2022 12:00:00 AM 19.66 67.388 0.384 7.29 1.03 6.71
8/15/2022 12:15:00 AM 19.59 67.262 0.381 7.27 0.94 6.66
8/15/2022 12:30:00 AM 19.52 67.136 0.384 7.28 1.08 6.71
8/15/2022 12:45:00 AM 19.44 66.992 0.384 7.27 1 6.74
8/15/2022 1:00:00 AM 19.37 66.866 0.385 7.27 1.56 6.76
8/15/2022 1:15:00 AM 19.29 66.722 0.384 7.25 0.9 6.69
8/15/2022 1:30:00 AM 19.2 66.56 0.385 7.26 0.76 6.77
8/15/2022 1:45:00 AM 19.13 66.434 0.384 7.25 0.96 6.73
8/15/2022 2:00:00 AM 19.04 66.272 0.386 7.25 1.36 6.77
8/15/2022 2:15:00 AM 18.95 66.11 0.386 7.24 1.07 6.78
8/15/2022 2:30:00 AM 18.88 65.984 0.386 7.25 0.96 6.85
8/15/2022 2:45:00 AM 18.79 65.82201 0.386 7.25 1.05 6.84
8/15/2022 3:00:00 AM 18.72 65.696 0.387 7.25 0.97 6.88
8/15/2022 3:15:00 AM 18.63 65.534 0.386 7.24 0.99 6.87
8/15/2022 3:30:00 AM 18.56 65.408 0.387 7.24 0.95 6.91
8/15/2022 3:45:00 AM 18.47 65.246 0.385 7.23 1.3 6.94
8/15/2022 4:00:00 AM 18.39 65.102 0.387 7.24 0.84 6.97
8/15/2022 4:15:00 AM 18.32 64.976 0.289 7.24 0.9 6.98
8/15/2022 4:30:00 AM 18.22 64.796 0.388 7.23 0.88 7.02
8/15/2022 4:45:00 AM 18.13 64.634 0.388 7.23 1.28 7.03
8/15/2022 5:00:00 AM 18.04 64.472 0.387 7.24 0.87 7.05
8/15/2022 5:15:00 AM 17.97 64.346 0.388 7.23 0.83 7.05
8/15/2022 5:30:00 AM 17.87 64.166 0.388 7.24 1.01 7.15
8/15/2022 5:45:00 AM 17.8 64.04 0.388 7.23 1.09 7.12
8/15/2022 6:00:00 AM 17.7 63.86 0.389 7.24 0.96 7.19
8/15/2022 6:15:00 AM 17.63 63.734 0.389 7.23 1.18 7.17
8/15/2022 6:30:00 AM 17.56 63.608 0.389 7.25 0.98 7.27
8/15/2022 6:45:00 AM 17.47 63.446 0.389 7.25 0.79 7.4
8/15/2022 7:00:00 AM 17.41 63.338 0.389 7.27 0.73 7.51
8/15/2022 7:15:00 AM 17.36 63.248 0.389 7.28 0.9 7.59
8/15/2022 7:30:00 AM 17.33 63.194 0.389 7.3 0.7 7.77
8/15/2022 7:45:00 AM 17.35 63.23 0.388 7.31 0.78 8.01
8/15/2022 8:00:00 AM 17.43 63.374 0.389 7.39 8.96 8.57
8/15/2022 8:15:00 AM 17.54 63.572 0.388 7.5 1.03 9.15
8/15/2022 8:30:00 AM 17.64 63.752 0.387 7.56 0.58 9.42
8/15/2022 8:45:00 AM 17.8 64.04 0.387 7.69 0.6 9.89
8/15/2022 9:00:00 AM 17.93 64.274 0.387 7.76 0.53 10.16
8/15/2022 9:15:00 AM 18.27 64.886 0.386 7.94 0.54 10.63
8/15/2022 9:30:00 AM 18.45 65.21 0.386 8.02 0.53 10.86
8/15/2022 9:45:00 AM 18.77 65.786 0.386 8.15 0.58 11.19
8/15/2022 10:00:00 AM 19.22 66.596 0.385 8.35 0.55 11.68
8/15/2022 10:15:00 AM 19.47 67.046 0.384 8.48 0.64 12.01
8/15/2022 10:30:00 AM 19.56 67.208 0.383 8.54 0.61 12.15
8/15/2022 10:45:00 AM 19.79 67.622 0.383 8.62 0.63 12.37
8/15/2022 11:00:00 AM 20.11 68.198 0.383 8.71 0.6 12.62
8/15/2022 11:15:00 AM 20.32 68.576 0.382 8.77 0.53 12.93
8/15/2022 11:30:00 AM 20.52 68.936 0.381 8.81 0.63 13.06
8/15/2022 11:45:00 AM 20.65 69.17 0.381 8.85 0.67 13.02
8/15/2022 12:00:00 PM 20.52 68.936 0.381 8.83 0.55 12.74
8/15/2022 12:15:00 PM 20.47 68.846 0.381 8.79 0.87 12.43
8/15/2022 12:30:00 PM 20.5 68.9 0.34 8.8 0.76 12.4
8/15/2022 12:45:00 PM 20.71 69.278 0.38 8.86 0.6 12.71
8/15/2022 1:00:00 PM 20.98 69.764 0.379 8.93 0.64 13.12
8/15/2022 1:15:00 PM 21.08 69.944 0.378 8.96 0.62 13.19
8/15/2022 1:30:00 PM 21.35 70.43 0.378 9.01 0.74 13.52
8/15/2022 1:45:00 PM 21.79 71.222 0.376 9.08 0.54 13.77
8/15/2022 2:00:00 PM 21.85 71.33 0.378 9.05 1.33 13.68
8/15/2022 2:15:00 PM 22.13 71.834 0.378 9.09 1.38 13.69
8/15/2022 2:30:00 PM 22.42 72.356 0.379 9.12 1.2 13.67
8/15/2022 2:45:00 PM 22.22 71.996 0.382 9.05 0.84 12.81
8/15/2022 3:00:00 PM 22.04 71.672 0.385 8.97 0.7 12.15
8/15/2022 3:15:00 PM 21.88 71.384 0.387 8.89 0.87 11.47
8/15/2022 3:30:00 PM 21.73 71.114 0.387 8.79 0.78 10.91
8/15/2022 3:45:00 PM 21.59 70.862 0.387 8.72 0.74 10.6
8/15/2022 4:00:00 PM 21.49 70.682 0.387 8.7 0.95 10.57
8/15/2022 4:15:00 PM 21.44 70.592 0.386 8.71 0.8 10.7
8/15/2022 4:30:00 PM 21.42 70.556 0.385 8.71 0.97 10.82
8/15/2022 4:45:00 PM 21.45 70.61 0.387 8.75 0.93 11.05
8/15/2022 5:00:00 PM 21.46 70.628 0.383 8.76 1.28 11.04
8/15/2022 5:15:00 PM 21.66 70.988 0.384 8.81 0.79 11.29
8/15/2022 5:30:00 PM 21.78 71.204 0.383 8.81 0.79 11.27
8/15/2022 5:45:00 PM 21.9 71.42 0.383 8.82 1.01 11.22
8/15/2022 6:00:00 PM 22.01 71.618 0.383 8.85 0.69 11.33
8/15/2022 6:15:00 PM 21.94 71.492 0.384 8.81 0.99 10.91
8/15/2022 6:30:00 PM 21.74 71.132 0.384 8.67 0.85 10.11
8/15/2022 6:45:00 PM 21.57 70.826 0.384 8.54 0.67 9.62
8/15/2022 7:00:00 PM 21.44 70.592 0.385 8.44 1.14 9.3
8/15/2022 7:15:00 PM 21.28 70.304 0.386 8.3 0.7 8.92
8/15/2022 7:30:00 PM 21.14 70.052 0.386 8.13 1.18 8.55
8/15/2022 7:45:00 PM 20.97 69.746 0.386 7.99 1.39 8.28
8/15/2022 8:00:00 PM 20.84 69.512 0.386 7.86 1.16 8.01
8/15/2022 8:15:00 PM 20.75 69.35 0.386 7.75 1.18 7.7
8/15/2022 8:30:00 PM 20.65 69.17 0.385 7.58 0.77 7.35
8/15/2022 8:45:00 PM 20.57 69.026 0.384 7.53 2.96 7.16
8/15/2022 9:00:00 PM 20.48 68.864 0.385 7.49 0.89 7.09
8/15/2022 9:15:00 PM 20.4 68.72 0.385 7.45 0.94 6.93
8/15/2022 9:30:00 PM 20.33 68.594 0.386 7.42 0.83 6.87
8/15/2022 9:45:00 PM 20.24 68.432 0.387 7.4 0.77 6.89
8/15/2022 10:00:00 PM 20.17 68.306 0.387 7.39 0.77 6.82
8/15/2022 10:15:00 PM 20.1 68.18 0.388 7.36 0.62 6.8
8/15/2022 10:30:00 PM 20.01 68.018 0.388 7.36 1.16 6.82
8/15/2022 10:45:00 PM 19.94 67.892 0.388 7.34 1.45 6.8
8/15/2022 11:00:00 PM 19.84 67.712 0.388 7.31 0.8 6.72
8/15/2022 11:15:00 PM 19.75 67.55 0.389 7.32 0.67 6.75
8/15/2022 11:30:00 PM 19.66 67.388 0.39 7.32 0.78 6.79
8/15/2022 11:45:00 PM 19.59 67.262 0.389 7.28 0.69 6.72
8/16/2022 12:00:00 AM 19.51 67.118 0.39 7.29 0.63 6.76
8/16/2022 12:15:00 AM 19.44 66.992 0.388 7.26 0.79 6.59
8/16/2022 12:30:00 AM 19.36 66.848 0.391 7.28 0.8 6.76
8/16/2022 12:45:00 AM 19.28 66.704 0.391 7.28 0.65 6.77
8/16/2022 1:00:00 AM 19.23 66.614 0.39 7.27 0.7 6.72
8/16/2022 1:15:00 AM 19.15 66.47 0.392 7.27 0.64 6.77
8/16/2022 1:30:00 AM 19.08 66.344 0.392 7.26 0.68 6.78
8/16/2022 1:45:00 AM 19.01 66.218 0.392 7.26 0.67 6.76
8/16/2022 2:00:00 AM 18.92 66.056 0.393 7.26 0.72 6.83
8/16/2022 2:15:00 AM 18.86 65.948 0.392 7.26 0.72 6.79
8/16/2022 2:30:00 AM 18.81 65.858 0.392 7.24 0.92 6.75
8/16/2022 2:45:00 AM 18.74 65.732 0.393 7.25 0.71 6.87
8/16/2022 3:00:00 AM 18.67 65.606 0.393 7.25 0.89 6.84
8/16/2022 3:15:00 AM 18.6 65.48 0.393 7.25 0.76 6.85
8/16/2022 3:30:00 AM 18.55 65.39 0.393 7.23 0.73 6.84
8/16/2022 3:45:00 AM 18.48 65.264 0.392 7.24 0.91 6.86
8/16/2022 4:00:00 AM 18.42 65.156 0.392 7.23 1.88 6.84
8/16/2022 4:15:00 AM 18.35 65.03 0.393 7.24 1.16 6.92
8/16/2022 4:30:00 AM 18.3 64.94 0.391 7.23 0.85 6.86
8/16/2022 4:45:00 AM 18.21 64.778 0.189 7.25 0.82 7.01
8/16/2022 5:00:00 AM 18.15 64.67 0.392 7.24 0.74 6.99
8/16/2022 5:15:00 AM 18.08 64.544 0.39 7.24 1.03 6.98
8/16/2022 5:30:00 AM 18.04 64.472 0.391 7.24 0.97 7.04
8/16/2022 5:45:00 AM 17.99 64.382 0.389 7.22 2 6.97
8/16/2022 6:00:00 AM 17.93 64.274 0.389 7.23 1.17 7.03
8/16/2022 6:15:00 AM 17.88 64.184 0.388 7.23 1.12 7.08
8/16/2022 6:30:00 AM 17.81 64.058 0.387 7.24 1.01 7.13
8/16/2022 6:45:00 AM 17.77 63.986 0.386 7.23 6.21 7.11
8/16/2022 7:00:00 AM 17.74 63.932 0.385 7.26 1.8 7.39
8/16/2022 7:15:00 AM 17.74 63.932 0.385 7.31 0.66 7.72
8/16/2022 7:30:00 AM 17.74 63.932 0.384 7.33 0.65 7.93
8/16/2022 7:45:00 AM 17.77 63.986 0.383 7.37 1.05 8.24
8/16/2022 8:00:00 AM 17.88 64.184 0.382 7.47 0.72 8.87
8/16/2022 8:15:00 AM 18.01 64.418 0.381 7.54 0.56 9.33
8/16/2022 8:30:00 AM 18.17 64.706 0.378 7.7 0.63 9.94
8/16/2022 8:45:00 AM 18.31 64.958 0.38 7.8 0.61 10.26
8/16/2022 9:00:00 AM 18.48 65.264 0.381 7.92 0.56 10.5
8/16/2022 9:15:00 AM 18.7 65.66 0.381 8.07 0.55 10.92
8/16/2022 9:30:00 AM 18.89 66.002 0.382 8.16 0.58 11.14
8/16/2022 9:45:00 AM 19.21 66.578 0.384 8.31 0.66 11.53
8/16/2022 10:00:00 AM 19.42 66.956 0.385 8.43 0.98 11.93
8/16/2022 10:15:00 AM 19.68 67.424 0.385 8.56 0.74 12.22
8/16/2022 10:30:00 AM 19.93 67.874 0.387 8.61 0.87 12.42
8/16/2022 10:45:00 AM 20.15 68.27 0.387 8.68 0.65 12.53
8/16/2022 11:00:00 AM 20.42 68.756 0.389 8.74 0.66 12.73
8/16/2022 11:15:00 AM 20.6 69.08 0.392 8.76 0.66 12.58
8/16/2022 11:30:00 AM 20.88 69.584 0.393 8.81 0.72 12.75
8/16/2022 11:45:00 AM 20.85 69.53 0.393 8.8 0.71 12.49
8/16/2022 12:00:00 PM 21.32 70.376 0.393 8.88 0.6 13.03
8/16/2022 12:15:00 PM 21.71 71.078 0.393 8.95 1.01 13.3
8/16/2022 12:30:00 PM 21.7 71.06 0.393 8.92 0.74 13.04
8/16/2022 12:45:00 PM 22.4 72.32 0.399 9.02 0.69 13.45
8/16/2022 1:00:00 PM 22.48 72.464 0.402 9.01 0.64 13.25
8/16/2022 1:15:00 PM 22.17 71.906 0.401 8.97 0.61 12.84
8/16/2022 1:30:00 PM 22.68 72.824 0.402 9.04 0.65 13.21
8/16/2022 1:45:00 PM 22.93 73.274 0.402 9.05 0.65 13.3
8/16/2022 2:00:00 PM 23.07 73.526 0.402 9.07 0.73 13.35
8/16/2022 2:15:00 PM 23.28 73.904 0.402 9.1 0.57 13.38
8/16/2022 2:30:00 PM 23.13 73.634 0.403 9.05 0.73 13.02
8/16/2022 2:45:00 PM 23.25 73.85 0.403 9.06 1.12 12.91
8/16/2022 3:00:00 PM 23.49 74.282 0.404 9.08 0.82 12.96
8/16/2022 3:15:00 PM 23.71 74.67799 0.405 9.09 0.69 12.9
8/16/2022 3:30:00 PM 23.57 74.426 0.406 9.04 0.83 12.36
8/16/2022 3:45:00 PM 23.58 74.444 0.405 9.03 0.85 12.34
8/16/2022 4:00:00 PM 23.48 74.264 0.406 9 0.72 12.08
8/16/2022 4:15:00 PM 23.5 74.3 0.406 9.01 0.97 12.06
8/16/2022 4:30:00 PM 23.63 74.534 0.407 9.04 0.78 12.16
8/16/2022 4:45:00 PM 23.78 74.804 0.406 9.06 1.02 12.36
8/16/2022 5:00:00 PM 23.51 74.318 0.407 8.96 0.87 11.5
8/16/2022 5:15:00 PM 23.43 74.174 0.406 8.94 0.66 11.35
8/16/2022 5:30:00 PM 23.48 74.264 0.407 8.97 0.98 11.49
8/16/2022 5:45:00 PM 23.38 74.084 0.406 8.93 0.8 11.33
8/16/2022 6:00:00 PM 23.39 74.102 0.407 8.94 0.82 11.26
8/16/2022 6:15:00 PM 23.35 74.03 0.407 8.93 0.68 11.31
8/16/2022 6:30:00 PM 23.22 73.796 0.407 8.88 0.73 10.93
8/16/2022 6:45:00 PM 23.05 73.49 0.407 8.8 0.75 10.53
8/16/2022 7:00:00 PM 22.95 73.31 0.408 8.74 0.69 10.17
8/16/2022 7:15:00 PM 22.86 73.148 0.41 8.65 0.69 9.74
8/16/2022 7:30:00 PM 22.77 72.986 0.411 8.52 0.58 9.21
8/16/2022 7:45:00 PM 22.59 72.662 0.412 8.37 0.68 8.67
8/16/2022 8:00:00 PM 22.43 72.374 0.413 8.18 0.84 8.18
8/16/2022 8:15:00 PM 22.28 72.104 0.414 8.02 0.81 7.83
8/16/2022 8:30:00 PM 22.09 71.762 0.415 7.86 1 7.42
8/16/2022 8:45:00 PM 21.91 71.438 0.416 7.74 1.12 7.17
8/16/2022 9:00:00 PM 21.72 71.096 0.418 7.66 0.85 7.01
8/16/2022 9:15:00 PM 21.55 70.79 0.418 7.6 0.67 6.94
8/16/2022 9:30:00 PM 21.35 70.43 0.419 7.53 0.93 6.77
8/16/2022 9:45:00 PM 21.16 70.088 0.419 7.49 0.78 6.69
8/16/2022 10:00:00 PM 20.99 69.782 0.42 7.45 0.85 6.64
8/16/2022 10:15:00 PM 20.82 69.476 0.42 7.42 0.72 6.61
8/16/2022 10:30:00 PM 20.66 69.188 0.42 7.4 0.8 6.6
8/16/2022 10:45:00 PM 20.52 68.936 0.419 7.38 0.96 6.56
8/16/2022 11:00:00 PM 20.41 68.738 0.419 7.36 1.51 6.52
8/16/2022 11:15:00 PM 20.29 68.522 0.418 7.34 0.94 6.52
8/16/2022 11:30:00 PM 20.15 68.27 0.417 7.33 0.77 6.49
8/16/2022 11:45:00 PM 20.01 68.018 0.417 7.32 0.77 6.5
8/17/2022 12:00:00 AM 19.9 67.82 0.417 7.31 0.85 6.47
8/17/2022 12:15:00 AM 19.79 67.622 0.414 7.25 3.06 6.35
8/17/2022 12:30:00 AM 19.68 67.424 0.416 7.28 1.44 6.47
8/17/2022 12:45:00 AM 19.56 67.208 0.415 7.28 0.81 6.5
8/17/2022 1:00:00 AM 19.45 67.01 0.415 7.27 1 6.51
8/17/2022 1:15:00 AM 19.37 66.866 0.415 7.25 0.87 6.42
8/17/2022 1:30:00 AM 19.22 66.596 0.416 7.26 0.69 6.56
8/17/2022 1:45:00 AM 19.14 66.452 0.415 7.25 0.85 6.49
8/17/2022 2:00:00 AM 19.02 66.236 0.416 7.26 0.8 6.62
8/17/2022 2:15:00 AM 18.94 66.092 0.416 7.25 0.87 6.56
8/17/2022 2:30:00 AM 18.83 65.894 0.418 7.25 1.1 6.62
8/17/2022 2:45:00 AM 18.73 65.714 0.416 7.25 0.91 6.66
8/17/2022 3:00:00 AM 18.66 65.588 0.415 7.24 1.25 6.61
8/17/2022 3:15:00 AM 18.61 65.498 0.416 7.24 0.71 6.67
8/17/2022 3:30:00 AM 18.55 65.39 0.416 7.23 0.83 6.64
8/17/2022 3:45:00 AM 18.5 65.3 0.416 7.23 0.74 6.66
8/17/2022 4:00:00 AM 18.46 65.228 0.415 7.23 0.68 6.61
8/17/2022 4:15:00 AM 18.4 65.12 0.415 7.23 0.72 6.69
8/17/2022 4:30:00 AM 18.35 65.03 0.414 7.22 0.67 6.68
8/17/2022 4:45:00 AM 18.26 64.868 0.415 7.22 0.7 6.72
8/17/2022 5:00:00 AM 18.19 64.742 0.416 7.22 0.86 6.74
8/17/2022 5:15:00 AM 18.12 64.616 0.416 7.23 0.74 6.75
8/17/2022 5:30:00 AM 18.05 64.49 0.415 7.22 0.77 6.77
8/17/2022 5:45:00 AM 17.96 64.328 0.416 7.22 0.81 6.79
8/17/2022 6:00:00 AM 17.87 64.166 0.416 7.22 0.88 6.81
8/17/2022 6:15:00 AM 17.81 64.058 0.417 7.23 0.94 6.9
8/17/2022 6:30:00 AM 17.75 63.95 0.417 7.23 0.76 6.92
8/17/2022 6:45:00 AM 17.67 63.806 0.418 7.24 0.68 6.98
8/17/2022 7:00:00 AM 17.62 63.716 0.418 7.24 0.66 7.08
8/17/2022 7:15:00 AM 17.6 63.68 0.417 7.26 0.58 7.35
8/17/2022 7:30:00 AM 17.59 63.662 0.416 7.27 0.61 7.43
8/17/2022 7:45:00 AM 17.59 63.662 0.416 7.3 0.82 7.75
8/17/2022 8:00:00 AM 17.61 63.698 0.417 7.35 0.75 8.15
8/17/2022 8:15:00 AM 17.68 63.824 0.417 7.45 0.62 8.72
8/17/2022 8:30:00 AM 17.76 63.968 0.415 7.5 0.73 9.22
8/17/2022 8:45:00 AM 17.89 64.202 0.416 7.63 0.56 9.7
8/17/2022 9:00:00 AM 17.98 64.364 0.416 7.72 0.59 9.99
8/17/2022 9:15:00 AM 18.07 64.526 0.415 7.79 0.7 10.25
8/17/2022 9:30:00 AM 18.27 64.886 0.415 8.03 0.69 10.87
8/17/2022 9:45:00 AM 18.33 64.994 0.414 8.07 0.57 10.99
8/17/2022 10:00:00 AM 18.44 65.192 0.415 8.19 0.98 11.26
8/17/2022 10:15:00 AM 18.52 65.336 0.415 8.23 0.79 11.32
8/17/2022 10:30:00 AM 18.56 65.408 0.415 8.21 0.59 11.19
8/17/2022 10:45:00 AM 18.63 65.534 0.415 8.28 0.54 11.4
8/17/2022 11:00:00 AM 18.71 65.67799 0.414 8.38 0.7 11.51
8/17/2022 11:15:00 AM 18.76 65.768 0.415 8.39 0.86 11.52
8/17/2022 11:30:00 AM 18.77 65.786 0.414 8.4 0.64 11.44
8/17/2022 11:45:00 AM 18.79 65.82201 0.415 8.36 0.67 11.23
8/17/2022 12:00:00 PM 18.86 65.948 0.414 8.38 0.68 11.31
8/17/2022 12:15:00 PM 19.01 66.218 0.413 8.52 0.91 11.89
8/17/2022 12:30:00 PM 19.21 66.578 0.412 8.67 0.61 12.46
8/17/2022 12:45:00 PM 19.62 67.316 0.41 8.81 0.65 13.18
8/17/2022 1:00:00 PM 20 68 0.409 8.91 0.61 13.64
8/17/2022 1:15:00 PM 20.24 68.432 0.407 8.97 0.62 13.93
8/17/2022 1:30:00 PM 20.47 68.846 0.407 9.03 0.66 14.06
8/17/2022 1:45:00 PM 20.89 69.602 0.406 9.09 0.71 14.23
8/17/2022 2:00:00 PM 20.83 69.494 0.406 9.05 0.85 13.65
8/17/2022 2:15:00 PM 21.08 69.944 0.405 9.1 0.83 14.1
8/17/2022 2:30:00 PM 20.93 69.674 0.407 9.03 0.71 13.21
8/17/2022 2:45:00 PM 20.87 69.566 0.406 9.03 1.3 13.15
8/17/2022 3:00:00 PM 20.82 69.476 0.407 9.01 0.94 12.94
8/17/2022 3:15:00 PM 20.8 69.44 0.407 9.01 1.04 12.82
8/17/2022 3:30:00 PM 21.07 69.926 0.407 9.08 0.67 13.28
8/17/2022 3:45:00 PM 21.31 70.358 0.406 9.09 0.72 13.29
8/17/2022 4:00:00 PM 21.36 70.448 0.406 9.1 0.69 13.23
8/17/2022 4:15:00 PM 21.7 71.06 0.407 9.12 0.77 13.14
8/17/2022 4:30:00 PM 21.88 71.384 0.408 9.12 0.79 13.05
8/17/2022 4:45:00 PM 21.96 71.528 0.408 9.12 0.72 12.91
8/17/2022 5:00:00 PM 22.15 71.87 0.409 9.14 0.73 13
8/17/2022 5:15:00 PM 22.22 71.996 0.392 9.13 0.68 12.83
8/17/2022 5:30:00 PM 22.1 71.78 0.409 9.07 0.84 12.34
8/17/2022 5:45:00 PM 21.91 71.438 0.41 9.01 0.74 11.86
8/17/2022 6:00:00 PM 21.74 71.132 0.412 8.94 0.66 11.15
8/17/2022 6:15:00 PM 21.51 70.718 0.414 8.83 0.69 10.47
8/17/2022 6:30:00 PM 21.37 70.466 0.415 8.69 1.1 9.96
8/17/2022 6:45:00 PM 21.26 70.268 0.414 8.61 0.9 9.66
8/17/2022 7:00:00 PM 21.19 70.142 0.415 8.57 0.72 9.66
8/17/2022 7:15:00 PM 21.07 69.926 0.413 8.43 0.92 9.29
8/17/2022 7:30:00 PM 20.95 69.71 0.417 8.37 0.89 9.01
8/17/2022 7:45:00 PM 20.84 69.512 0.418 8.23 0.84 8.62
8/17/2022 8:00:00 PM 20.71 69.278 0.419 8.09 0.76 8.29
8/17/2022 8:15:00 PM 20.58 69.044 0.416 7.91 0.97 7.8
8/17/2022 8:30:00 PM 20.48 68.864 0.419 7.81 2.56 7.67
8/17/2022 8:45:00 PM 20.37 68.666 0.42 7.7 1.05 7.42
8/17/2022 9:00:00 PM 20.24 68.432 0.421 7.63 1.64 7.25
8/17/2022 9:15:00 PM 20.13 68.234 0.421 7.58 2.01 7.18
8/17/2022 9:30:00 PM 20.03 68.054 0.421 7.52 1.32 7.04
8/17/2022 9:45:00 PM 19.92 67.856 0.42 7.47 1.17 6.91
8/17/2022 10:00:00 PM 19.82 67.676 0.48 7.42 1.63 6.77
8/17/2022 10:15:00 PM 19.71 67.478 0.422 7.43 1.27 6.84
8/17/2022 10:30:00 PM 19.58 67.244 0.424 7.41 1.25 6.85
8/17/2022 10:45:00 PM 19.46 67.028 0.423 7.39 0.81 6.8
8/17/2022 11:00:00 PM 19.34 66.812 0.424 7.38 0.83 6.79
8/17/2022 11:15:00 PM 19.24 66.632 0.424 7.36 0.84 6.78
8/17/2022 11:30:00 PM 19.12 66.416 0.424 7.35 1.16 6.77
8/17/2022 11:45:00 PM 19 66.2 0.424 7.34 0.91 6.76
8/18/2022 12:00:00 AM 18.9 66.02 0.424 7.32 1.17 6.72
8/18/2022 12:15:00 AM 18.84 65.912 0.424 7.31 0.89 6.65
8/18/2022 12:30:00 AM 18.75 65.75 0.425 7.31 0.77 6.79
8/18/2022 12:45:00 AM 18.67 65.606 0.425 7.3 0.99 6.75
8/18/2022 1:00:00 AM 18.61 65.498 0.425 7.29 0.89 6.77
8/18/2022 1:15:00 AM 18.52 65.336 0.426 7.29 1.42 6.83
8/18/2022 1:30:00 AM 18.45 65.21 0.426 7.29 0.89 6.82
8/18/2022 1:45:00 AM 18.38 65.084 0.426 7.27 0.77 6.76
8/18/2022 2:00:00 AM 18.28 64.904 0.427 7.27 0.87 6.84
8/18/2022 2:15:00 AM 18.19 64.742 0.428 7.28 1.06 6.9
8/18/2022 2:30:00 AM 18.09 64.562 0.427 7.27 1.07 6.87
8/18/2022 2:45:00 AM 18.03 64.454 0.428 7.26 0.84 6.9
8/18/2022 3:00:00 AM 17.97 64.346 0.43 7.27 0.94 6.94
8/18/2022 3:15:00 AM 17.92 64.256 0.43 7.26 0.9 6.87
8/18/2022 3:30:00 AM 17.88 64.184 0.432 7.25 0.82 6.89
8/18/2022 3:45:00 AM 17.84 64.112 0.434 7.25 0.78 6.89
8/18/2022 4:00:00 AM 17.8 64.04 0.437 7.26 0.92 6.96
8/18/2022 4:15:00 AM 17.77 63.986 0.438 7.26 0.82 6.96
8/18/2022 4:30:00 AM 17.73 63.914 0.439 7.26 0.98 6.99
8/18/2022 4:45:00 AM 17.69 63.842 0.441 7.26 1.19 7.02
8/18/2022 5:00:00 AM 17.65 63.77 0.404 7.26 0.91 6.98
8/18/2022 5:15:00 AM 17.62 63.716 0.444 7.26 0.82 7.02
8/18/2022 5:30:00 AM 17.58 63.644 0.446 7.26 1.21 7.02
8/18/2022 5:45:00 AM 17.54 63.572 0.448 7.26 0.72 7.05
8/18/2022 6:00:00 AM 17.52 63.536 0.448 7.26 0.76 7.06
8/18/2022 6:15:00 AM 17.48 63.464 0.449 7.25 0.96 7.03
8/18/2022 6:30:00 AM 17.45 63.41 0.451 7.26 1.21 7.08
8/18/2022 6:45:00 AM 17.42 63.356 0.452 7.26 1.19 7.18
8/18/2022 7:00:00 AM 17.41 63.338 0.453 7.27 1.13 7.23
8/18/2022 7:15:00 AM 17.4 63.32 0.454 7.3 0.74 7.42
8/18/2022 7:30:00 AM 17.4 63.32 0.454 7.31 0.73 7.55
8/18/2022 7:45:00 AM 17.42 63.356 0.455 7.35 0.76 7.83
8/18/2022 8:00:00 AM 17.42 63.356 0.454 7.35 0.89 7.92
8/18/2022 8:15:00 AM 17.45 63.41 0.454 7.38 1.31 8.11
8/18/2022 8:30:00 AM 17.52 63.536 0.454 7.48 1.27 8.74
8/18/2022 8:45:00 AM 17.61 63.698 0.453 7.53 0.87 9.2
8/18/2022 9:00:00 AM 17.72 63.896 0.452 7.63 1.18 9.71
8/18/2022 9:15:00 AM 17.92 64.256 0.452 7.87 1.43 10.58
8/18/2022 9:30:00 AM 18.03 64.454 0.452 7.98 1.16 10.88
8/18/2022 9:45:00 AM 18.13 64.634 0.452 8.07 1.18 11.11
8/18/2022 10:00:00 AM 18.32 64.976 0.451 8.23 1.09 11.61
8/18/2022 10:15:00 AM 18.43 65.174 0.452 8.3 0.76 11.78
8/18/2022 10:30:00 AM 18.56 65.408 0.451 8.4 0.79 12.1
8/18/2022 10:45:00 AM 18.77 65.786 0.45 8.54 1.47 12.41
8/18/2022 11:00:00 AM 18.92 66.056 0.449 8.61 0.76 12.67
8/18/2022 11:15:00 AM 19.45 67.01 0.448 8.72 1.31 13.02
8/18/2022 11:30:00 AM 19.89 67.802 0.448 8.78 0.98 13.17
8/18/2022 11:45:00 AM 20.44 68.792 0.449 8.86 0.82 13.37
8/18/2022 12:00:00 PM 20.52 68.936 0.446 8.85 0.84 13.24
8/18/2022 12:15:00 PM 21.02 69.836 0.446 8.92 0.91 13.29
8/18/2022 12:30:00 PM 21.38 70.484 0.446 8.95 1.48 13.33
8/18/2022 12:45:00 PM 21.73 71.114 0.446 8.97 0.81 13.35
8/18/2022 1:00:00 PM 21.89 71.402 0.446 8.98 0.88 13.33
8/18/2022 1:15:00 PM 21.88 71.384 0.452 8.95 0.98 12.95
8/18/2022 1:30:00 PM 21.64 70.952 0.453 8.91 1.11 12.47
8/18/2022 1:45:00 PM 21.42 70.556 0.453 8.82 1.51 11.83
8/18/2022 2:00:00 PM 21.36 70.448 0.451 8.87 0.92 12.25
8/18/2022 2:15:00 PM 21.28 70.304 0.45 8.88 0.92 12.26
8/18/2022 2:30:00 PM 21.23 70.214 0.449 8.9 0.8 12.44
8/18/2022 2:45:00 PM 21.21 70.17799 0.449 8.92 1.01 12.52
8/18/2022 3:00:00 PM 21.34 70.412 0.449 8.96 1.09 12.61
8/18/2022 3:15:00 PM 21.61 70.898 0.449 8.99 0.98 12.93
8/18/2022 3:30:00 PM 21.88 71.384 0.449 9.02 0.85 13.04
8/18/2022 3:45:00 PM 21.73 71.114 0.449 8.92 0.99 12.45
8/18/2022 4:00:00 PM 21.64 70.952 0.449 8.84 1.09 11.74
8/18/2022 4:15:00 PM 21.5 70.7 0.449 8.74 0.98 11.09
8/18/2022 4:30:00 PM 21.39 70.502 0.448 8.69 0.88 10.85
8/18/2022 4:45:00 PM 21.23 70.214 0.449 8.58 0.92 10.45
8/18/2022 5:00:00 PM 21.06 69.908 0.448 8.49 1.19 9.94
8/18/2022 5:15:00 PM 21 69.8 0.448 8.45 1 9.92
8/18/2022 5:30:00 PM 21.05 69.89 0.446 8.53 0.96 10.42
8/18/2022 5:45:00 PM 21.13 70.034 0.447 8.57 0.87 10.75
8/18/2022 6:00:00 PM 21.18 70.124 0.447 8.61 0.91 10.73
8/18/2022 6:15:00 PM 21.07 69.926 0.445 8.49 0.99 10.32
8/18/2022 6:30:00 PM 20.99 69.782 0.444 8.49 0.88 10.13
8/18/2022 6:45:00 PM 20.86 69.548 0.446 8.41 1.24 9.87
8/18/2022 7:00:00 PM 20.72 69.296 0.447 8.27 2.76 9.41
8/18/2022 7:15:00 PM 20.6 69.08 0.447 8.17 1.04 9.18
8/18/2022 7:30:00 PM 20.46 68.828 0.447 8.03 1.15 8.85
8/18/2022 7:45:00 PM 20.33 68.594 0.445 7.9 1.14 8.5
8/18/2022 8:00:00 PM 20.2 68.36 0.443 7.76 1.06 8.11
8/18/2022 8:15:00 PM 20.06 68.108 0.441 7.69 0.99 7.97
8/18/2022 8:30:00 PM 19.94 67.892 0.436 7.61 1.02 7.67
8/18/2022 8:45:00 PM 19.82 67.676 0.431 7.55 1.27 7.51
8/18/2022 9:00:00 PM 19.73 67.514 0.427 7.49 0.97 7.34
8/18/2022 9:15:00 PM 19.63 67.334 0.42 7.47 1.21 7.24
8/18/2022 9:30:00 PM 19.53 67.154 0.414 7.42 1.39 7.12
8/18/2022 9:45:00 PM 19.44 66.992 0.408 7.39 1.03 7.13
8/18/2022 10:00:00 PM 19.38 66.884 0.403 7.39 1.15 7.06
8/18/2022 10:15:00 PM 19.29 66.722 0.398 7.36 1.22 6.98
8/18/2022 10:30:00 PM 19.22 66.596 0.395 7.36 1.38 7.02
8/18/2022 10:45:00 PM 19.15 66.47 0.392 7.32 1.09 6.92
8/18/2022 11:00:00 PM 19.07 66.326 0.389 7.33 1.16 6.9
8/18/2022 11:15:00 PM 19 66.2 0.386 7.31 1.03 6.92
8/18/2022 11:30:00 PM 18.93 66.074 0.385 7.29 1.04 6.84
8/18/2022 11:45:00 PM 18.85 65.93 0.383 7.29 1.04 6.8
8/19/2022 12:00:00 AM 18.78 65.804 0.383 7.3 1.01 6.9
8/19/2022 12:15:00 AM 18.7 65.66 0.38 7.27 0.81 6.82
8/19/2022 12:30:00 AM 18.63 65.534 0.38 7.28 0.9 6.86
8/19/2022 12:45:00 AM 18.55 65.39 0.379 7.28 0.97 6.88
8/19/2022 1:00:00 AM 18.48 65.264 0.378 7.26 1.15 6.87
8/19/2022 1:15:00 AM 18.39 65.102 0.377 7.26 0.9 6.91
8/19/2022 1:30:00 AM 18.33 64.994 0.378 7.27 0.92 6.99
8/19/2022 1:45:00 AM 18.25 64.85 0.378 7.26 1.03 6.95
8/19/2022 2:00:00 AM 18.19 64.742 0.378 7.25 0.93 6.96
8/19/2022 2:15:00 AM 18.1 64.58 0.378 7.25 1.12 6.99
8/19/2022 2:30:00 AM 18.04 64.472 0.379 7.25 0.96 7.03
8/19/2022 2:45:00 AM 17.96 64.328 0.311 7.24 1.24 7.01
8/19/2022 3:00:00 AM 17.88 64.184 0.271 7.24 1.01 7.02
8/19/2022 3:15:00 AM 17.81 64.058 0.38 7.24 1.44 7.08
8/19/2022 3:30:00 AM 17.72 63.896 0.381 7.25 1.91 7.14
8/19/2022 3:45:00 AM 17.65 63.77 0.382 7.25 0.91 7.16
8/19/2022 4:00:00 AM 17.57 63.626 0.382 7.25 1 7.2
8/19/2022 4:15:00 AM 17.5 63.5 0.382 7.24 0.96 7.19
8/19/2022 4:30:00 AM 17.41 63.338 0.382 7.23 1.06 7.22
8/19/2022 4:45:00 AM 17.34 63.212 0.383 7.24 1.03 7.26
8/19/2022 5:00:00 AM 17.27 63.086 0.382 7.23 0.99 7.25
8/19/2022 5:15:00 AM 17.19 62.942 0.382 7.23 1.04 7.25
8/19/2022 5:30:00 AM 17.1 62.78 0.383 7.24 1.18 7.35
8/19/2022 5:45:00 AM 17.04 62.672 0.382 7.22 0.97 7.27
8/19/2022 6:00:00 AM 16.96 62.528 0.383 7.25 0.92 7.46
8/19/2022 6:15:00 AM 16.9 62.42 0.382 7.22 1.11 7.38
8/19/2022 6:30:00 AM 16.84 62.312 0.382 7.23 1.15 7.45
8/19/2022 6:45:00 AM 16.81 62.258 0.381 7.23 0.96 7.46
8/19/2022 7:00:00 AM 16.78 62.204 0.381 7.24 0.84 7.6
8/19/2022 7:15:00 AM 16.77 62.186 0.381 7.28 0.99 7.88
8/19/2022 7:30:00 AM 16.77 62.186 0.381 7.32 0.93 8.22
8/19/2022 7:45:00 AM 16.76 62.168 0.38 7.36 1.18 8.5
8/19/2022 8:00:00 AM 16.8 62.24 0.379 7.41 0.87 8.85
8/19/2022 8:15:00 AM 16.9 62.42 0.379 7.48 1.27 9.27
8/19/2022 8:30:00 AM 17 62.6 0.377 7.55 0.95 9.61
8/19/2022 8:45:00 AM 17.1 62.78 0.377 7.61 1.11 9.9
8/19/2022 9:00:00 AM 17.29 63.122 0.376 7.74 1.2 10.3
8/19/2022 9:15:00 AM 17.45 63.41 0.375 7.8 1.14 10.52
8/19/2022 9:30:00 AM 17.75 63.95 0.336 7.95 1.48 10.89
8/19/2022 9:45:00 AM 18.01 64.418 0.375 8.04 1.04 11.14
8/19/2022 10:00:00 AM 18.34 65.012 0.374 8.18 1.25 11.4
8/19/2022 10:15:00 AM 18.59 65.462 0.373 8.24 1.4 11.56
8/19/2022 10:30:00 AM 18.89 66.002 0.372 8.33 1.42 11.69
8/19/2022 10:45:00 AM 19.14 66.452 0.372 8.41 1.17 11.84
8/19/2022 11:00:00 AM 19.36 66.848 0.371 8.47 1.08 11.91
8/19/2022 11:15:00 AM 19.72 67.496 0.389 8.55 1.65 12.09
8/19/2022 11:30:00 AM 19.98 67.964 0.181 8.61 1.43 12.21
8/19/2022 11:45:00 AM 20.27 68.486 0.372 8.65 1.53 12.27
8/19/2022 12:00:00 PM 20.6 69.08 0.371 8.7 1.38 12.36
8/19/2022 12:15:00 PM 20.89 69.602 0.304 8.74 1.61 12.48
8/19/2022 12:30:00 PM 21.25 70.25 0.37 8.79 1.09 12.53
8/19/2022 12:45:00 PM 21.52 70.736 0.371 8.8 1.71 12.56
8/19/2022 1:00:00 PM 21.79 71.222 0.381 8.85 1.3 12.55
8/19/2022 1:15:00 PM 22.02 71.636 0.382 8.89 0.97 12.63
8/19/2022 1:30:00 PM 22.35 72.23 0.382 8.92 0.99 12.72
8/19/2022 1:45:00 PM 22.52 72.536 0.381 8.94 0.85 12.75
8/19/2022 2:00:00 PM 22.79 73.022 0.381 8.97 0.86 12.9
8/19/2022 2:15:00 PM 22.68 72.824 0.382 8.93 1.13 12.51
8/19/2022 2:30:00 PM 22.94 73.292 0.382 8.97 0.96 12.7
8/19/2022 2:45:00 PM 23.09 73.562 0.382 9 0.79 12.69
8/19/2022 3:00:00 PM 23.32 73.976 0.382 9.01 0.97 12.7
8/19/2022 3:15:00 PM 23.52 74.336 0.381 8.99 0.94 12.52
8/19/2022 3:30:00 PM 23.6 74.48 0.384 9.02 0.94 12.59
8/19/2022 3:45:00 PM 23.46 74.228 0.383 8.98 1.28 12.13
8/19/2022 4:00:00 PM 23.35 74.03 0.384 8.93 1.58 11.78
8/19/2022 4:15:00 PM 23.33 73.994 0.385 8.93 1.01 11.73
8/19/2022 4:30:00 PM 23.27 73.886 0.385 8.9 1.33 11.44
8/19/2022 4:45:00 PM 23.21 73.778 0.384 8.9 1.24 11.36
8/19/2022 5:00:00 PM 23.23 73.814 0.385 8.9 0.88 11.45
8/19/2022 5:15:00 PM 23.09 73.562 0.386 8.83 0.79 10.88
8/19/2022 5:30:00 PM 23.01 73.418 0.386 8.77 0.95 10.56
8/19/2022 5:45:00 PM 23 73.4 0.387 8.72 0.82 10.36
8/19/2022 6:00:00 PM 23.1 73.58 0.387 8.76 0.95 10.5
8/19/2022 6:15:00 PM 23.14 73.652 0.388 8.73 1.09 10.36
8/19/2022 6:30:00 PM 23.08 73.544 0.387 8.66 0.95 10.08
8/19/2022 6:45:00 PM 22.96 73.328 0.388 8.57 1.04 9.66
8/19/2022 7:00:00 PM 22.82 73.076 0.388 8.43 0.92 9.11
8/19/2022 7:15:00 PM 22.67 72.806 0.389 8.3 0.89 8.69
8/19/2022 7:30:00 PM 22.5 72.5 0.39 8.14 0.73 8.35
8/19/2022 7:45:00 PM 22.33 72.194 0.39 8.02 0.82 8.09
8/19/2022 8:00:00 PM 22.14 71.852 0.392 7.86 0.85 7.75
8/19/2022 8:15:00 PM 21.96 71.528 0.391 7.74 0.81 7.43
8/19/2022 8:30:00 PM 21.79 71.222 0.392 7.64 1.03 7.23
8/19/2022 8:45:00 PM 21.62 70.916 0.391 7.53 1.26 6.93
8/19/2022 9:00:00 PM 21.46 70.628 0.39 7.49 1.1 6.79
8/19/2022 9:15:00 PM 21.29 70.32201 0.39 7.44 1.14 6.73
8/19/2022 9:30:00 PM 21.14 70.052 0.389 7.4 0.93 6.65
8/19/2022 9:45:00 PM 21 69.8 0.39 7.39 1.04 6.61
8/19/2022 10:00:00 PM 20.91 69.638 0.389 7.35 2.41 6.52
8/19/2022 10:15:00 PM 20.77 69.386 0.388 7.34 1.66 6.5
8/19/2022 10:30:00 PM 20.66 69.188 0.389 7.33 1.39 6.52
8/19/2022 10:45:00 PM 20.56 69.008 0.388 7.3 1 6.41
8/19/2022 11:00:00 PM 20.46 68.828 0.388 7.29 1.05 6.45
8/19/2022 11:15:00 PM 20.36 68.648 0.388 7.28 1.04 6.43
8/19/2022 11:30:00 PM 20.26 68.468 0.387 7.26 1.02 6.42
8/19/2022 11:45:00 PM 20.16 68.288 0.385 7.22 0.99 6.24
8/20/2022 12:00:00 AM 20.09 68.162 0.387 7.26 0.92 6.36
8/20/2022 12:15:00 AM 20 68 0.386 7.25 0.87 6.4
8/20/2022 12:30:00 AM 19.91 67.838 0.385 7.23 0.98 6.35
8/20/2022 12:45:00 AM 19.83 67.694 0.387 7.24 1.05 6.45
8/20/2022 1:00:00 AM 19.75 67.55 0.387 7.23 0.97 6.42
8/20/2022 1:15:00 AM 19.67 67.406 0.39 7.24 1.27 6.52
8/20/2022 1:30:00 AM 19.59 67.262 0.39 7.23 1.31 6.51
8/20/2022 1:45:00 AM 19.52 67.136 0.386 7.2 1.18 6.34
8/20/2022 2:00:00 AM 19.45 67.01 0.387 7.22 1.05 6.49
8/20/2022 2:15:00 AM 19.36 66.848 0.387 7.21 1.29 6.47
8/20/2022 2:30:00 AM 19.3 66.74 0.384 7.2 1.08 6.38
8/20/2022 2:45:00 AM 19.23 66.614 0.385 7.2 1.4 6.42
8/20/2022 3:00:00 AM 19.17 66.506 0.386 7.22 0.98 6.62
8/20/2022 3:15:00 AM 19.1 66.38 0.385 7.21 1.03 6.6
8/20/2022 3:30:00 AM 19.03 66.254 0.387 7.2 1.2 6.61
8/20/2022 3:45:00 AM 18.96 66.128 0.385 7.21 1.21 6.67
8/20/2022 4:00:00 AM 18.89 66.002 0.386 7.21 1.9 6.68
8/20/2022 4:15:00 AM 18.83 65.894 0.33 7.22 1.03 6.77
8/20/2022 4:30:00 AM 18.76 65.768 0.384 7.2 1.1 6.68
8/20/2022 4:45:00 AM 18.7 65.66 0.388 7.22 1.53 6.8
8/20/2022 5:00:00 AM 18.64 65.552 0.385 7.2 1.18 6.76
8/20/2022 5:15:00 AM 18.58 65.444 0.386 7.22 1.37 6.85
8/20/2022 5:30:00 AM 18.52 65.336 0.385 7.2 4.13 6.83
8/20/2022 5:45:00 AM 18.49 65.282 0.386 7.22 1.08 6.88
8/20/2022 6:00:00 AM 18.44 65.192 0.386 7.21 1.28 6.87
8/20/2022 6:15:00 AM 18.41 65.138 0.387 7.22 1.16 6.92
8/20/2022 6:30:00 AM 18.36 65.048 0.386 7.22 1.15 7
8/20/2022 6:45:00 AM 18.34 65.012 0.386 7.22 1.09 6.96
8/20/2022 7:00:00 AM 18.33 64.994 0.386 7.23 1.14 7.06
8/20/2022 7:15:00 AM 18.31 64.958 0.385 7.23 0.82 7.21
8/20/2022 7:30:00 AM 18.31 64.958 0.386 7.28 1.24 7.61
8/20/2022 7:45:00 AM 18.32 64.976 0.385 7.32 1.02 7.85
8/20/2022 8:00:00 AM 18.32 64.976 0.382 7.36 0.88 8
8/20/2022 8:15:00 AM 18.34 65.012 0.381 7.34 0.89 8.18
8/20/2022 8:30:00 AM 18.43 65.174 0.379 7.43 0.86 8.62
8/20/2022 8:45:00 AM 18.49 65.282 0.378 7.49 0.83 8.94
8/20/2022 9:00:00 AM 18.62 65.516 0.376 7.55 0.76 9.4
8/20/2022 9:15:00 AM 18.93 66.074 0.375 7.75 0.85 10.02
8/20/2022 9:30:00 AM 19.07 66.326 0.371 7.82 0.94 10.32
8/20/2022 9:45:00 AM 19.32 66.776 0.371 8 0.89 10.7
8/20/2022 10:00:00 AM 19.55 67.19 0.37 8.08 2.58 10.75
8/20/2022 10:15:00 AM 19.74 67.532 0.368 8.11 1.21 10.92
8/20/2022 10:30:00 AM 19.86 67.748 0.367 8.15 1.19 10.97
8/20/2022 10:45:00 AM 19.91 67.838 0.365 8.15 1 10.93
8/20/2022 11:00:00 AM 20.08 68.144 0.365 8.3 2.83 11.26
8/20/2022 11:15:00 AM 20.29 68.522 0.363 8.42 0.87 11.64
8/20/2022 11:30:00 AM 20.7 69.26 0.363 8.57 1.45 11.97
8/20/2022 11:45:00 AM 21.16 70.088 0.362 8.68 0.56 12.34
8/20/2022 12:00:00 PM 21.43 70.574 0.361 8.7 0.6 12.35
8/20/2022 12:15:00 PM 21.68 71.024 0.361 8.71 0.55 12.14
8/20/2022 12:30:00 PM 21.85 71.33 0.361 8.72 0.95 12.11
8/20/2022 12:45:00 PM 22.13 71.834 0.36 8.76 0.75 12.08
8/20/2022 1:00:00 PM 22.47 72.446 0.359 8.8 0.82 12.26
8/20/2022 1:15:00 PM 22.76 72.968 0.362 8.83 0.73 12.27
8/20/2022 1:30:00 PM 22.75 72.95 0.367 8.8 1.12 11.91
8/20/2022 1:45:00 PM 22.7 72.86 0.367 8.77 0.94 11.67
8/20/2022 2:00:00 PM 23.36 74.048 0.368 8.87 3.81 12.25
8/20/2022 2:15:00 PM 23.42 74.156 0.367 8.89 1.23 12.22
8/20/2022 2:30:00 PM 23.56 74.408 0.366 8.92 1.16 12.23
8/20/2022 2:45:00 PM 23.64 74.552 0.365 8.91 0.82 11.98
8/20/2022 3:00:00 PM 23.84 74.912 0.366 8.92 1.23 11.99
8/20/2022 3:15:00 PM 23.98 75.164 0.365 8.91 1.2 11.86
8/20/2022 3:30:00 PM 24.01 75.218 0.364 8.9 0.8 11.73
8/20/2022 3:45:00 PM 24.16 75.488 0.364 8.92 0.53 11.64
8/20/2022 4:00:00 PM 24.2 75.56 0.364 8.92 0.81 11.57
8/20/2022 4:15:00 PM 24.36 75.848 0.364 8.94 0.65 11.56
8/20/2022 4:30:00 PM 24.35 75.83 0.364 8.92 1.82 11.48
8/20/2022 4:45:00 PM 24.33 75.794 0.364 8.9 1.08 11.26
8/20/2022 5:00:00 PM 24.28 75.704 0.364 8.88 0.82 11.01
8/20/2022 5:15:00 PM 24.32 75.776 0.365 8.89 0.63 10.93
8/20/2022 5:30:00 PM 24.27 75.686 0.365 8.86 0.86 10.77
8/20/2022 5:45:00 PM 24.26 75.668 0.366 8.83 0.72 10.58
8/20/2022 6:00:00 PM 24.18 75.524 0.366 8.76 2.01 10.23
8/20/2022 6:15:00 PM 24.14 75.452 0.367 8.75 0.71 9.98
8/20/2022 6:30:00 PM 24.05 75.29 0.368 8.67 0.79 9.67
8/20/2022 6:45:00 PM 23.87 74.966 0.367 8.58 0.7 9.27
8/20/2022 7:00:00 PM 23.74 74.732 0.37 8.43 1.02 8.86
8/20/2022 7:15:00 PM 23.58 74.444 0.37 8.27 0.93 8.28
8/20/2022 7:30:00 PM 23.43 74.174 0.372 8.11 0.64 8.02
8/20/2022 7:45:00 PM 23.25 73.85 0.373 7.95 0.68 7.72
8/20/2022 8:00:00 PM 23.03 73.454 0.374 7.78 0.61 7.35
8/20/2022 8:15:00 PM 22.92 73.256 0.374 7.68 0.75 7.12
8/20/2022 8:30:00 PM 22.76 72.968 0.373 7.59 0.74 6.88
8/20/2022 8:45:00 PM 22.61 72.698 0.374 7.49 0.86 6.57
8/20/2022 9:00:00 PM 22.48 72.464 0.374 7.46 1.02 6.53
8/20/2022 9:15:00 PM 22.37 72.266 0.374 7.42 0.87 6.4
8/20/2022 9:30:00 PM 22.28 72.104 0.374 7.4 0.97 6.42
8/20/2022 9:45:00 PM 22.17 71.906 0.373 7.36 0.74 6.27
8/20/2022 10:00:00 PM 22.06 71.708 0.373 7.34 0.89 6.18
8/20/2022 10:15:00 PM 21.99 71.582 0.373 7.33 0.62 6.22
8/20/2022 10:30:00 PM 21.89 71.402 0.372 7.31 0.79 6.17
8/20/2022 10:45:00 PM 21.82 71.276 0.374 7.29 0.66 6.23
8/20/2022 11:00:00 PM 21.72 71.096 0.372 7.27 0.82 6.08
8/20/2022 11:15:00 PM 21.61 70.898 0.372 7.22 0.98 6.05
8/20/2022 11:30:00 PM 21.55 70.79 0.373 7.26 0.76 6.08
8/20/2022 11:45:00 PM 21.45 70.61 0.372 7.26 0.85 6.18
8/21/2022 12:00:00 AM 21.36 70.448 0.373 7.25 0.73 6.12
8/21/2022 12:15:00 AM 21.27 70.286 0.373 7.23 0.64 6.09
8/21/2022 12:30:00 AM 21.18 70.124 0.373 7.23 1.02 6.1
8/21/2022 12:45:00 AM 21.09 69.962 0.373 7.21 0.82 6.07
8/21/2022 1:00:00 AM 21 69.8 0.375 7.23 0.97 6.2
8/21/2022 1:15:00 AM 20.89 69.602 0.37 7.21 0.89 6.26
8/21/2022 1:30:00 AM 20.81 69.458 0.373 7.22 0.7 6.16
8/21/2022 1:45:00 AM 20.73 69.314 0.374 7.23 0.9 6.22
8/21/2022 2:00:00 AM 20.64 69.152 0.374 7.23 0.87 6.25
8/21/2022 2:15:00 AM 20.55 68.99 0.374 7.22 0.93 6.26
8/21/2022 2:30:00 AM 20.46 68.828 0.375 7.23 0.87 6.28
8/21/2022 2:45:00 AM 20.4 68.72 0.375 7.23 0.83 6.35
8/21/2022 3:00:00 AM 20.3 68.54 0.374 7.22 0.9 6.27
8/21/2022 3:15:00 AM 20.21 68.378 0.371 7.2 0.83 6.28
8/21/2022 3:30:00 AM 20.15 68.27 0.372 7.19 0.7 6.26
8/21/2022 3:45:00 AM 20.08 68.144 0.372 7.18 0.69 6.27
8/21/2022 4:00:00 AM 20.02 68.036 0.373 7.21 0.64 6.39
8/21/2022 4:30:00 AM 19.89 67.802 0.371 7.21 0.8 6.42
8/21/2022 4:45:00 AM 19.82 67.676 0.372 7.21 0.91 6.47
8/21/2022 5:00:00 AM 19.76 67.568 0.37 7.21 0.85 6.49
8/21/2022 5:15:00 AM 19.71 67.478 0.371 7.19 0.94 6.43
8/21/2022 5:30:00 AM 19.66 67.388 0.371 7.2 0.7 6.44
8/21/2022 5:45:00 AM 19.6 67.28 0.37 7.2 0.93 6.47
8/21/2022 6:00:00 AM 19.55 67.19 0.37 7.19 1.59 6.46
8/21/2022 6:15:00 AM 19.5 67.1 0.371 7.21 0.98 6.56
8/21/2022 6:30:00 AM 19.45 67.01 0.368 7.16 0.98 6.36
8/21/2022 6:45:00 AM 19.43 66.974 0.37 7.2 0.78 6.51
8/21/2022 7:00:00 AM 19.39 66.902 0.371 7.22 0.79 6.76
8/21/2022 7:15:00 AM 19.37 66.866 0.372 7.25 0.77 7.02
8/21/2022 7:30:00 AM 19.35 66.83 0.37 7.25 1.29 7.16
8/21/2022 7:45:00 AM 19.35 66.83 0.37 7.27 1.04 7.32
8/21/2022 8:00:00 AM 19.42 66.956 0.37 7.33 1.67 7.76
8/21/2022 8:15:00 AM 19.56 67.208 0.37 7.48 0.91 8.61
8/21/2022 8:30:00 AM 19.6 67.28 0.369 7.52 0.95 8.93
8/21/2022 8:45:00 AM 19.76 67.568 0.315 7.6 0.79 9.4
8/21/2022 9:00:00 AM 19.88 67.784 0.37 7.71 1.1 9.56
8/21/2022 9:15:00 AM 19.98 67.964 0.37 7.77 0.8 9.78
8/21/2022 9:30:00 AM 20.06 68.108 0.371 7.8 0.73 9.7
8/21/2022 9:45:00 AM 20.08 68.144 0.371 7.76 0.78 9.58
8/21/2022 10:00:00 AM 20.09 68.162 0.371 7.78 0.8 9.53
8/21/2022 10:15:00 AM 20.1 68.18 0.371 7.73 1.09 9.34
8/21/2022 10:30:00 AM 20.08 68.144 0.371 7.7 0.77 9.26
8/21/2022 10:45:00 AM 20.09 68.162 0.371 7.7 0.77 9.28
8/21/2022 11:00:00 AM 20.14 68.252 0.371 7.78 1.22 9.5
8/21/2022 11:15:00 AM 20.15 68.27 0.371 7.76 1.41 9.49
8/21/2022 11:30:00 AM 20.19 68.342 0.371 7.83 0.82 9.56
8/21/2022 11:45:00 AM 20.3 68.54 0.371 7.91 0.96 9.95
8/21/2022 12:00:00 PM 20.45 68.81 0.37 8.11 0.96 10.49
8/21/2022 12:15:00 PM 20.5 68.9 0.369 8.11 0.81 10.54
8/21/2022 12:30:00 PM 20.6 69.08 0.369 8.2 0.65 10.72
8/21/2022 12:45:00 PM 20.73 69.314 0.368 8.34 0.92 11.07
8/21/2022 1:00:00 PM 20.95 69.71 0.367 8.47 0.9 11.48
8/21/2022 1:15:00 PM 21.57 70.826 0.366 8.7 0.71 12.42
8/21/2022 1:30:00 PM 21.76 71.168 0.366 8.75 0.75 12.49
8/21/2022 1:45:00 PM 21.86 71.348 0.364 8.82 0.89 12.62
8/21/2022 2:00:00 PM 22.3 72.14 0.366 8.89 1.09 12.91
8/21/2022 2:15:00 PM 22.39 72.302 0.367 8.93 0.81 12.89
8/21/2022 2:30:00 PM 22.43 72.374 0.367 8.94 0.69 12.85
8/21/2022 2:45:00 PM 22.35 72.23 0.368 8.91 0.85 12.29
8/21/2022 3:00:00 PM 22.18 71.924 0.368 8.8 0.75 11.44
8/21/2022 3:15:00 PM 22.07 71.726 0.37 8.71 0.92 10.86
8/21/2022 3:30:00 PM 21.97 71.546 0.372 8.62 0.86 10.4
8/21/2022 3:45:00 PM 21.9 71.42 0.372 8.51 0.79 10.05
8/21/2022 4:00:00 PM 21.82 71.276 0.372 8.41 0.78 9.66
8/21/2022 4:15:00 PM 21.77 71.186 0.373 8.31 0.79 9.44
8/21/2022 4:30:00 PM 21.71 71.078 0.372 8.19 0.88 9.14
8/21/2022 4:45:00 PM 21.68 71.024 0.374 8.17 0.88 9.07
8/21/2022 5:00:00 PM 21.68 71.024 0.375 8.13 0.67 8.96
8/21/2022 5:15:00 PM 21.7 71.06 0.374 8.13 1.25 9.08
8/21/2022 5:30:00 PM 21.75 71.15 0.374 8.23 0.78 9.39
8/21/2022 5:45:00 PM 21.83 71.294 0.374 8.29 0.89 9.68
8/21/2022 6:00:00 PM 21.85 71.33 0.373 8.31 0.6 9.75
8/21/2022 6:15:00 PM 21.9 71.42 0.374 8.37 0.83 9.88
8/21/2022 6:30:00 PM 21.97 71.546 0.373 8.42 0.99 10.03
8/21/2022 6:45:00 PM 21.99 71.582 0.373 8.4 1.07 9.99
8/21/2022 7:00:00 PM 21.94 71.492 0.374 8.35 0.94 9.66
8/21/2022 7:15:00 PM 21.85 71.33 0.375 8.21 0.8 9.17
8/21/2022 7:30:00 PM 21.75 71.15 0.375 8 0.84 8.7
8/21/2022 7:45:00 PM 21.66 70.988 0.376 7.83 1.07 8.21
8/21/2022 8:00:00 PM 21.59 70.862 0.377 7.76 0.9 8
8/21/2022 8:15:00 PM 21.52 70.736 0.379 7.67 1.1 7.68
8/21/2022 8:30:00 PM 21.42 70.556 0.378 7.56 0.99 7.35
8/21/2022 8:45:00 PM 21.35 70.43 0.38 7.5 0.96 7.18
8/21/2022 9:00:00 PM 21.29 70.32201 0.381 7.46 0.88 6.99
8/21/2022 9:15:00 PM 21.24 70.232 0.382 7.42 0.89 6.89
8/21/2022 9:30:00 PM 21.17 70.106 0.382 7.38 0.97 6.76
8/21/2022 9:45:00 PM 21.13 70.034 0.383 7.37 0.97 6.73
8/21/2022 10:00:00 PM 21.05 69.89 0.382 7.35 1 6.7
8/21/2022 10:15:00 PM 21.03 69.854 0.379 7.34 1.59 6.66
8/21/2022 10:30:00 PM 21 69.8 0.385 7.34 0.86 6.66
8/21/2022 10:45:00 PM 20.95 69.71 0.385 7.31 0.97 6.57
8/21/2022 11:00:00 PM 20.89 69.602 0.385 7.29 0.8 6.55
8/21/2022 11:15:00 PM 20.86 69.548 0.384 7.28 0.9 6.5
8/21/2022 11:30:00 PM 20.84 69.512 0.387 7.29 0.96 6.48
8/21/2022 11:45:00 PM 20.8 69.44 0.386 7.27 0.96 6.4
8/22/2022 12:00:00 AM 20.75 69.35 0.386 7.27 0.98 6.48
8/22/2022 12:15:00 AM 20.72 69.296 0.387 7.26 1.11 6.44
8/22/2022 12:30:00 AM 20.68 69.224 0.387 7.25 0.92 6.49
8/22/2022 12:45:00 AM 20.63 69.134 0.388 7.26 0.98 6.45
8/22/2022 1:00:00 AM 20.59 69.062 0.388 7.24 1.13 6.36
8/22/2022 1:15:00 AM 20.57 69.026 0.389 7.24 1.02 6.42
8/22/2022 1:30:00 AM 20.52 68.936 0.389 7.25 1.04 6.44
8/22/2022 1:45:00 AM 20.46 68.828 0.387 7.22 0.87 6.34
8/22/2022 2:00:00 AM 20.46 68.828 0.389 7.24 0.88 6.38
8/22/2022 2:15:00 AM 20.44 68.792 0.389 7.24 1.01 6.43
8/22/2022 2:30:00 AM 20.42 68.756 0.389 7.22 0.83 6.36
8/22/2022 2:45:00 AM 20.39 68.702 0.389 7.23 0.82 6.43
8/22/2022 3:00:00 AM 20.37 68.666 0.387 7.23 0.86 6.41
8/22/2022 3:15:00 AM 20.35 68.63 0.39 7.23 1.05 6.42
8/22/2022 3:30:00 AM 20.32 68.576 0.389 7.22 1.01 6.39
8/22/2022 3:45:00 AM 20.3 68.54 0.389 7.21 0.89 6.46
8/22/2022 4:00:00 AM 20.28 68.504 0.39 7.23 1 6.5
8/22/2022 4:15:00 AM 20.25 68.45 0.39 7.23 0.96 6.56
8/22/2022 4:30:00 AM 20.25 68.45 0.389 7.22 0.84 6.46
8/22/2022 4:45:00 AM 20.22 68.396 0.388 7.22 0.94 6.49
8/22/2022 5:00:00 AM 20.2 68.36 0.387 7.21 0.94 6.44
8/22/2022 5:15:00 AM 20.17 68.306 0.387 7.2 1.06 6.35
8/22/2022 5:30:00 AM 20.13 68.234 0.387 7.2 0.8 6.42
8/22/2022 5:45:00 AM 20.15 68.27 0.388 7.21 1.14 6.45
8/22/2022 6:00:00 AM 20.13 68.234 0.387 7.2 1.12 6.42
8/22/2022 6:15:00 AM 20.11 68.198 0.388 7.2 3.71 6.41
8/22/2022 6:30:00 AM 20.09 68.162 0.387 7.2 1.2 6.41
8/22/2022 6:45:00 AM 20.09 68.162 0.388 7.21 1.35 6.5
8/22/2022 7:00:00 AM 20.1 68.18 0.389 7.23 0.86 6.66
8/22/2022 7:15:00 AM 20.07 68.126 0.387 7.2 1.06 6.63
8/22/2022 7:30:00 AM 20.06 68.108 0.392 7.21 1.86 6.67
8/22/2022 7:45:00 AM 20.07 68.126 0.394 7.24 1.06 6.87
8/22/2022 8:00:00 AM 20.08 68.144 0.387 7.28 1.34 7.2
8/22/2022 8:15:00 AM 20.1 68.18 0.381 7.31 1.24 7.38
8/22/2022 8:30:00 AM 20 68 0.378 7.26 0.89 7.18
8/22/2022 8:45:00 AM 20.06 68.108 0.379 7.29 0.93 7.32
8/22/2022 9:00:00 AM 20.08 68.144 0.381 7.32 0.9 7.55
8/22/2022 9:15:00 AM 20.13 68.234 0.38 7.36 0.87 7.82
8/22/2022 9:30:00 AM 20.19 68.342 0.381 7.41 0.95 8.13
8/22/2022 9:45:00 AM 20.33 68.594 0.382 7.51 0.82 8.71
8/22/2022 10:00:00 AM 20.61 69.098 0.384 7.72 1.08 9.54
8/22/2022 10:15:00 AM 20.73 69.314 0.383 7.77 9.51 9.84
8/22/2022 10:30:00 AM 20.73 69.314 0.381 7.73 2.33 9.55
8/22/2022 10:45:00 AM 20.74 69.332 0.38 7.74 2.2 9.33
8/22/2022 11:00:00 AM 20.79 69.422 0.382 7.78 3.5 9.63
8/22/2022 11:15:00 AM 21.02 69.836 0.383 7.97 4.53 10.23
8/22/2022 11:30:00 AM 21.06 69.908 0.392 7.99 0.82 10.16
8/22/2022 11:45:00 AM 21.31 70.358 0.384 8.2 3.29 10.8
8/22/2022 12:00:00 PM 21.45 70.61 0.385 8.31 0.9 11.01
8/22/2022 12:15:00 PM 21.64 70.952 0.385 8.37 1.19 11.17
8/22/2022 12:30:00 PM 21.84 71.312 0.383 8.45 0.89 11.34
8/22/2022 12:45:00 PM 21.75 71.15 0.383 8.32 1.79 10.82
8/22/2022 1:00:00 PM 21.65 70.97 0.381 8.3 1.01 10.65
8/22/2022 1:15:00 PM 21.66 70.988 0.381 8.25 1.45 10.35
8/22/2022 1:30:00 PM 22 71.6 0.38 8.38 6.49 10.94
8/22/2022 1:45:00 PM 22.33 72.194 0.385 8.52 0.97 11.29
8/22/2022 2:00:00 PM 22.71 72.878 0.381 8.56 1.7 11.62
8/22/2022 2:15:00 PM 22.69 72.842 0.385 8.52 1.38 11.36
8/22/2022 2:30:00 PM 22.49 72.482 0.392 8.37 1.11 10.54
8/22/2022 2:45:00 PM 22.35 72.23 0.396 8.25 0.97 10.06
8/22/2022 3:00:00 PM 22.28 72.104 0.401 8.16 1.01 9.93
8/22/2022 3:15:00 PM 22.24 72.032 0.407 8.12 0.9 9.71
8/22/2022 3:30:00 PM 22.24 72.032 0.417 8.15 1.1 9.71
8/22/2022 3:45:00 PM 22.31 72.158 0.423 8.29 1.24 10.08
8/22/2022 4:00:00 PM 22.49 72.482 0.436 8.37 1.2 10.37
8/22/2022 4:15:00 PM 22.48 72.464 0.442 8.32 1.01 10.14
8/22/2022 4:30:00 PM 22.25 72.05 0.453 8.14 1.4 9.58
8/22/2022 4:45:00 PM 22.13 71.834 0.466 7.98 1.89 9.1
8/22/2022 5:00:00 PM 21.98 71.564 0.472 7.86 1.58 8.68
8/22/2022 5:15:00 PM 21.88 71.384 0.482 7.78 2.78 8.47
8/22/2022 5:30:00 PM 21.83 71.294 0.492 7.77 1.27 8.5
8/22/2022 5:45:00 PM 21.78 71.204 0.506 7.75 1.38 8.46
8/22/2022 6:00:00 PM 21.71 71.078 0.513 7.68 1.6 8.18
8/22/2022 6:15:00 PM 21.64 70.952 0.517 7.64 1.23 7.99
8/22/2022 6:30:00 PM 21.62 70.916 0.518 7.6 1.39 7.88
8/22/2022 6:45:00 PM 21.58 70.844 0.517 7.56 1.35 7.7
8/22/2022 7:00:00 PM 21.56 70.808 0.515 7.53 2.21 7.63
8/22/2022 7:15:00 PM 21.54 70.772 0.51 7.51 1.51 7.51
8/22/2022 7:30:00 PM 21.47 70.646 0.508 7.48 1.44 7.44
8/22/2022 7:45:00 PM 21.45 70.61 0.509 7.46 1.57 7.37
8/22/2022 8:00:00 PM 21.48 70.664 0.508 7.44 1.56 7.25
8/22/2022 8:15:00 PM 21.45 70.61 0.506 7.43 3.13 7.26
8/22/2022 8:30:00 PM 21.39 70.502 0.498 7.43 4.81 7.27
8/22/2022 8:45:00 PM 21.35 70.43 0.462 7.43 4.53 7.33
8/22/2022 9:00:00 PM 21.3 70.34 0.405 7.43 3.56 7.42
8/22/2022 9:15:00 PM 21.27 70.286 0.376 7.43 3.04 7.44
8/22/2022 9:30:00 PM 21.2 70.16 0.353 7.42 3.53 7.48
8/22/2022 9:45:00 PM 21.14 70.052 0.342 7.43 3.16 7.53
8/22/2022 10:00:00 PM 21.07 69.926 0.342 7.42 2.95 7.53
8/22/2022 10:15:00 PM 21 69.8 0.335 7.43 2.89 7.58
8/22/2022 10:30:00 PM 20.95 69.71 0.337 7.42 2.88 7.62
8/22/2022 10:45:00 PM 20.91 69.638 0.333 7.42 3 7.61
8/22/2022 11:00:00 PM 20.86 69.548 0.334 7.41 2.95 7.63
8/22/2022 11:15:00 PM 20.83 69.494 0.333 7.4 2.82 7.61
8/22/2022 11:30:00 PM 20.8 69.44 0.328 7.4 3.21 7.62
8/22/2022 11:45:00 PM 20.72 69.296 0.329 7.39 2.16 7.67
8/23/2022 12:00:00 AM 20.76 69.368 0.328 7.39 4.21 7.63
8/23/2022 12:15:00 AM 20.75 69.35 0.327 7.39 3.84 7.63
8/23/2022 12:30:00 AM 20.73 69.314 0.323 7.38 4.04 7.64
8/23/2022 12:45:00 AM 20.73 69.314 0.324 7.38 3.95 7.65
8/23/2022 1:00:00 AM 20.71 69.278 0.324 7.37 4.07 7.59
8/23/2022 1:15:00 AM 20.73 69.314 0.319 7.37 4.23 7.65
8/23/2022 1:30:00 AM 20.66 69.188 0.322 7.36 4.74 7.65
8/23/2022 1:45:00 AM 20.69 69.242 0.315 7.36 4.95 7.63
8/23/2022 2:00:00 AM 20.69 69.242 0.314 7.36 5.24 7.65
8/23/2022 2:15:00 AM 20.68 69.224 0.313 7.36 5.66 7.63
8/23/2022 2:30:00 AM 20.7 69.26 0.313 7.36 7.34 7.64
8/23/2022 2:45:00 AM 20.71 69.278 0.317 7.36 7.17 7.65
8/23/2022 3:00:00 AM 20.69 69.242 0.317 7.35 6.02 7.66
8/23/2022 3:15:00 AM 20.68 69.224 0.316 7.35 6.18 7.63
8/23/2022 3:30:00 AM 20.63 69.134 0.315 7.35 6.4 7.63
8/23/2022 3:45:00 AM 20.64 69.152 0.315 7.35 6.3 7.62
8/23/2022 4:00:00 AM 20.7 69.26 0.306 7.35 6.6 7.64
8/23/2022 4:15:00 AM 20.64 69.152 0.305 7.35 6.65 7.65
8/23/2022 4:30:00 AM 20.64 69.152 0.304 7.34 6.82 7.63
8/23/2022 4:45:00 AM 20.7 69.26 0.309 7.35 7.52 7.64
8/23/2022 5:00:00 AM 20.64 69.152 0.308 7.34 7.83 7.65
8/23/2022 5:15:00 AM 20.71 69.278 0.309 7.34 7.14 7.67
8/23/2022 5:30:00 AM 20.65 69.17 0.307 7.35 7.52 7.68
8/23/2022 5:45:00 AM 20.67 69.206 0.305 7.35 7.12 7.7
8/23/2022 6:00:00 AM 20.71 69.278 0.306 7.34 8.42 7.61
8/23/2022 6:15:00 AM 20.65 69.17 0.304 7.35 7.18 7.69
8/23/2022 6:30:00 AM 20.64 69.152 0.303 7.35 7.4 7.64
8/23/2022 6:45:00 AM 20.7 69.26 0.302 7.35 7.06 7.67
8/23/2022 7:00:00 AM 20.65 69.17 0.301 7.37 7.78 7.72
8/23/2022 7:15:00 AM 20.71 69.278 0.3 7.36 7.51 7.73
8/23/2022 7:30:00 AM 20.71 69.278 0.299 7.38 7.29 7.74
8/23/2022 7:45:00 AM 20.74 69.332 0.299 7.39 7.46 7.81
8/23/2022 8:00:00 AM 20.74 69.332 0.297 7.4 7.17 7.87
8/23/2022 8:15:00 AM 20.75 69.35 0.297 7.41 7.48 7.93
8/23/2022 8:30:00 AM 20.77 69.386 0.295 7.43 7.52 7.98
8/23/2022 8:45:00 AM 20.79 69.422 0.294 7.45 7.38 8.01
8/23/2022 9:00:00 AM 20.81 69.458 0.294 7.46 7.26 8.11
8/23/2022 9:15:00 AM 20.82 69.476 0.293 7.48 7.24 8.17
8/23/2022 9:30:00 AM 20.89 69.602 0.291 7.52 7.6 8.36
8/23/2022 9:45:00 AM 20.93 69.674 0.291 7.55 7.5 8.42
8/23/2022 10:00:00 AM 20.95 69.71 0.29 7.56 6.92 8.45
8/23/2022 10:15:00 AM 21 69.8 0.289 7.58 7.36 8.5
8/23/2022 10:30:00 AM 21.14 70.052 0.288 7.65 7.1 8.76
8/23/2022 10:45:00 AM 21.24 70.232 0.287 7.72 7.46 8.89
8/23/2022 11:00:00 AM 21.34 70.412 0.286 7.74 8.16 9.01
8/23/2022 11:15:00 AM 21.42 70.556 0.285 7.8 7.45 9.1
8/23/2022 11:30:00 AM 21.56 70.808 0.285 7.85 7.59 9.17
8/23/2022 11:45:00 AM 21.68 71.024 0.284 7.88 8.41 9.18
8/23/2022 12:00:00 PM 21.79 71.222 0.284 7.93 7.28 9.3
8/23/2022 12:15:00 PM 21.88 71.384 0.283 7.98 7.27 9.31
8/23/2022 12:30:00 PM 21.96 71.528 0.282 7.98 6.84 9.28
8/23/2022 12:45:00 PM 22.1 71.78 0.282 8.01 7.22 9.28
8/23/2022 1:00:00 PM 22.2 71.96 0.28 8 7.09 9.14
8/23/2022 1:15:00 PM 22.38 72.284 0.282 8.01 7.13 9.14
8/23/2022 1:30:00 PM 22.77 72.986 0.282 8.07 7.09 9.28
8/23/2022 1:45:00 PM 22.86 73.148 0.281 8.07 6.7 9.21
8/23/2022 2:00:00 PM 22.89 73.202 0.28 8.09 7.04 9.12
8/23/2022 2:15:00 PM 23.03 73.454 0.279 8.03 7.14 8.99
8/23/2022 2:30:00 PM 23.13 73.634 0.279 8.06 6.65 8.97
8/23/2022 2:45:00 PM 23.11 73.598 0.277 8.02 6.99 8.77
8/23/2022 3:00:00 PM 23.25 73.85 0.277 8.04 6.53 8.85
8/23/2022 3:15:00 PM 23.4 74.12 0.276 8.03 7.5 8.86
8/23/2022 3:30:00 PM 23.49 74.282 0.275 8.09 6.31 9.01
8/23/2022 3:45:00 PM 23.42 74.156 0.273 8.07 6.78 8.83
8/23/2022 4:00:00 PM 23.35 74.03 0.275 8.03 6.88 8.72
8/23/2022 4:15:00 PM 23.3 73.94 0.274 7.98 6.63 8.61
8/23/2022 4:30:00 PM 23.35 74.03 0.275 8.03 6.7 8.76
8/23/2022 4:45:00 PM 23.32 73.976 0.275 8.02 6.35 8.71
8/23/2022 5:00:00 PM 23.23 73.814 0.274 7.98 6.97 8.61
8/23/2022 5:15:00 PM 23.27 73.886 0.274 7.97 6.95 8.65
8/23/2022 5:30:00 PM 23.27 73.886 0.276 7.96 7.05 8.6
8/23/2022 5:45:00 PM 23.17 73.706 0.275 7.92 6.78 8.46
8/23/2022 6:00:00 PM 23.1 73.58 0.275 7.87 6.96 8.39
8/23/2022 6:15:00 PM 23.01 73.418 0.274 7.8 6.76 8.18
8/23/2022 6:30:00 PM 22.97 73.346 0.274 7.76 6.9 8.12
8/23/2022 6:45:00 PM 22.87 73.166 0.273 7.69 6.81 7.93
8/23/2022 7:00:00 PM 22.76 72.968 0.273 7.61 6.65 7.73
8/23/2022 7:15:00 PM 22.7 72.86 0.273 7.57 6.69 7.63
8/23/2022 7:30:00 PM 22.64 72.752 0.273 7.53 6.99 7.54
8/23/2022 7:45:00 PM 22.58 72.644 0.272 7.5 6.58 7.49
8/23/2022 8:00:00 PM 22.5 72.5 0.273 7.47 6.72 7.41
8/23/2022 8:15:00 PM 22.43 72.374 0.273 7.44 7.25 7.35
8/23/2022 8:30:00 PM 22.36 72.248 0.272 7.42 7.16 7.31
8/23/2022 8:45:00 PM 22.29 72.122 0.272 7.41 7.55 7.28
8/23/2022 9:00:00 PM 22.23 72.014 0.271 7.39 7.39 7.26
8/23/2022 9:15:00 PM 22.14 71.852 0.271 7.37 7.87 7.2
8/23/2022 9:30:00 PM 22.09 71.762 0.27 7.38 7 7.19
8/23/2022 9:45:00 PM 22.02 71.636 0.269 7.37 7.29 7.26
8/23/2022 10:00:00 PM 21.95 71.51 0.269 7.36 7.05 7.26
8/23/2022 10:15:00 PM 21.89 71.402 0.269 7.35 7.72 7.24
8/23/2022 10:30:00 PM 21.83 71.294 0.269 7.35 7.69 7.25
8/23/2022 10:45:00 PM 21.75 71.15 0.269 7.34 7.28 7.28
8/23/2022 11:00:00 PM 21.7 71.06 0.27 7.34 7.06 7.3
8/23/2022 11:15:00 PM 21.62 70.916 0.27 7.34 7.07 7.3
8/23/2022 11:30:00 PM 21.57 70.826 0.27 7.34 7.85 7.33
8/23/2022 11:45:00 PM 21.51 70.718 0.27 7.33 6.7 7.31
8/24/2022 12:00:00 AM 21.44 70.592 0.271 7.32 7.13 7.36
8/24/2022 12:15:00 AM 21.39 70.502 0.271 7.32 7.42 7.34
8/24/2022 12:30:00 AM 21.33 70.394 0.271 7.33 7.5 7.35
8/24/2022 12:45:00 AM 21.26 70.268 0.272 7.32 7.19 7.38
8/24/2022 1:00:00 AM 21.19 70.142 0.273 7.32 6.86 7.36
8/24/2022 1:15:00 AM 21.13 70.034 0.273 7.32 7.17 7.36
8/24/2022 1:30:00 AM 21.04 69.872 0.274 7.31 7.41 7.41
8/24/2022 1:45:00 AM 21 69.8 0.274 7.31 7.05 7.39
8/24/2022 2:00:00 AM 20.94 69.692 0.274 7.32 7.47 7.46
8/24/2022 2:15:00 AM 20.88 69.584 0.274 7.31 6.74 7.46
8/24/2022 2:30:00 AM 20.82 69.476 0.274 7.31 7 7.46
8/24/2022 2:45:00 AM 20.77 69.386 0.274 7.31 6.84 7.49
8/24/2022 3:00:00 AM 20.7 69.26 0.274 7.31 7.73 7.54
8/24/2022 3:15:00 AM 20.63 69.134 0.274 7.31 7.18 7.54
8/24/2022 3:30:00 AM 20.58 69.044 0.274 7.31 7.14 7.53
8/24/2022 3:45:00 AM 20.51 68.918 0.275 7.31 7 7.59
8/24/2022 4:00:00 AM 20.45 68.81 0.275 7.31 6.81 7.59
8/24/2022 4:15:00 AM 20.38 68.684 0.275 7.31 7.14 7.57
8/24/2022 4:30:00 AM 20.31 68.558 0.276 7.3 7.1 7.57
8/24/2022 4:45:00 AM 20.25 68.45 0.276 7.3 6.85 7.62
8/24/2022 5:00:00 AM 20.17 68.306 0.276 7.31 6.89 7.67
8/24/2022 5:15:00 AM 20.09 68.162 0.209 7.31 6.63 7.66
8/24/2022 5:30:00 AM 20.02 68.036 0.277 7.31 7.11 7.68
8/24/2022 5:45:00 AM 19.94 67.892 0.265 7.3 6.68 7.7
8/24/2022 6:00:00 AM 19.87 67.766 0.278 7.3 7.85 7.69
8/24/2022 6:15:00 AM 19.78 67.604 0.278 7.3 6.86 7.7
8/24/2022 6:30:00 AM 19.72 67.496 0.278 7.3 7.39 7.72
8/24/2022 6:45:00 AM 19.65 67.37 0.279 7.31 6.3 7.82
8/24/2022 7:00:00 AM 19.58 67.244 0.279 7.33 6.12 7.9
8/24/2022 7:15:00 AM 19.53 67.154 0.28 7.33 5.73 7.96
8/24/2022 7:30:00 AM 19.48 67.064 0.28 7.35 5.72 8.07
8/24/2022 7:45:00 AM 19.47 67.046 0.281 7.38 5.67 8.23
8/24/2022 8:00:00 AM 19.45 67.01 0.281 7.39 7.51 8.3
8/24/2022 8:15:00 AM 19.44 66.992 0.282 7.4 5.43 8.36
8/24/2022 8:30:00 AM 19.47 67.046 0.282 7.43 5.49 8.47
8/24/2022 8:45:00 AM 19.52 67.136 0.282 7.46 5.63 8.61
8/24/2022 9:00:00 AM 19.58 67.244 0.283 7.5 6.11 8.74
8/24/2022 9:15:00 AM 19.65 67.37 0.283 7.52 5.49 8.8
8/24/2022 9:30:00 AM 19.7 67.46 0.283 7.54 5.76 8.87
8/24/2022 9:45:00 AM 19.76 67.568 0.283 7.55 5.05 8.85
8/24/2022 10:00:00 AM 19.85 67.73 0.283 7.58 5.25 8.93
8/24/2022 10:15:00 AM 19.95 67.91 0.283 7.59 5.67 8.95
8/24/2022 10:30:00 AM 20.07 68.126 0.283 7.63 5.54 9.03
8/24/2022 10:45:00 AM 20.2 68.36 0.283 7.64 5.89 9.06
8/24/2022 11:00:00 AM 20.35 68.63 0.284 7.66 5.64 9.09
8/24/2022 11:15:00 AM 20.51 68.918 0.283 7.69 5.42 9.16
8/24/2022 11:30:00 AM 20.7 69.26 0.283 7.75 6.01 9.24
8/24/2022 11:45:00 AM 20.85 69.53 0.284 7.76 5.85 9.33
8/24/2022 12:00:00 PM 21.03 69.854 0.283 7.83 6 9.4
8/24/2022 12:15:00 PM 21.17 70.106 0.283 7.86 5.91 9.42
8/24/2022 12:30:00 PM 21.28 70.304 0.283 7.9 5.84 9.42
8/24/2022 12:45:00 PM 21.41 70.538 0.271 7.94 6.19 9.47
8/24/2022 1:00:00 PM 21.59 70.862 0.282 7.98 5.82 9.48
8/24/2022 1:15:00 PM 21.78 71.204 0.282 8.02 5.92 9.5
8/24/2022 1:30:00 PM 21.97 71.546 0.282 8.04 5.98 9.51
8/24/2022 1:45:00 PM 22.25 72.05 0.282 8.1 5.83 9.57
8/24/2022 2:00:00 PM 22.39 72.302 0.282 8.1 5.82 9.53
8/24/2022 2:15:00 PM 22.6 72.68 0.282 8.11 5.92 9.42
8/24/2022 2:30:00 PM 22.9 73.22 0.281 8.16 5.72 9.5
8/24/2022 2:45:00 PM 23.11 73.598 0.281 8.2 5.94 9.52
8/24/2022 3:00:00 PM 23.24 73.832 0.28 8.23 6.1 9.5
8/24/2022 3:15:00 PM 23.21 73.778 0.281 8.19 5.92 9.32
8/24/2022 3:30:00 PM 23.31 73.958 0.28 8.23 6.37 9.38
8/24/2022 3:45:00 PM 23.35 74.03 0.28 8.19 6.03 9.18
8/24/2022 4:00:00 PM 23.32 73.976 0.202 8.17 6.05 9.12
8/24/2022 4:15:00 PM 23.4 74.12 0.28 8.17 5.99 9.12
8/24/2022 4:30:00 PM 23.42 74.156 0.28 8.14 5.95 9.04
8/24/2022 4:45:00 PM 23.37 74.066 0.28 8.14 5.69 8.96
8/24/2022 5:00:00 PM 23.35 74.03 0.28 8.12 5.92 8.89
8/24/2022 5:15:00 PM 23.32 73.976 0.28 8.11 6.34 8.83
8/24/2022 5:30:00 PM 23.22 73.796 0.28 8.03 6.05 8.69
8/24/2022 5:45:00 PM 23.15 73.67 0.28 8 6.12 8.65
8/24/2022 6:00:00 PM 23.03 73.454 0.28 7.97 6.32 8.57
8/24/2022 6:15:00 PM 22.97 73.346 0.28 7.93 5.92 8.55
8/24/2022 6:30:00 PM 22.87 73.166 0.28 7.87 6.07 8.37
8/24/2022 6:45:00 PM 22.75 72.95 0.28 7.78 5.91 8.16
8/24/2022 7:00:00 PM 22.64 72.752 0.28 7.72 6.29 8.04
8/24/2022 7:15:00 PM 22.54 72.57201 0.281 7.66 6.26 7.91
8/24/2022 7:30:00 PM 22.44 72.392 0.281 7.6 6.28 7.75
8/24/2022 7:45:00 PM 22.34 72.212 0.281 7.55 6.72 7.63
8/24/2022 8:00:00 PM 22.25 72.05 0.281 7.51 6.35 7.51
8/24/2022 8:15:00 PM 22.17 71.906 0.281 7.47 6.53 7.38
8/24/2022 8:30:00 PM 22.1 71.78 0.281 7.44 6.57 7.31
8/24/2022 8:45:00 PM 22.05 71.69 0.281 7.42 6.24 7.26
8/24/2022 9:00:00 PM 21.99 71.582 0.281 7.4 6.15 7.25
8/24/2022 9:15:00 PM 21.92 71.456 0.282 7.39 6.97 7.22
8/24/2022 9:30:00 PM 21.82 71.276 0.282 7.36 5.93 7.19
8/24/2022 9:45:00 PM 21.76 71.168 0.282 7.36 6.07 7.21
8/24/2022 10:00:00 PM 21.7 71.06 0.282 7.35 6.48 7.19
8/24/2022 10:15:00 PM 21.62 70.916 0.283 7.34 6.64 7.2
8/24/2022 10:30:00 PM 21.55 70.79 0.283 7.34 7.55 7.17
8/24/2022 10:45:00 PM 21.48 70.664 0.283 7.32 6.58 7.22
8/24/2022 11:00:00 PM 21.4 70.52 0.283 7.33 6.66 7.22
8/24/2022 11:15:00 PM 21.33 70.394 0.283 7.32 6.35 7.23
8/24/2022 11:30:00 PM 21.27 70.286 0.284 7.32 6.59 7.22
8/24/2022 11:45:00 PM 21.19 70.142 0.284 7.31 6.27 7.24
8/25/2022 12:00:00 AM 21.1 69.98 0.284 7.31 6.12 7.27
8/25/2022 12:15:00 AM 21.01 69.818 0.284 7.3 6.38 7.27
8/25/2022 12:30:00 AM 20.96 69.728 0.284 7.31 6.39 7.33
8/25/2022 12:45:00 AM 20.87 69.566 0.274 7.3 6.18 7.28
8/25/2022 1:00:00 AM 20.8 69.44 0.284 7.3 6.42 7.33
8/25/2022 1:15:00 AM 20.73 69.314 0.284 7.3 6.91 7.36
8/25/2022 1:30:00 AM 20.66 69.188 0.234 7.3 6.55 7.35
8/25/2022 1:45:00 AM 20.56 69.008 0.284 7.29 6.68 7.37
8/25/2022 2:00:00 AM 20.5 68.9 0.284 7.29 6.16 7.41
8/25/2022 2:15:00 AM 20.42 68.756 0.284 7.28 6.28 7.4
8/25/2022 2:30:00 AM 20.34 68.612 0.285 7.28 5.96 7.41
8/25/2022 2:45:00 AM 20.28 68.504 0.285 7.29 6.13 7.44
8/25/2022 3:00:00 AM 20.21 68.378 0.285 7.28 6.85 7.44
8/25/2022 3:15:00 AM 20.13 68.234 0.283 7.28 6.3 7.45
8/25/2022 3:30:00 AM 20.06 68.108 0.285 7.28 7.81 7.48
8/25/2022 3:45:00 AM 19.98 67.964 0.285 7.28 6.33 7.51
8/25/2022 4:00:00 AM 19.9 67.82 0.285 7.28 6.57 7.52
8/25/2022 4:15:00 AM 19.82 67.676 0.285 7.27 6.02 7.53
8/25/2022 4:30:00 AM 19.75 67.55 0.308 7.26 6.1 7.51
8/25/2022 4:45:00 AM 19.68 67.424 0.287 7.27 7 7.54
8/25/2022 5:00:00 AM 19.6 67.28 0.285 7.26 5.98 7.53
8/25/2022 5:15:00 AM 19.53 67.154 0.285 7.27 5.85 7.6
8/25/2022 5:30:00 AM 19.44 66.992 0.288 7.27 5.93 7.61
8/25/2022 5:45:00 AM 19.39 66.902 0.289 7.27 5.84 7.63
8/25/2022 6:00:00 AM 19.33 66.794 0.29 7.26 6.12 7.62
8/25/2022 6:15:00 AM 19.28 66.704 0.29 7.26 6.07 7.63
8/25/2022 6:30:00 AM 19.21 66.578 0.289 7.26 6.27 7.66
8/25/2022 6:45:00 AM 19.14 66.452 0.291 7.26 6.16 7.71
8/25/2022 7:00:00 AM 19.04 66.272 0.292 7.27 6.08 7.8
8/25/2022 7:15:00 AM 19.08 66.344 0.296 7.29 9.45 7.91
8/25/2022 7:30:00 AM 19.07 66.326 0.292 7.32 7 8.1
8/25/2022 7:45:00 AM 19.05 66.29 0.292 7.35 5.91 8.29
8/25/2022 8:00:00 AM 19.03 66.254 0.292 7.37 5.58 8.41
8/25/2022 8:15:00 AM 19.02 66.236 0.292 7.39 7.09 8.49
8/25/2022 8:30:00 AM 19.03 66.254 0.292 7.41 5.93 8.61
8/25/2022 8:45:00 AM 19.1 66.38 0.292 7.45 5.39 8.75
8/25/2022 9:00:00 AM 19.18 66.524 0.293 7.48 6.03 8.87
8/25/2022 9:15:00 AM 19.26 66.668 0.293 7.5 5.98 8.96
8/25/2022 9:30:00 AM 19.33 66.794 0.293 7.53 5.31 9.05
8/25/2022 9:45:00 AM 19.4 66.92 0.293 7.54 5.52 9.09
8/25/2022 10:00:00 AM 19.48 67.064 0.292 7.55 5.28 9.1
8/25/2022 10:15:00 AM 19.6 67.28 0.294 7.58 5.23 9.18
8/25/2022 10:30:00 AM 19.73 67.514 0.293 7.59 5.41 9.22
8/25/2022 10:45:00 AM 19.88 67.784 0.291 7.63 5.76 9.26
8/25/2022 11:00:00 AM 20.07 68.126 0.294 7.68 6.05 9.35
8/25/202